Provisional Data: Sing Sing Creek near Big Flats, NY


Please select a monitoring station.
Please select start date.
Please select start date.

Toggle Unit: C/F Toggle Unit: C/F
Sample Time Temperature (C) Temperature (F) Specific Conductivity (mS/cm) pH   Turbidity (NTU+) DO (mg/L)
6/22/2021 12:00:00 AM 20.99 69.782 0.574 7.67 13.4 6.43
6/22/2021 12:15:00 AM 20.85 69.53 0.576 7.66 12.96 6.41
6/22/2021 12:30:00 AM 20.71 69.278 0.58 7.66 12.29 6.42
6/22/2021 12:45:00 AM 20.59 69.062 0.583 7.65 11.96 6.39
6/22/2021 1:00:00 AM 20.47 68.846 0.586 7.64 11.21 6.34
6/22/2021 1:15:00 AM 20.35 68.63 0.589 7.64 11.46 6.35
6/22/2021 1:30:00 AM 20.25 68.45 0.592 7.63 11.1 6.32
6/22/2021 1:45:00 AM 20.16 68.288 0.594 7.63 11.4 6.31
6/22/2021 2:00:00 AM 20.07 68.126 0.595 7.63 10.45 6.27
6/22/2021 2:15:00 AM 19.99 67.982 0.596 7.63 12.07 6.3
6/22/2021 2:30:00 AM 19.91 67.838 0.596 7.63 10.61 6.33
6/22/2021 2:45:00 AM 19.84 67.712 0.596 7.63 10.56 6.31
6/22/2021 3:00:00 AM 19.77 67.586 0.596 7.63 10.1 6.3
6/22/2021 3:15:00 AM 19.71 67.478 0.596 7.63 9.71 6.32
6/22/2021 3:30:00 AM 19.65 67.37 0.596 7.63 10.25 6.3
6/22/2021 3:45:00 AM 19.59 67.262 0.595 7.62 12.34 6.25
6/22/2021 4:00:00 AM 19.53 67.154 0.595 7.62 13.3 6.27
6/22/2021 4:15:00 AM 19.46 67.028 0.594 7.62 12.66 6.25
6/22/2021 4:30:00 AM 19.41 66.938 0.593 7.61 11.43 6.24
6/22/2021 4:45:00 AM 19.34 66.812 0.593 7.61 12.43 6.22
6/22/2021 5:00:00 AM 19.28 66.704 0.593 7.61 11.32 6.24
6/22/2021 5:15:00 AM 19.22 66.596 0.593 7.6 11.71 6.21
6/22/2021 5:30:00 AM 19.15 66.47 0.592 7.6 12.15 6.22
6/22/2021 5:45:00 AM 19.09 66.362 0.592 7.6 11.9 6.21
6/22/2021 6:00:00 AM 19.02 66.236 0.592 7.59 10.74 6.23
6/22/2021 6:15:00 AM 18.95 66.11 0.592 7.59 22.37 6.17
6/22/2021 6:30:00 AM 18.88 65.984 0.592 7.59 19.89 6.18
6/22/2021 6:45:00 AM 18.81 65.858 0.591 7.58 11.78 6.15
6/22/2021 7:00:00 AM 18.73 65.714 0.591 7.59 10.77 6.24
6/22/2021 7:15:00 AM 18.66 65.588 0.59 7.59 10.33 6.23
6/22/2021 7:30:00 AM 18.58 65.444 0.589 7.59 10.87 6.34
6/22/2021 7:45:00 AM 18.52 65.336 0.588 7.59 10.56 6.3
6/22/2021 8:00:00 AM 18.46 65.228 0.586 7.59 10.34 6.4
6/22/2021 8:15:00 AM 18.4 65.12 0.585 7.59 10.64 6.42
6/22/2021 8:30:00 AM 18.34 65.012 0.583 7.59 11.11 6.48
6/22/2021 8:45:00 AM 18.29 64.922 0.58 7.59 11.29 6.56
6/22/2021 9:00:00 AM 18.23 64.814 0.578 7.59 12 6.58
6/22/2021 9:15:00 AM 18.19 64.742 0.576 7.59 10.97 6.62
6/22/2021 9:30:00 AM 18.15 64.67 0.572 7.59 11.48 6.66
6/22/2021 9:45:00 AM 18.11 64.598 0.569 7.59 12.73 6.7
6/22/2021 10:00:00 AM 18.09 64.562 0.565 7.59 11.56 6.79
6/22/2021 10:15:00 AM 18.07 64.526 0.562 7.59 11.79 6.8
6/22/2021 10:30:00 AM 18.04 64.472 0.558 7.59 12.13 6.91
6/22/2021 10:45:00 AM 18.02 64.436 0.554 7.59 12.6 6.99
6/22/2021 11:00:00 AM 18 64.4 0.55 7.59 12.6 7.02
6/22/2021 11:15:00 AM 17.98 64.364 0.547 7.6 12.75 7.08
6/22/2021 11:30:00 AM 17.95 64.31 0.544 7.59 12.2 7.15
6/22/2021 11:45:00 AM 17.94 64.292 0.541 7.6 12.21 7.2
6/22/2021 12:00:00 PM 17.91 64.238 0.538 7.6 12.36 7.31
6/22/2021 12:15:00 PM 17.88 64.184 0.536 7.6 11.71 7.33
6/22/2021 12:30:00 PM 17.86 64.148 0.535 7.61 10.85 7.38
6/22/2021 12:45:00 PM 17.84 64.112 0.534 7.61 10.33 7.46
6/22/2021 1:00:00 PM 17.79 64.022 0.534 7.61 11.56 7.52
6/22/2021 1:15:00 PM 17.77 63.986 0.534 7.62 9.71 7.57
6/22/2021 1:30:00 PM 17.73 63.914 0.535 7.62 9.59 7.61
6/22/2021 1:45:00 PM 17.72 63.896 0.536 7.62 9.21 7.65
6/22/2021 2:00:00 PM 17.73 63.914 0.538 7.63 8.7 7.79
6/22/2021 2:15:00 PM 17.71 63.878 0.54 7.65 8.58 7.9
6/22/2021 2:30:00 PM 17.7 63.86 0.542 7.65 8.23 7.91
6/22/2021 2:45:00 PM 17.69 63.842 0.545 7.66 8.15 8.01
6/22/2021 3:00:00 PM 17.69 63.842 0.548 7.67 7.43 8.06
6/22/2021 3:15:00 PM 17.66 63.788 0.551 7.67 7.19 7.96
6/22/2021 3:30:00 PM 17.64 63.752 0.554 7.68 10 8.06
6/22/2021 3:45:00 PM 17.67 63.806 0.557 7.69 7.19 8.3
6/22/2021 4:00:00 PM 17.69 63.842 0.561 7.71 6.66 8.46
6/22/2021 4:15:00 PM 17.65 63.77 0.565 7.72 6.25 8.51
6/22/2021 4:30:00 PM 17.61 63.698 0.568 7.73 6.35 8.53
6/22/2021 4:45:00 PM 17.66 63.788 0.572 7.75 6.71 8.78
6/22/2021 5:00:00 PM 17.67 63.806 0.575 7.75 6.74 8.74
6/22/2021 5:15:00 PM 17.64 63.752 0.578 7.77 6.95 8.85
6/22/2021 5:30:00 PM 17.61 63.698 0.582 7.78 6.94 8.91
6/22/2021 5:45:00 PM 17.54 63.572 0.585 7.77 6.61 8.84
6/22/2021 6:00:00 PM 17.53 63.554 0.588 7.79 5.61 9.05
6/22/2021 6:15:00 PM 17.5 63.5 0.591 7.81 5.17 9.01
6/22/2021 6:30:00 PM 17.44 63.392 0.594 7.81 5.28 9.04
6/22/2021 6:45:00 PM 17.4 63.32 0.597 7.81 4.57 9.09
6/22/2021 7:00:00 PM 17.36 63.248 0.6 7.82 4.84 9.07
6/22/2021 7:15:00 PM 17.3 63.14 0.604 7.83 4.52 9.13
6/22/2021 7:30:00 PM 17.25 63.05 0.606 7.82 4.4 9.07
6/22/2021 7:45:00 PM 17.2 62.96 0.61 7.84 3.93 9.09
6/22/2021 8:00:00 PM 17.15 62.87 0.612 7.84 4.2 9.15
6/22/2021 8:15:00 PM 17.09 62.762 0.615 7.84 3.81 9.1
6/22/2021 8:30:00 PM 17.02 62.636 0.617 7.84 3.79 9
6/22/2021 8:45:00 PM 16.94 62.492 0.62 7.84 4.04 8.95
6/22/2021 9:00:00 PM 16.86 62.348 0.623 7.84 3.59 8.89
6/22/2021 9:15:00 PM 16.78 62.204 0.625 7.84 3.56 8.85
6/22/2021 9:30:00 PM 16.69 62.042 0.627 7.83 3.68 8.85
6/22/2021 9:45:00 PM 16.6 61.88 0.629 7.83 3.67 8.73
6/22/2021 10:00:00 PM 16.51 61.718 0.631 7.82 4.28 8.68
6/22/2021 10:15:00 PM 16.44 61.592 0.633 7.81 4.24 8.6
6/22/2021 10:30:00 PM 16.35 61.43 0.635 7.81 4.16 8.55
6/22/2021 10:45:00 PM 16.26 61.268 0.637 7.81 4.8 8.53
6/22/2021 11:00:00 PM 16.19 61.142 0.638 7.8 6.09 8.44
6/22/2021 11:15:00 PM 16.1 60.98 0.639 7.79 4.62 8.4
6/22/2021 11:30:00 PM 16.02 60.836 0.641 7.79 4.96 8.31
6/22/2021 11:45:00 PM 15.95 60.71 0.642 7.77 4.86 8.25
6/23/2021 12:00:00 AM 15.86 60.548 0.643 7.77 4.92 8.23
6/23/2021 12:15:00 AM 15.79 60.422 0.644 7.76 4.44 8.17
6/23/2021 12:30:00 AM 15.7 60.26 0.645 7.76 5.01 8.16
6/23/2021 12:45:00 AM 15.64 60.152 0.646 7.76 5.14 8.03
6/23/2021 1:00:00 AM 15.54 59.972 0.647 7.75 5.25 7.99
6/23/2021 1:15:00 AM 15.45 59.81 0.647 7.75 16.31 7.95
6/23/2021 1:30:00 AM 15.38 59.684 0.648 7.74 5.58 7.9
6/23/2021 1:45:00 AM 15.29 59.522 0.648 7.74 5.17 7.72
6/23/2021 2:00:00 AM 15.21 59.378 0.649 7.74 5.6 7.88
6/23/2021 2:15:00 AM 15.12 59.216 0.649 7.74 5.17 7.92
6/23/2021 2:30:00 AM 15.04 59.072 0.65 7.73 4.92 7.82
6/23/2021 2:45:00 AM 14.97 58.946 0.65 7.73 5.27 7.83
6/23/2021 3:00:00 AM 14.88 58.784 0.65 7.73 5.34 7.82
6/23/2021 3:15:00 AM 14.8 58.64 0.65 7.72 5.75 7.73
6/23/2021 3:30:00 AM 14.73 58.514 0.65 7.72 5.52 7.7
6/23/2021 3:45:00 AM 14.65 58.37 0.651 7.71 4.93 7.69
6/23/2021 4:00:00 AM 14.56 58.208 0.651 7.71 5.28 7.7
6/23/2021 4:15:00 AM 14.48 58.064 0.651 7.71 5.04 7.69
6/23/2021 4:30:00 AM 14.43 57.974 0.651 7.71 5.14 7.64
6/23/2021 4:45:00 AM 14.35 57.83 0.651 7.7 5.02 7.6
6/23/2021 5:00:00 AM 14.27 57.686 0.651 7.7 5.09 7.55
6/23/2021 5:15:00 AM 14.19 57.542 0.651 7.7 5.11 7.62
6/23/2021 5:30:00 AM 14.09 57.362 0.652 7.7 4.86 7.57
6/23/2021 5:45:00 AM 14.03 57.254 0.652 7.69 4.88 7.62
6/23/2021 6:00:00 AM 13.97 57.146 0.652 7.69 4.69 7.6
6/23/2021 6:15:00 AM 13.9 57.02 0.652 7.69 4.91 7.66
6/23/2021 6:30:00 AM 13.84 56.912 0.652 7.68 4.48 7.61
6/23/2021 6:45:00 AM 13.78 56.804 0.652 7.68 4.79 7.6
6/23/2021 7:00:00 AM 13.72 56.696 0.653 7.68 4.67 7.61
6/23/2021 7:15:00 AM 13.66 56.588 0.653 7.68 4.53 7.65
6/23/2021 7:30:00 AM 13.59 56.462 0.653 7.69 5.17 7.7
6/23/2021 7:45:00 AM 13.58 56.444 0.653 7.68 4.78 7.68
6/23/2021 8:00:00 AM 13.56 56.408 0.654 7.69 4.76 7.76
6/23/2021 8:15:00 AM 13.53 56.354 0.654 7.69 4.27 7.79
6/23/2021 8:30:00 AM 13.49 56.282 0.654 7.7 3.95 7.86
6/23/2021 8:45:00 AM 13.48 56.264 0.654 7.7 4.79 7.92
6/23/2021 9:00:00 AM 13.49 56.282 0.654 7.7 3.94 8.01
6/23/2021 9:15:00 AM 13.48 56.264 0.655 7.71 4.29 8.04
6/23/2021 9:30:00 AM 13.51 56.318 0.655 7.72 3.64 8.1
6/23/2021 9:45:00 AM 13.56 56.408 0.655 7.73 8.87 8.27
6/23/2021 10:00:00 AM 13.64 56.552 0.655 7.73 15.93 8.28
6/23/2021 10:15:00 AM 13.76 56.768 0.656 7.75 9.07 8.53
6/23/2021 10:30:00 AM 13.88 56.984 0.656 7.76 4.03 8.71
6/23/2021 10:45:00 AM 13.97 57.146 0.656 7.77 3.99 8.8
6/23/2021 11:00:00 AM 14.13 57.434 0.657 7.78 3.84 8.95
6/23/2021 11:15:00 AM 14.23 57.614 0.657 7.79 3.88 9.13
6/23/2021 11:30:00 AM 14.33 57.794 0.657 7.8 3.72 9.22
6/23/2021 11:45:00 AM 14.49 58.082 0.657 7.83 9.7 9.43
6/23/2021 12:00:00 PM 14.66 58.388 0.658 7.84 3.42 9.6
6/23/2021 12:15:00 PM 14.73 58.514 0.658 7.85 3.2 9.77
6/23/2021 12:30:00 PM 14.92 58.856 0.658 7.86 3.38 9.88
6/23/2021 12:45:00 PM 15.12 59.216 0.658 7.87 3.1 9.99
6/23/2021 1:00:00 PM 15.39 59.702 0.659 7.89 3.16 10.22
6/23/2021 1:15:00 PM 15.55 59.99 0.659 7.9 3.25 10.34
6/23/2021 1:30:00 PM 15.82 60.476 0.659 7.91 3.19 10.44
6/23/2021 1:45:00 PM 16.11 60.998 0.66 7.93 3.17 10.59
6/23/2021 2:00:00 PM 16.36 61.448 0.659 7.94 3.19 10.76
6/23/2021 2:15:00 PM 16.61 61.898 0.659 7.95 2.97 10.92
6/23/2021 2:30:00 PM 16.85 62.33 0.659 7.97 3.25 11.09
6/23/2021 2:45:00 PM 17.1 62.78 0.66 7.97 3.07 11.12
6/23/2021 3:00:00 PM 17.36 63.248 0.66 7.99 3.29 11.32
6/23/2021 3:15:00 PM 17.58 63.644 0.659 8.01 3.18 11.45
6/23/2021 3:30:00 PM 17.75 63.95 0.66 8 3.14 11.42
6/23/2021 3:45:00 PM 17.83 64.094 0.66 8.02 3.13 11.49
6/23/2021 4:00:00 PM 17.87 64.166 0.66 8.03 3.05 11.54
6/23/2021 4:15:00 PM 17.97 64.346 0.659 8.05 2.95 11.64
6/23/2021 4:30:00 PM 17.94 64.292 0.66 8.05 2.88 11.57
6/23/2021 4:45:00 PM 18.06 64.508 0.66 8.05 3.13 11.65
6/23/2021 5:00:00 PM 18.2 64.76 0.66 8.07 3.19 11.66
6/23/2021 5:15:00 PM 18.25 64.85 0.66 8.06 3.35 11.61
6/23/2021 5:30:00 PM 18.25 64.85 0.66 8.06 3.24 11.56
6/23/2021 5:45:00 PM 18.33 64.994 0.66 8.07 3.19 11.5
6/23/2021 6:00:00 PM 18.36 65.048 0.66 8.07 3.06 11.45
6/23/2021 6:15:00 PM 18.41 65.138 0.661 8.06 3.23 11.31
6/23/2021 6:30:00 PM 18.42 65.156 0.661 8.07 2.99 11.23
6/23/2021 6:45:00 PM 18.41 65.138 0.661 8.06 2.82 11.17
6/23/2021 7:00:00 PM 18.41 65.138 0.661 8.05 2.89 11.02
6/23/2021 7:15:00 PM 18.41 65.138 0.661 8.06 2.67 10.96
6/23/2021 7:30:00 PM 18.39 65.102 0.662 8.05 3.8 10.8
6/23/2021 7:45:00 PM 18.37 65.066 0.662 8.03 3.79 10.63
6/23/2021 8:00:00 PM 18.32 64.976 0.662 8.03 4.69 10.52
6/23/2021 8:15:00 PM 18.24 64.832 0.663 8.03 3.26 10.46
6/23/2021 8:30:00 PM 18.18 64.724 0.663 8.02 3.7 10.25
6/23/2021 8:45:00 PM 18.11 64.598 0.663 8.01 2.93 10.17
6/23/2021 9:00:00 PM 18.02 64.436 0.664 8.01 3.19 9.9
6/23/2021 9:15:00 PM 17.96 64.328 0.664 7.99 5.06 9.86
6/23/2021 9:30:00 PM 17.88 64.184 0.665 7.98 3.33 9.72
6/23/2021 9:45:00 PM 17.8 64.04 0.665 7.97 4.19 9.54
6/23/2021 10:00:00 PM 17.73 63.914 0.666 7.96 3.6 9.43
6/23/2021 10:15:00 PM 17.68 63.824 0.666 7.95 3.62 9.27
6/23/2021 10:30:00 PM 17.61 63.698 0.667 7.94 3.64 9.12
6/23/2021 10:45:00 PM 17.54 63.572 0.667 7.93 4.02 8.98
6/23/2021 11:00:00 PM 17.47 63.446 0.667 7.92 3.93 8.85
6/23/2021 11:15:00 PM 17.4 63.32 0.668 7.91 4.32 8.66
6/23/2021 11:30:00 PM 17.33 63.194 0.668 7.9 4.36 8.59
6/23/2021 11:45:00 PM 17.27 63.086 0.668 7.89 4.47 8.52
6/24/2021 12:00:00 AM 17.2 62.96 0.669 7.88 4.35 8.42
6/24/2021 12:15:00 AM 17.11 62.798 0.669 7.87 4.59 8.31
6/24/2021 12:30:00 AM 17.04 62.672 0.67 7.87 4.74 8.24
6/24/2021 12:45:00 AM 16.96 62.528 0.67 7.86 4.41 8.1
6/24/2021 1:00:00 AM 16.89 62.402 0.67 7.85 4.47 8.07
6/24/2021 1:15:00 AM 16.8 62.24 0.671 7.84 4.17 7.97
6/24/2021 1:30:00 AM 16.72 62.096 0.671 7.83 3.96 7.9
6/24/2021 1:45:00 AM 16.61 61.898 0.671 7.83 4.51 7.9
6/24/2021 2:00:00 AM 16.56 61.808 0.671 7.82 4.14 7.82
6/24/2021 2:15:00 AM 16.44 61.592 0.672 7.82 4.52 7.7
6/24/2021 2:30:00 AM 16.35 61.43 0.672 7.81 4.63 7.74
6/24/2021 2:45:00 AM 16.28 61.304 0.672 7.8 4.32 7.65
6/24/2021 3:00:00 AM 16.18 61.124 0.672 7.79 4.19 7.58
6/24/2021 3:15:00 AM 16.08 60.944 0.672 7.79 4.85 7.62
6/24/2021 3:30:00 AM 16.01 60.818 0.673 7.78 5.1 7.56
6/24/2021 3:45:00 AM 15.91 60.638 0.673 7.78 4.57 7.52
6/24/2021 4:00:00 AM 15.81 60.458 0.673 7.78 4.75 7.54
6/24/2021 4:15:00 AM 15.74 60.332 0.673 7.77 4.83 7.48
6/24/2021 4:30:00 AM 15.64 60.152 0.673 7.77 4.89 7.46
6/24/2021 4:45:00 AM 15.55 59.99 0.673 7.76 4.88 7.47
6/24/2021 5:00:00 AM 15.49 59.882 0.673 7.76 4.6 7.46
6/24/2021 5:15:00 AM 15.41 59.738 0.673 7.75 4.61 7.44
6/24/2021 5:30:00 AM 15.3 59.54 0.673 7.75 4.73 7.42
6/24/2021 5:45:00 AM 15.22 59.396 0.673 7.74 4.8 7.42
6/24/2021 6:00:00 AM 15.15 59.27 0.673 7.74 4.65 7.41
6/24/2021 6:15:00 AM 15.06 59.108 0.673 7.73 4.39 7.38
6/24/2021 6:30:00 AM 14.99 58.982 0.673 7.73 4.44 7.4
6/24/2021 6:45:00 AM 14.9 58.82 0.674 7.73 4.37 7.44
6/24/2021 7:00:00 AM 14.83 58.694 0.674 7.73 4.32 7.45
6/24/2021 7:15:00 AM 14.76 58.568 0.674 7.73 4.65 7.51
6/24/2021 7:30:00 AM 14.7 58.46 0.675 7.72 5.84 7.47
6/24/2021 7:45:00 AM 14.64 58.352 0.675 7.72 4.33 7.51
6/24/2021 8:00:00 AM 14.58 58.244 0.675 7.72 3.8 7.57
6/24/2021 8:15:00 AM 14.54 58.172 0.675 7.72 4.04 7.58
6/24/2021 8:30:00 AM 14.49 58.082 0.675 7.72 4.02 7.61
6/24/2021 8:45:00 AM 14.47 58.046 0.675 7.72 3.95 7.71
6/24/2021 9:00:00 AM 14.46 58.028 0.675 7.72 3.98 7.71
6/24/2021 9:15:00 AM 14.46 58.028 0.675 7.73 3.67 7.81
6/24/2021 9:30:00 AM 14.5 58.1 0.675 7.73 3.83 7.88
6/24/2021 9:45:00 AM 14.56 58.208 0.676 7.74 3.52 8.01
6/24/2021 10:00:00 AM 14.64 58.352 0.675 7.75 3.51 8.12
6/24/2021 10:15:00 AM 14.76 58.568 0.676 7.75 3.63 8.22
6/24/2021 10:30:00 AM 14.88 58.784 0.676 7.77 4.74 8.44
6/24/2021 10:45:00 AM 15.02 59.036 0.676 7.77 3.37 8.48
6/24/2021 11:00:00 AM 15.19 59.342 0.676 7.79 3.46 8.67
6/24/2021 11:15:00 AM 15.31 59.558 0.676 7.79 3.23 8.74
6/24/2021 11:30:00 AM 15.56 60.008 0.676 7.82 3.26 9.1
6/24/2021 11:45:00 AM 15.74 60.332 0.676 7.83 3.22 9.19
6/24/2021 12:00:00 PM 15.98 60.764 0.676 7.85 3.3 9.46
6/24/2021 12:15:00 PM 16.22 61.196 0.675 7.87 3.34 9.67
6/24/2021 12:30:00 PM 16.43 61.574 0.675 7.88 3.29 9.83
6/24/2021 12:45:00 PM 16.63 61.934 0.675 7.88 3.36 9.89
6/24/2021 1:00:00 PM 16.92 62.456 0.675 7.91 3.44 10.16
6/24/2021 1:15:00 PM 17.18 62.924 0.674 7.91 3.29 10.26
6/24/2021 1:30:00 PM 17.44 63.392 0.674 7.93 3.32 10.55
6/24/2021 1:45:00 PM 17.73 63.914 0.674 7.95 5.46 10.73
6/24/2021 2:00:00 PM 17.99 64.382 0.673 7.96 2.86 10.85
6/24/2021 2:15:00 PM 18.25 64.85 0.673 7.97 3.13 10.91
6/24/2021 2:30:00 PM 18.43 65.174 0.672 7.97 3.01 11.01
6/24/2021 2:45:00 PM 18.7 65.66 0.672 7.99 2.77 11.1
6/24/2021 3:00:00 PM 18.93 66.074 0.671 8 2.82 11.35
6/24/2021 3:15:00 PM 19.18 66.524 0.67 8.04 2.74 11.56
6/24/2021 3:30:00 PM 19.32 66.776 0.67 8.03 3.74 11.56
6/24/2021 3:45:00 PM 19.53 67.154 0.669 8.06 2.57 11.78
6/24/2021 4:00:00 PM 19.66 67.388 0.669 8.07 2.83 11.76
6/24/2021 4:15:00 PM 19.74 67.532 0.669 8.07 2.62 11.79
6/24/2021 4:30:00 PM 19.84 67.712 0.668 8.08 2.6 11.84
6/24/2021 4:45:00 PM 19.88 67.784 0.668 8.08 2.63 11.78
6/24/2021 5:00:00 PM 19.91 67.838 0.668 8.08 3.43 11.78
6/24/2021 5:15:00 PM 19.93 67.874 0.668 8.08 3.17 11.66
6/24/2021 5:30:00 PM 19.95 67.91 0.668 8.1 3.29 11.65
6/24/2021 5:45:00 PM 19.96 67.92799 0.668 8.1 2.78 11.64
6/24/2021 6:00:00 PM 19.95 67.91 0.669 8.09 2.92 11.54
6/24/2021 6:15:00 PM 19.95 67.91 0.669 8.09 2.88 11.43
6/24/2021 6:30:00 PM 19.93 67.874 0.669 8.08 2.65 11.3
6/24/2021 6:45:00 PM 19.91 67.838 0.669 8.08 2.7 11.17
6/24/2021 7:00:00 PM 19.87 67.766 0.67 8.07 2.78 11.04
6/24/2021 7:15:00 PM 19.84 67.712 0.67 8.07 3.11 10.94
6/24/2021 7:30:00 PM 19.82 67.676 0.67 8.05 2.81 10.71
6/24/2021 7:45:00 PM 19.77 67.586 0.67 8.06 3.05 10.63
6/24/2021 8:00:00 PM 19.74 67.532 0.671 8.05 3.14 10.5
6/24/2021 8:15:00 PM 19.7 67.46 0.671 8.04 2.97 10.35
6/24/2021 8:30:00 PM 19.65 67.37 0.671 8.03 3.24 10.2
6/24/2021 8:45:00 PM 19.6 67.28 0.671 8.02 2.99 10.06
6/24/2021 9:00:00 PM 19.54 67.172 0.672 8.01 3.03 9.91
6/24/2021 9:15:00 PM 19.46 67.028 0.672 8 3.38 9.73
6/24/2021 9:30:00 PM 19.41 66.938 0.672 7.99 3.72 9.51
6/24/2021 9:45:00 PM 19.34 66.812 0.673 7.98 3.43 9.43
6/24/2021 10:00:00 PM 19.28 66.704 0.673 7.97 3.87 9.22
6/24/2021 10:15:00 PM 19.23 66.614 0.674 7.96 3.52 9.07
6/24/2021 10:30:00 PM 19.16 66.488 0.674 7.95 3.67 8.93
6/24/2021 10:45:00 PM 19.11 66.398 0.674 7.94 3.9 8.76
6/24/2021 11:00:00 PM 19.05 66.29 0.674 7.92 4.22 8.62
6/24/2021 11:15:00 PM 19 66.2 0.675 7.91 4.33 8.48
6/24/2021 11:30:00 PM 18.95 66.11 0.675 7.9 3.98 8.32
6/24/2021 11:45:00 PM 18.88 65.984 0.675 7.9 3.98 8.22
6/25/2021 12:00:00 AM 18.82 65.876 0.676 7.88 4.02 8.04
6/25/2021 12:15:00 AM 18.75 65.75 0.676 7.88 4.27 7.99
6/25/2021 12:30:00 AM 18.68 65.624 0.676 7.86 4.54 7.88
6/25/2021 12:45:00 AM 18.61 65.498 0.676 7.86 4.23 7.83
6/25/2021 1:00:00 AM 18.53 65.354 0.676 7.85 4.01 7.73
6/25/2021 1:15:00 AM 18.45 65.21 0.677 7.84 4.36 7.65
6/25/2021 1:30:00 AM 18.37 65.066 0.677 7.83 4.71 7.57
6/25/2021 1:45:00 AM 18.28 64.904 0.677 7.82 4.66 7.52
6/25/2021 2:00:00 AM 18.2 64.76 0.677 7.82 5.28 7.43
6/25/2021 2:15:00 AM 18.12 64.616 0.677 7.8 5.7 7.37
6/25/2021 2:30:00 AM 18.02 64.436 0.677 7.8 4.86 7.34
6/25/2021 2:45:00 AM 17.93 64.274 0.677 7.8 4.94 7.29
6/25/2021 3:00:00 AM 17.85 64.13 0.677 7.79 5.24 7.23
6/25/2021 3:15:00 AM 17.74 63.932 0.676 7.78 5 7.19
6/25/2021 3:30:00 AM 17.65 63.77 0.676 7.78 4.42 7.18
6/25/2021 3:45:00 AM 17.57 63.626 0.676 7.77 5.08 7.13
6/25/2021 4:00:00 AM 17.48 63.464 0.676 7.77 4.7 7.09
6/25/2021 4:15:00 AM 17.41 63.338 0.676 7.76 4.62 7.03
6/25/2021 4:30:00 AM 17.3 63.14 0.675 7.76 4.87 6.99
6/25/2021 4:45:00 AM 17.19 62.942 0.675 7.75 4.71 7.04
6/25/2021 5:00:00 AM 17.11 62.798 0.675 7.75 5.29 7.01
6/25/2021 5:15:00 AM 17.03 62.654 0.675 7.74 5.94 7.01
6/25/2021 5:30:00 AM 16.94 62.492 0.675 7.74 4.85 6.99
6/25/2021 5:45:00 AM 16.86 62.348 0.675 7.73 4.7 6.98
6/25/2021 6:00:00 AM 16.74 62.132 0.674 7.73 4.87 6.99
6/25/2021 6:15:00 AM 16.68 62.024 0.674 7.73 5.03 6.93
6/25/2021 6:30:00 AM 16.58 61.844 0.674 7.73 5.14 7.05
6/25/2021 6:45:00 AM 16.53 61.754 0.674 7.72 4.78 6.98
6/25/2021 7:00:00 AM 16.45 61.61 0.674 7.72 5.11 7.07
6/25/2021 7:15:00 AM 16.38 61.484 0.674 7.72 5.05 7.05
6/25/2021 7:30:00 AM 16.33 61.394 0.675 7.72 5.08 7.15
6/25/2021 7:45:00 AM 16.3 61.34 0.675 7.72 4.8 7.19
6/25/2021 8:00:00 AM 16.25 61.25 0.675 7.72 4.81 7.24
6/25/2021 8:15:00 AM 16.23 61.214 0.675 7.72 4.66 7.27
6/25/2021 8:30:00 AM 16.18 61.124 0.675 7.73 9.04 7.39
6/25/2021 8:45:00 AM 16.17 61.106 0.675 7.74 5.08 7.44
6/25/2021 9:00:00 AM 16.17 61.106 0.675 7.74 4.54 7.53
6/25/2021 9:15:00 AM 16.18 61.124 0.675 7.75 4.34 7.68
6/25/2021 9:30:00 AM 16.22 61.196 0.675 7.76 4.19 7.83
6/25/2021 9:45:00 AM 16.27 61.286 0.675 7.76 4.01 8
6/25/2021 10:00:00 AM 16.32 61.376 0.675 7.77 4.2 8.14
6/25/2021 10:15:00 AM 16.42 61.556 0.675 7.78 4.49 8.31
6/25/2021 10:30:00 AM 16.53 61.754 0.675 7.79 4.42 8.46
6/25/2021 10:45:00 AM 16.65 61.97 0.675 7.81 4.5 8.62
6/25/2021 11:00:00 AM 16.77 62.186 0.675 7.81 6.03 8.78
6/25/2021 11:15:00 AM 16.92 62.456 0.675 7.82 5.03 8.96
6/25/2021 11:30:00 AM 17.13 62.834 0.675 7.85 6.05 9.17
6/25/2021 11:45:00 AM 17.32 63.176 0.675 7.86 5.96 9.41
6/25/2021 12:00:00 PM 17.45 63.41 0.674 7.87 5.03 9.61
6/25/2021 12:15:00 PM 17.58 63.644 0.674 7.89 5.04 9.8
6/25/2021 12:30:00 PM 17.84 64.112 0.674 7.92 3.7 10.08
6/25/2021 12:45:00 PM 18.05 64.49 0.674 7.93 3.6 10.25
6/25/2021 1:00:00 PM 18.19 64.742 0.673 7.94 6.2 10.46
6/25/2021 1:15:00 PM 18.35 65.03 0.673 7.96 6.01 10.57
6/25/2021 1:30:00 PM 18.6 65.48 0.672 7.97 3.47 10.82
6/25/2021 1:45:00 PM 18.82 65.876 0.672 7.99 4.13 10.96
6/25/2021 2:00:00 PM 19.04 66.272 0.671 8.02 3.12 11.2
6/25/2021 2:15:00 PM 19.25 66.65 0.67 8.03 3.37 11.35
6/25/2021 2:30:00 PM 19.39 66.902 0.67 8.05 3.51 11.5
6/25/2021 2:45:00 PM 19.53 67.154 0.669 8.05 3.14 11.65
6/25/2021 3:00:00 PM 19.78 67.604 0.668 8.07 3.09 11.68
6/25/2021 3:15:00 PM 19.92 67.856 0.668 8.08 3.66 11.9
6/25/2021 3:30:00 PM 20.03 68.054 0.667 8.1 3.52 12.03
6/25/2021 3:45:00 PM 20.19 68.342 0.667 8.09 3.02 12.01
6/25/2021 4:00:00 PM 20.42 68.756 0.667 8.1 4.23 12.09
6/25/2021 4:15:00 PM 20.56 69.008 0.667 8.13 3.28 12.22
6/25/2021 4:30:00 PM 20.61 69.098 0.666 8.12 2.97 12.24
6/25/2021 4:45:00 PM 20.64 69.152 0.666 8.11 3.31 12.06
6/25/2021 5:00:00 PM 20.66 69.188 0.666 8.13 3.14 12.09
6/25/2021 5:15:00 PM 20.66 69.188 0.666 8.13 6.16 12.08
6/25/2021 5:30:00 PM 20.64 69.152 0.666 8.13 6.38 11.97
6/25/2021 5:45:00 PM 20.64 69.152 0.666 8.14 5.65 11.97
6/25/2021 6:00:00 PM 20.63 69.134 0.666 8.13 8.61 11.9
6/25/2021 6:15:00 PM 20.61 69.098 0.665 8.14 3.67 11.83
6/25/2021 6:30:00 PM 20.61 69.098 0.666 8.14 4.03 11.81
6/25/2021 6:45:00 PM 20.62 69.116 0.666 8.13 3.2 11.64
6/25/2021 7:00:00 PM 20.63 69.134 0.666 8.14 3.17 11.6
6/25/2021 7:15:00 PM 20.63 69.134 0.666 8.12 3.54 11.4
6/25/2021 7:30:00 PM 20.62 69.116 0.666 8.12 3.31 11.33
6/25/2021 7:45:00 PM 20.59 69.062 0.667 8.12 4.1 11.2
6/25/2021 8:00:00 PM 20.53 68.954 0.667 8.11 4.71 10.83
6/25/2021 8:15:00 PM 20.49 68.882 0.667 8.09 4.55 10.68
6/25/2021 8:30:00 PM 20.42 68.756 0.668 8.08 3.83 10.47
6/25/2021 8:45:00 PM 20.37 68.666 0.668 8.07 3.94 10.3
6/25/2021 9:00:00 PM 20.32 68.576 0.668 8.05 10.5 10.07
6/25/2021 9:15:00 PM 20.27 68.486 0.669 8.04 4.25 9.97
6/25/2021 9:30:00 PM 20.21 68.378 0.669 8.04 4.02 9.79
6/25/2021 9:45:00 PM 20.16 68.288 0.67 8.02 4.05 9.6
6/25/2021 10:00:00 PM 20.11 68.198 0.67 8.01 4.84 9.46
6/25/2021 10:15:00 PM 20.05 68.09 0.67 8 4.33 9.32
6/25/2021 10:30:00 PM 19.99 67.982 0.671 7.99 5.16 9.15
6/25/2021 10:45:00 PM 19.94 67.892 0.671 7.98 5.08 8.99
6/25/2021 11:00:00 PM 19.87 67.766 0.672 7.97 4.89 8.83
6/25/2021 11:15:00 PM 19.82 67.676 0.672 7.96 5.44 8.69
6/25/2021 11:30:00 PM 19.77 67.586 0.672 7.94 4.56 8.53
6/25/2021 11:45:00 PM 19.7 67.46 0.673 7.94 4.88 8.43
6/26/2021 12:00:00 AM 19.64 67.352 0.673 7.93 4.87 8.29
6/26/2021 12:15:00 AM 19.58 67.244 0.673 7.92 5.21 8.18
6/26/2021 12:30:00 AM 19.55 67.19 0.674 7.9 4.54 8.02
6/26/2021 12:45:00 AM 19.49 67.082 0.674 7.89 4.55 7.9
6/26/2021 1:00:00 AM 19.42 66.956 0.674 7.88 4.55 7.8
6/26/2021 1:15:00 AM 19.33 66.794 0.675 7.87 5.23 7.74
6/26/2021 1:30:00 AM 19.27 66.686 0.675 7.86 5.22 7.61
6/26/2021 1:45:00 AM 19.21 66.578 0.675 7.85 4.58 7.52
6/26/2021 2:00:00 AM 19.15 66.47 0.676 7.84 4.49 7.41
6/26/2021 2:15:00 AM 19.09 66.362 0.676 7.83 4.62 7.32
6/26/2021 2:30:00 AM 19.02 66.236 0.676 7.82 4.99 7.26
6/26/2021 2:45:00 AM 18.97 66.146 0.676 7.81 5.09 7.15
6/26/2021 3:00:00 AM 18.88 65.984 0.677 7.81 5.01 7.15
6/26/2021 3:15:00 AM 18.83 65.894 0.677 7.8 5.36 7.09
6/26/2021 3:30:00 AM 18.77 65.786 0.676 7.79 5.43 7.06
6/26/2021 3:45:00 AM 18.71 65.67799 0.677 7.79 5.79 7.01
6/26/2021 4:00:00 AM 18.66 65.588 0.676 7.78 5.2 6.97
6/26/2021 4:15:00 AM 18.6 65.48 0.676 7.77 5.41 6.93
6/26/2021 4:30:00 AM 18.53 65.354 0.676 7.77 5.64 6.9
6/26/2021 4:45:00 AM 18.47 65.246 0.676 7.76 5.76 6.85
6/26/2021 5:00:00 AM 18.42 65.156 0.676 7.76 5.64 6.85
6/26/2021 5:15:00 AM 18.37 65.066 0.676 7.75 4.8 6.77
6/26/2021 5:30:00 AM 18.31 64.958 0.676 7.75 5 6.79
6/26/2021 5:45:00 AM 18.24 64.832 0.676 7.75 5.68 6.78
6/26/2021 6:00:00 AM 18.2 64.76 0.676 7.74 5.2 6.71
6/26/2021 6:15:00 AM 18.15 64.67 0.676 7.73 4.92 6.71
6/26/2021 6:30:00 AM 18.09 64.562 0.676 7.73 4.91 6.75
6/26/2021 6:45:00 AM 18.04 64.472 0.676 7.73 5.14 6.79
6/26/2021 7:00:00 AM 18.01 64.418 0.676 7.73 5.05 6.76
6/26/2021 7:15:00 AM 17.98 64.364 0.676 7.73 4.56 6.86
6/26/2021 7:30:00 AM 17.97 64.346 0.676 7.73 5 6.83
6/26/2021 7:45:00 AM 17.92 64.256 0.676 7.73 5.07 6.87
6/26/2021 8:00:00 AM 17.9 64.22 0.677 7.73 5.1 6.89
6/26/2021 8:15:00 AM 17.89 64.202 0.677 7.73 4.83 6.94
6/26/2021 8:30:00 AM 17.89 64.202 0.677 7.73 5.09 6.97
6/26/2021 8:45:00 AM 17.89 64.202 0.677 7.73 5.12 7.13
6/26/2021 9:00:00 AM 17.89 64.202 0.677 7.73 4.83 7.15
6/26/2021 9:15:00 AM 17.91 64.238 0.677 7.74 5.21 7.24
6/26/2021 9:30:00 AM 17.94 64.292 0.678 7.75 5.09 7.43
6/26/2021 9:45:00 AM 17.98 64.364 0.678 7.76 6.3 7.55
6/26/2021 10:00:00 AM 18.04 64.472 0.678 7.77 5.21 7.77
6/26/2021 10:15:00 AM 18.07 64.526 0.678 7.77 5.24 7.82
6/26/2021 10:30:00 AM 18.11 64.598 0.678 7.78 5.43 7.91
6/26/2021 10:45:00 AM 18.13 64.634 0.677 7.79 5.22 8.09
6/26/2021 11:00:00 AM 18.18 64.724 0.678 7.79 4.99 8.16
6/26/2021 11:15:00 AM 18.26 64.868 0.677 7.8 4.99 8.3
6/26/2021 11:30:00 AM 18.41 65.138 0.677 7.83 5.15 8.63
6/26/2021 11:45:00 AM 18.54 65.372 0.677 7.84 4.53 8.86
6/26/2021 12:00:00 PM 18.7 65.66 0.676 7.86 4.56 9.15
6/26/2021 12:15:00 PM 18.88 65.984 0.676 7.87 4.32 9.22
6/26/2021 12:30:00 PM 19.17 66.506 0.676 7.89 4.52 9.52
6/26/2021 12:45:00 PM 19.48 67.064 0.676 7.92 5.97 9.83
6/26/2021 1:00:00 PM 19.73 67.514 0.675 7.92 4.28 9.92
6/26/2021 1:15:00 PM 20.02 68.036 0.675 7.94 4.2 10.26
6/26/2021 1:30:00 PM 20.31 68.558 0.674 7.97 3.81 10.43
6/26/2021 1:45:00 PM 20.58 69.044 0.674 7.98 3.93 10.68
6/26/2021 2:00:00 PM 20.84 69.512 0.673 8 4.14 10.88
6/26/2021 2:15:00 PM 21.07 69.926 0.673 8.02 3.72 11.05
6/26/2021 2:30:00 PM 21.29 70.32201 0.672 8.03 3.71 11.17
6/26/2021 2:45:00 PM 21.38 70.484 0.672 8.05 4.04 11.26
6/26/2021 3:00:00 PM 21.46 70.628 0.671 8.05 3.52 11.29
6/26/2021 3:15:00 PM 21.52 70.736 0.671 8.07 3.53 11.43
6/26/2021 3:30:00 PM 21.54 70.772 0.67 8.06 3.72 11.36
6/26/2021 3:45:00 PM 21.62 70.916 0.67 8.08 3.5 11.52
6/26/2021 4:00:00 PM 21.64 70.952 0.669 8.08 3.3 11.54
6/26/2021 4:15:00 PM 21.67 71.006 0.669 8.1 3.6 11.62
6/26/2021 4:30:00 PM 21.68 71.024 0.668 8.11 3.34 11.68
6/26/2021 4:45:00 PM 21.69 71.042 0.668 8.12 3.31 11.69
6/26/2021 5:00:00 PM 21.72 71.096 0.668 8.12 3.47 11.71
6/26/2021 5:15:00 PM 21.73 71.114 0.668 8.11 3.19 11.62
6/26/2021 5:30:00 PM 21.77 71.186 0.668 8.11 3.24 11.59
6/26/2021 5:45:00 PM 21.84 71.312 0.667 8.13 3.28 11.68
6/26/2021 6:00:00 PM 21.87 71.366 0.667 8.13 3.16 11.64
6/26/2021 6:15:00 PM 21.89 71.402 0.667 8.13 3.16 11.53
6/26/2021 6:30:00 PM 21.9 71.42 0.667 8.12 2.94 11.35
6/26/2021 6:45:00 PM 21.89 71.402 0.667 8.12 3.38 11.28
6/26/2021 7:00:00 PM 21.88 71.384 0.668 8.11 3.23 11.15
6/26/2021 7:15:00 PM 21.87 71.366 0.668 8.11 3.53 11.09
6/26/2021 7:30:00 PM 21.82 71.276 0.668 8.1 3.2 10.87
6/26/2021 7:45:00 PM 21.78 71.204 0.668 8.1 3.14 10.73
6/26/2021 8:00:00 PM 21.72 71.096 0.668 8.09 3.17 10.55
6/26/2021 8:15:00 PM 21.65 70.97 0.669 8.08 3.44 10.42
6/26/2021 8:30:00 PM 21.58 70.844 0.669 8.07 3.34 10.22
6/26/2021 8:45:00 PM 21.51 70.718 0.669 8.06 3.39 10.09
6/26/2021 9:00:00 PM 21.44 70.592 0.67 8.04 3.32 9.9
6/26/2021 9:15:00 PM 21.38 70.484 0.67 8.03 3.44 9.73
6/26/2021 9:30:00 PM 21.31 70.358 0.67 8.02 3.73 9.61
6/26/2021 9:45:00 PM 21.25 70.25 0.671 8.01 4.01 9.45
6/26/2021 10:00:00 PM 21.21 70.17799 0.671 8 3.95 9.27
6/26/2021 10:15:00 PM 21.17 70.106 0.671 7.98 4.06 9.09
6/26/2021 10:30:00 PM 21.1 69.98 0.671 7.98 4.63 8.99
6/26/2021 10:45:00 PM 21.06 69.908 0.672 7.97 4.63 8.82
6/26/2021 11:00:00 PM 21.03 69.854 0.672 7.95 5.62 8.61
6/26/2021 11:15:00 PM 21 69.8 0.672 7.93 4.49 8.43
6/26/2021 11:30:00 PM 20.96 69.728 0.673 7.93 5.13 8.34
6/26/2021 11:45:00 PM 20.92 69.656 0.673 7.92 5.48 8.21
6/27/2021 12:00:00 AM 20.88 69.584 0.673 7.91 5.24 8.08
6/27/2021 12:15:00 AM 20.84 69.512 0.674 7.9 4.97 7.94
6/27/2021 12:30:00 AM 20.8 69.44 0.674 7.88 5.25 7.79
6/27/2021 12:45:00 AM 20.76 69.368 0.674 7.87 5.78 7.64
6/27/2021 1:00:00 AM 20.71 69.278 0.675 7.86 5.58 7.56
6/27/2021 1:15:00 AM 20.65 69.17 0.675 7.85 5.73 7.47
6/27/2021 1:30:00 AM 20.6 69.08 0.675 7.84 5.86 7.37
6/27/2021 1:45:00 AM 20.56 69.008 0.676 7.84 5.65 7.28
6/27/2021 2:00:00 AM 20.5 68.9 0.676 7.82 5.66 7.17
6/27/2021 2:15:00 AM 20.44 68.792 0.676 7.82 5.67 7.07
6/27/2021 2:30:00 AM 20.38 68.684 0.676 7.81 5.38 7.03
6/27/2021 2:45:00 AM 20.34 68.612 0.676 7.8 5.14 6.9
6/27/2021 3:00:00 AM 20.28 68.504 0.677 7.79 5.34 6.87
6/27/2021 3:15:00 AM 20.22 68.396 0.677 7.78 6.05 6.74
6/27/2021 3:30:00 AM 20.17 68.306 0.677 7.78 6.66 6.73
6/27/2021 3:45:00 AM 20.13 68.234 0.677 7.77 5.23 6.65
6/27/2021 4:00:00 AM 20.07 68.126 0.677 7.76 9.21 6.61
6/27/2021 4:15:00 AM 20.02 68.036 0.677 7.76 5.58 6.56
6/27/2021 4:30:00 AM 19.97 67.946 0.677 7.75 4.9 6.46
6/27/2021 4:45:00 AM 19.9 67.82 0.677 7.74 5.69 6.43
6/27/2021 5:00:00 AM 19.83 67.694 0.677 7.74 5.98 6.46
6/27/2021 5:15:00 AM 19.78 67.604 0.677 7.73 6.4 6.42
6/27/2021 5:30:00 AM 19.73 67.514 0.677 7.73 9.89 6.36
6/27/2021 5:45:00 AM 19.68 67.424 0.677 7.72 5.61 6.33
6/27/2021 6:00:00 AM 19.62 67.316 0.677 7.72 5.22 6.32
6/27/2021 6:15:00 AM 19.57 67.226 0.677 7.72 5.54 6.37
6/27/2021 6:30:00 AM 19.53 67.154 0.678 7.71 4.9 6.33
6/27/2021 6:45:00 AM 19.49 67.082 0.678 7.71 4.88 6.33
6/27/2021 7:00:00 AM 19.44 66.992 0.678 7.71 6.75 6.39
6/27/2021 7:15:00 AM 19.4 66.92 0.678 7.71 5.28 6.44
6/27/2021 7:30:00 AM 19.37 66.866 0.678 7.71 5.11 6.38
6/27/2021 7:45:00 AM 19.33 66.794 0.678 7.71 5.02 6.43
6/27/2021 8:00:00 AM 19.3 66.74 0.678 7.71 5.23 6.43
6/27/2021 8:15:00 AM 19.28 66.704 0.678 7.71 5.06 6.5
6/27/2021 8:30:00 AM 19.27 66.686 0.678 7.71 5.03 6.6
6/27/2021 8:45:00 AM 19.28 66.704 0.678 7.71 5.39 6.7
6/27/2021 9:00:00 AM 19.28 66.704 0.679 7.72 4.95 6.75
6/27/2021 9:15:00 AM 19.3 66.74 0.679 7.72 4.77 6.82
6/27/2021 9:30:00 AM 19.33 66.794 0.679 7.72 4.85 6.89
6/27/2021 9:45:00 AM 19.34 66.812 0.679 7.73 5.17 7.07
6/27/2021 10:00:00 AM 19.41 66.938 0.679 7.74 5.03 7.18
6/27/2021 10:15:00 AM 19.54 67.172 0.679 7.76 5.08 7.4
6/27/2021 10:30:00 AM 19.63 67.334 0.679 7.75 4.56 7.38
6/27/2021 10:45:00 AM 19.78 67.604 0.679 7.78 4.55 7.79
6/27/2021 11:00:00 AM 19.85 67.73 0.679 7.78 4.9 7.94
6/27/2021 11:15:00 AM 19.96 67.92799 0.679 7.79 4.63 8.01
6/27/2021 11:30:00 AM 20.15 68.27 0.678 7.82 4.92 8.37
6/27/2021 11:45:00 AM 20.31 68.558 0.678 7.83 5.04 8.54
6/27/2021 12:00:00 PM 20.54 68.972 0.678 7.84 4.24 8.72
6/27/2021 12:15:00 PM 20.8 69.44 0.678 7.86 4.55 8.98
6/27/2021 12:30:00 PM 20.99 69.782 0.678 7.87 4.22 9.19
6/27/2021 12:45:00 PM 21.21 70.17799 0.678 7.89 4.11 9.37
6/27/2021 1:00:00 PM 21.4 70.52 0.678 7.9 4.14 9.61
6/27/2021 1:15:00 PM 21.63 70.934 0.678 7.92 4.24 9.77
6/27/2021 1:30:00 PM 21.88 71.384 0.677 7.93 4.04 9.97
6/27/2021 1:45:00 PM 22.17 71.906 0.677 7.95 3.85 10.13
6/27/2021 2:00:00 PM 22.39 72.302 0.677 7.96 4.21 10.28
6/27/2021 2:15:00 PM 22.68 72.824 0.677 7.98 3.79 10.57
6/27/2021 2:30:00 PM 22.91 73.238 0.676 7.99 10.49 10.7
6/27/2021 2:45:00 PM 23.07 73.526 0.676 8.01 4.1 10.76
6/27/2021 3:00:00 PM 23.23 73.814 0.676 8.01 3.38 10.8
6/27/2021 3:15:00 PM 23.37 74.066 0.675 8.03 3.49 11.05
6/27/2021 3:30:00 PM 23.53 74.354 0.675 8.04 3.75 11.15
6/27/2021 3:45:00 PM 23.71 74.67799 0.675 8.05 3.4 11.23
6/27/2021 4:00:00 PM 23.87 74.966 0.674 8.06 3.43 11.39
6/27/2021 4:15:00 PM 23.94 75.092 0.674 8.06 3.94 11.33
6/27/2021 4:30:00 PM 24.01 75.218 0.673 8.07 3.48 11.34
6/27/2021 4:45:00 PM 24.09 75.362 0.673 8.07 3.66 11.36
6/27/2021 5:00:00 PM 24.1 75.38 0.672 8.08 3.59 11.39
6/27/2021 5:15:00 PM 24.15 75.47 0.672 8.08 3.39 11.31
6/27/2021 5:30:00 PM 24.14 75.452 0.672 8.07 3.41 11.16
6/27/2021 5:45:00 PM 24.11 75.398 0.672 8.07 3.72 11.03
6/27/2021 6:00:00 PM 24.11 75.398 0.671 8.07 3.71 11
6/27/2021 6:15:00 PM 24.13 75.434 0.671 8.07 3.44 10.9
6/27/2021 6:30:00 PM 24.13 75.434 0.671 8.07 3.36 10.83
6/27/2021 6:45:00 PM 24.12 75.416 0.671 8.06 3.09 10.63
6/27/2021 7:00:00 PM 24.11 75.398 0.671 8.05 3.37 10.5
6/27/2021 7:15:00 PM 24.09 75.362 0.671 8.05 3.34 10.38
6/27/2021 7:30:00 PM 24.07 75.326 0.671 8.04 3.28 10.23
6/27/2021 7:45:00 PM 24.03 75.254 0.671 8.03 3.53 10.04
6/27/2021 8:00:00 PM 23.98 75.164 0.671 8.02 3.46 9.88
6/27/2021 8:15:00 PM 23.92 75.056 0.672 8.01 3.52 9.72
6/27/2021 8:30:00 PM 23.86 74.948 0.672 8 3.72 9.57
6/27/2021 8:45:00 PM 23.81 74.858 0.672 7.98 3.49 9.4
6/27/2021 9:00:00 PM 23.73 74.714 0.672 7.98 3.84 9.25
6/27/2021 9:15:00 PM 23.66 74.588 0.673 7.97 3.49 9.08
6/27/2021 9:30:00 PM 23.59 74.462 0.673 7.95 3.93 8.91
6/27/2021 9:45:00 PM 23.51 74.318 0.674 7.94 4 8.69
6/27/2021 10:00:00 PM 23.44 74.192 0.674 7.94 4.51 8.58
6/27/2021 10:15:00 PM 23.38 74.084 0.674 7.92 4.53 8.37
6/27/2021 10:30:00 PM 23.32 73.976 0.675 7.91 4.81 8.18
6/27/2021 10:45:00 PM 23.25 73.85 0.675 7.9 4.27 8.07
6/27/2021 11:00:00 PM 23.19 73.742 0.675 7.89 4.86 7.91
6/27/2021 11:15:00 PM 23.13 73.634 0.676 7.88 5.19 7.74
6/27/2021 11:30:00 PM 23.08 73.544 0.676 7.87 5.03 7.63
6/27/2021 11:45:00 PM 23.04 73.472 0.676 7.86 5.05 7.46
6/28/2021 12:00:00 AM 22.98 73.364 0.677 7.84 4.65 7.32
6/28/2021 12:15:00 AM 22.93 73.274 0.677 7.84 4.94 7.24
6/28/2021 12:30:00 AM 22.88 73.184 0.677 7.83 4.34 7.1
6/28/2021 12:45:00 AM 22.84 73.112 0.678 7.81 4.5 6.92
6/28/2021 1:00:00 AM 22.77 72.986 0.678 7.8 4.63 6.83
6/28/2021 1:15:00 AM 22.72 72.896 0.678 7.8 4.74 6.73
6/28/2021 1:30:00 AM 22.64 72.752 0.679 7.79 4.84 6.68
6/28/2021 1:45:00 AM 22.56 72.608 0.679 7.79 5.34 6.56
6/28/2021 2:00:00 AM 22.49 72.482 0.679 7.78 5.29 6.55
6/28/2021 2:15:00 AM 22.41 72.338 0.679 7.77 5.59 6.41
6/28/2021 2:30:00 AM 22.36 72.248 0.68 7.76 5.13 6.34
6/28/2021 2:45:00 AM 22.27 72.086 0.68 7.75 5.71 6.26
6/28/2021 3:00:00 AM 22.19 71.942 0.68 7.75 5.45 6.25
6/28/2021 3:15:00 AM 22.11 71.798 0.681 7.74 5.7 6.18
6/28/2021 3:30:00 AM 22.04 71.672 0.681 7.73 5.86 6.1
6/28/2021 3:45:00 AM 21.96 71.528 0.681 7.73 6.1 6.01
6/28/2021 4:00:00 AM 21.9 71.42 0.681 7.72 5.19 5.97
6/28/2021 4:15:00 AM 21.81 71.258 0.681 7.72 5.6 5.99
6/28/2021 4:30:00 AM 21.72 71.096 0.681 7.71 6.43 5.94
6/28/2021 4:45:00 AM 21.64 70.952 0.681 7.71 6.5 5.93
6/28/2021 5:00:00 AM 21.56 70.808 0.681 7.71 6.95 5.92
6/28/2021 5:15:00 AM 21.49 70.682 0.682 7.7 5.64 5.89
6/28/2021 5:30:00 AM 21.41 70.538 0.681 7.7 5.88 5.84
6/28/2021 5:45:00 AM 21.36 70.448 0.682 7.68 5.91 5.71
6/28/2021 6:00:00 AM 21.27 70.286 0.682 7.69 5.91 5.78
6/28/2021 6:15:00 AM 21.18 70.124 0.682 7.68 6.28 5.78
6/28/2021 6:30:00 AM 21.11 69.998 0.682 7.68 5.97 5.83
6/28/2021 6:45:00 AM 21.04 69.872 0.682 7.68 5.71 5.8
6/28/2021 7:00:00 AM 20.95 69.71 0.682 7.68 5.21 5.81
6/28/2021 7:15:00 AM 20.9 69.62 0.682 7.67 5.46 5.73
6/28/2021 7:30:00 AM 20.82 69.476 0.682 7.67 4.87 5.81
6/28/2021 7:45:00 AM 20.73 69.314 0.682 7.67 5.6 5.91
6/28/2021 8:00:00 AM 20.68 69.224 0.682 7.67 5.59 5.91
6/28/2021 8:15:00 AM 20.61 69.098 0.682 7.67 5.68 5.96
6/28/2021 8:30:00 AM 20.57 69.026 0.682 7.67 5.04 6.01
6/28/2021 8:45:00 AM 20.53 68.954 0.682 7.66 4.84 5.99
6/28/2021 9:00:00 AM 20.49 68.882 0.682 7.66 5.11 6.04
6/28/2021 9:15:00 AM 20.46 68.828 0.682 7.67 5.1 6.16
6/28/2021 9:30:00 AM 20.46 68.828 0.682 7.68 5.75 6.27
6/28/2021 9:45:00 AM 20.5 68.9 0.682 7.68 5.03 6.44
6/28/2021 10:00:00 AM 20.55 68.99 0.682 7.69 5.11 6.54
6/28/2021 10:15:00 AM 20.65 69.17 0.682 7.7 5.11 6.76
6/28/2021 10:30:00 AM 20.76 69.368 0.682 7.71 6.37 6.95
6/28/2021 10:45:00 AM 20.85 69.53 0.683 7.71 5.43 7.02
6/28/2021 11:00:00 AM 20.96 69.728 0.683 7.72 4.8 7.19
6/28/2021 11:15:00 AM 21.13 70.034 0.683 7.74 4.99 7.41
6/28/2021 11:30:00 AM 21.22 70.196 0.683 7.75 4.46 7.52
6/28/2021 11:45:00 AM 21.43 70.574 0.683 7.76 4.83 7.71
6/28/2021 12:00:00 PM 21.59 70.862 0.683 7.78 4.39 7.92
6/28/2021 12:15:00 PM 21.74 71.132 0.683 7.79 4.53 8.14
6/28/2021 12:30:00 PM 21.95 71.51 0.683 7.82 4.5 8.43
6/28/2021 12:45:00 PM 22.09 71.762 0.683 7.82 4.35 8.53
6/28/2021 1:00:00 PM 22.24 72.032 0.683 7.83 4.09 8.68
6/28/2021 1:15:00 PM 22.51 72.518 0.683 7.85 4.08 9.02
6/28/2021 1:30:00 PM 22.73 72.914 0.683 7.87 4.21 9.23
6/28/2021 1:45:00 PM 22.98 73.364 0.683 7.88 4.2 9.41
6/28/2021 2:00:00 PM 23.21 73.778 0.682 7.9 3.98 9.65
6/28/2021 2:15:00 PM 23.41 74.138 0.682 7.91 3.61 9.75
6/28/2021 2:30:00 PM 23.58 74.444 0.682 7.92 3.64 9.85
6/28/2021 2:45:00 PM 23.76 74.768 0.682 7.94 3.91 10.05
6/28/2021 3:00:00 PM 23.88 74.984 0.682 7.94 3.82 10.1
6/28/2021 3:15:00 PM 24.05 75.29 0.682 7.96 3.64 10.25
6/28/2021 3:30:00 PM 24.22 75.596 0.681 7.97 3.59 10.34
6/28/2021 3:45:00 PM 24.35 75.83 0.681 7.97 4.41 10.43
6/28/2021 4:00:00 PM 24.3 75.74 0.68 7.98 3.78 10.41
6/28/2021 4:15:00 PM 24.21 75.578 0.678 7.97 3.84 10.1
6/28/2021 4:30:00 PM 24.18 75.524 0.677 7.97 4.25 9.99
6/28/2021 4:45:00 PM 24.19 75.542 0.676 7.98 3.86 10.13
6/28/2021 5:00:00 PM 24.19 75.542 0.675 7.98 3.98 10.04
6/28/2021 5:15:00 PM 24.31 75.758 0.675 8 3.7 10.25
6/28/2021 5:30:00 PM 24.35 75.83 0.675 8 3.84 10.23
6/28/2021 5:45:00 PM 24.38 75.884 0.675 8 3.8 10.25
6/28/2021 6:00:00 PM 24.41 75.938 0.675 8.01 3.8 10.18
6/28/2021 6:15:00 PM 24.44 75.992 0.674 8 3.86 10.08
6/28/2021 6:30:00 PM 24.45 76.01 0.674 7.99 3.8 9.95
6/28/2021 6:45:00 PM 24.44 75.992 0.674 8.01 3.83 9.99
6/28/2021 7:00:00 PM 24.44 75.992 0.674 8 4.09 9.82
6/28/2021 7:15:00 PM 24.44 75.992 0.674 8 3.87 9.78
6/28/2021 7:30:00 PM 24.44 75.992 0.674 8 3.91 9.73
6/28/2021 7:45:00 PM 24.42 75.956 0.674 7.97 4.16 9.46
6/28/2021 8:00:00 PM 24.38 75.884 0.67 7.97 5.08 9.28
6/28/2021 8:15:00 PM 24.34 75.812 0.67 7.96 5.1 9.13
6/28/2021 8:30:00 PM 24.3 75.74 0.671 7.96 5.33 9.06
6/28/2021 8:45:00 PM 24.24 75.632 0.671 7.94 5.27 8.82
6/28/2021 9:00:00 PM 24.2 75.56 0.671 7.93 5.67 8.71
6/28/2021 9:15:00 PM 24.14 75.452 0.672 7.91 5.08 8.49
6/28/2021 9:30:00 PM 24.06 75.308 0.672 7.91 5.44 8.42
6/28/2021 9:45:00 PM 24.01 75.218 0.672 7.89 5.27 8.2
6/28/2021 10:00:00 PM 23.93 75.074 0.673 7.89 5.88 8.08
6/28/2021 10:15:00 PM 23.85 74.93 0.673 7.88 5.3 7.99
6/28/2021 10:30:00 PM 23.78 74.804 0.673 7.87 5.96 7.84
6/28/2021 10:45:00 PM 23.7 74.66 0.673 7.86 5.87 7.74
6/28/2021 11:00:00 PM 23.64 74.552 0.674 7.85 5.39 7.61
6/28/2021 11:15:00 PM 23.59 74.462 0.674 7.84 5.68 7.45
6/28/2021 11:30:00 PM 23.53 74.354 0.674 7.84 6 7.33
6/28/2021 11:45:00 PM 23.48 74.264 0.675 7.83 5.53 7.19
6/29/2021 12:00:00 AM 23.43 74.174 0.675 7.81 6.68 7.06
6/29/2021 12:15:00 AM 23.37 74.066 0.675 7.81 6.24 7.01
6/29/2021 12:30:00 AM 23.32 73.976 0.675 7.8 6.86 6.93
6/29/2021 12:45:00 AM 23.26 73.868 0.675 7.79 8.94 6.76
6/29/2021 1:00:00 AM 23.2 73.76 0.675 7.78 6.22 6.69
6/29/2021 1:15:00 AM 23.12 73.616 0.675 7.78 6.59 6.59
6/29/2021 1:30:00 AM 23.05 73.49 0.675 7.77 6.18 6.48
6/29/2021 1:45:00 AM 22.97 73.346 0.675 7.75 6.14 6.34
6/29/2021 2:00:00 AM 22.9 73.22 0.674 7.74 6.59 6.25
6/29/2021 2:15:00 AM 22.8 73.04 0.675 7.74 6.4 6.22
6/29/2021 2:30:00 AM 22.72 72.896 0.675 7.72 8.05 6.07
6/29/2021 2:45:00 AM 22.63 72.734 0.676 7.72 6.96 6.05
6/29/2021 3:00:00 AM 22.53 72.554 0.676 7.71 6.86 6.01
6/29/2021 3:15:00 AM 22.45 72.41 0.677 7.7 8.5 5.91
6/29/2021 3:30:00 AM 22.35 72.23 0.677 7.7 6.67 5.88
6/29/2021 3:45:00 AM 22.26 72.068 0.678 7.7 7.16 5.83
6/29/2021 4:00:00 AM 22.19 71.942 0.679 7.68 7.57 5.77
6/29/2021 4:15:00 AM 22.12 71.816 0.679 7.68 6.62 5.78
6/29/2021 4:30:00 AM 22.02 71.636 0.68 7.69 6.33 5.84
6/29/2021 4:45:00 AM 21.97 71.546 0.681 7.68 6.58 5.73
6/29/2021 5:00:00 AM 21.89 71.402 0.681 7.68 6.65 5.76
6/29/2021 5:15:00 AM 21.81 71.258 0.681 7.67 11.73 5.76
6/29/2021 5:30:00 AM 21.74 71.132 0.681 7.68 7.59 5.79
6/29/2021 5:45:00 AM 21.64 70.952 0.682 7.67 5.72 5.77
6/29/2021 6:00:00 AM 21.58 70.844 0.682 7.67 6.46 5.78
6/29/2021 6:15:00 AM 21.52 70.736 0.682 7.66 6.07 5.72
6/29/2021 6:30:00 AM 21.44 70.592 0.682 7.67 5.57 5.77
6/29/2021 6:45:00 AM 21.36 70.448 0.682 7.67 5.25 5.83
6/29/2021 7:00:00 AM 21.31 70.358 0.682 7.67 4.96 5.84
6/29/2021 7:15:00 AM 21.24 70.232 0.682 7.67 6.45 5.86
6/29/2021 7:30:00 AM 21.18 70.124 0.682 7.66 8.11 5.9
6/29/2021 7:45:00 AM 21.14 70.052 0.682 7.67 6.77 5.94
6/29/2021 8:00:00 AM 21.09 69.962 0.682 7.67 6.76 5.91
6/29/2021 8:15:00 AM 21.06 69.908 0.682 7.67 10.1 6.05
6/29/2021 8:30:00 AM 21.02 69.836 0.682 7.67 4.97 6.11
6/29/2021 8:45:00 AM 20.98 69.764 0.683 7.68 9.01 6.25
6/29/2021 9:00:00 AM 20.95 69.71 0.683 7.68 5.69 6.32
6/29/2021 9:15:00 AM 20.92 69.656 0.683 7.68 4.82 6.26
6/29/2021 9:30:00 AM 20.89 69.602 0.683 7.69 4.79 6.4
6/29/2021 9:45:00 AM 20.92 69.656 0.683 7.69 4.75 6.51
6/29/2021 10:00:00 AM 20.97 69.746 0.684 7.7 4.88 6.65
6/29/2021 10:15:00 AM 21.07 69.926 0.684 7.71 4.3 6.84
6/29/2021 10:30:00 AM 21.16 70.088 0.684 7.72 4.4 7.02
6/29/2021 10:45:00 AM 21.29 70.32201 0.684 7.73 4.84 7.21
6/29/2021 11:00:00 AM 21.36 70.448 0.684 7.74 4.24 7.33
6/29/2021 11:15:00 AM 21.47 70.646 0.685 7.74 4.59 7.4
6/29/2021 11:30:00 AM 21.61 70.898 0.685 7.75 4.64 7.56
6/29/2021 11:45:00 AM 21.8 71.24 0.685 7.78 4.85 7.89
6/29/2021 12:00:00 PM 21.97 71.546 0.685 7.79 4.35 8.1
6/29/2021 12:15:00 PM 22.15 71.87 0.685 7.8 4.29 8.33
6/29/2021 12:30:00 PM 22.37 72.266 0.685 7.82 4.33 8.44
6/29/2021 12:45:00 PM 22.56 72.608 0.685 7.83 3.99 8.61
6/29/2021 1:00:00 PM 22.73 72.914 0.685 7.84 3.77 8.72
6/29/2021 1:15:00 PM 22.9 73.22 0.685 7.84 3.81 8.86
6/29/2021 1:30:00 PM 23.1 73.58 0.685 7.87 3.43 9.19
6/29/2021 1:45:00 PM 23.25 73.85 0.685 7.87 5.3 9.24
6/29/2021 2:00:00 PM 23.51 74.318 0.685 7.9 3.49 9.54
6/29/2021 2:15:00 PM 23.61 74.498 0.685 7.89 3.41 9.47
6/29/2021 2:30:00 PM 23.82 74.876 0.685 7.91 3.42 9.59
6/29/2021 2:45:00 PM 23.98 75.164 0.684 7.93 3.2 9.87
6/29/2021 3:00:00 PM 24.18 75.524 0.684 7.93 3.34 9.84
6/29/2021 3:15:00 PM 24.37 75.866 0.684 7.94 10.44 9.98
6/29/2021 3:30:00 PM 24.48 76.064 0.683 7.95 5.74 10.14
6/29/2021 3:45:00 PM 24.7 76.46 0.682 7.97 3.24 10.36
6/29/2021 4:00:00 PM 24.79 76.622 0.682 7.97 3.13 10.32
6/29/2021 4:15:00 PM 24.84 76.712 0.681 7.98 3.16 10.44
6/29/2021 4:30:00 PM 24.84 76.712 0.681 7.98 3.1 10.37
6/29/2021 4:45:00 PM 24.8 76.64 0.681 7.98 3.11 10.25
6/29/2021 5:00:00 PM 24.84 76.712 0.681 7.99 3.13 10.21
6/29/2021 5:15:00 PM 24.88 76.784 0.68 7.99 3.17 10.17
6/29/2021 5:30:00 PM 24.87 76.766 0.68 7.98 3.06 10.15
6/29/2021 5:45:00 PM 24.9 76.82 0.68 7.99 3 10.19
6/29/2021 6:00:00 PM 24.93 76.874 0.679 7.98 3.51 10.07
6/29/2021 6:15:00 PM 24.88 76.784 0.679 7.98 3.11 9.94
6/29/2021 6:30:00 PM 24.87 76.766 0.679 7.98 3.32 9.83
6/29/2021 6:45:00 PM 24.85 76.73 0.679 7.96 3.28 9.64
6/29/2021 7:00:00 PM 24.84 76.712 0.678 7.96 3.2 9.58
6/29/2021 7:15:00 PM 24.78 76.604 0.676 7.96 3.57 9.39
6/29/2021 7:30:00 PM 24.74 76.532 0.675 7.96 3.46 9.3
6/29/2021 7:45:00 PM 24.7 76.46 0.675 7.95 3.64 9.13
6/29/2021 8:00:00 PM 24.64 76.352 0.674 7.93 3.88 8.92
6/29/2021 8:15:00 PM 24.61 76.298 0.674 7.92 3.51 8.79
6/29/2021 8:30:00 PM 24.56 76.208 0.674 7.92 3.62 8.68
6/29/2021 8:45:00 PM 24.52 76.136 0.674 7.91 4.1 8.52
6/29/2021 9:00:00 PM 24.47 76.046 0.674 7.9 4.06 8.41
6/29/2021 9:15:00 PM 24.41 75.938 0.673 7.89 4.08 8.23
6/29/2021 9:30:00 PM 24.34 75.812 0.673 7.88 4.67 8.1
6/29/2021 9:45:00 PM 24.28 75.704 0.672 7.86 6.42 7.87
6/29/2021 10:00:00 PM 24.21 75.578 0.672 7.86 5.39 7.83
6/29/2021 10:15:00 PM 24.15 75.47 0.672 7.86 5.02 7.68
6/29/2021 10:30:00 PM 24.09 75.362 0.671 7.84 6.69 7.52
6/29/2021 10:45:00 PM 24.03 75.254 0.671 7.83 5.75 7.31
6/29/2021 11:00:00 PM 23.95 75.11 0.671 7.83 5.64 7.3
6/29/2021 11:15:00 PM 23.91 75.038 0.67 7.82 6.11 7.18
6/29/2021 11:30:00 PM 23.86 74.948 0.67 7.81 5.55 7.01
6/29/2021 11:45:00 PM 23.8 74.84 0.668 7.81 6.07 6.89
6/30/2021 12:00:00 AM 23.73 74.714 0.667 7.8 6.85 6.84
6/30/2021 12:15:00 AM 23.65 74.57 0.666 7.8 6.6 6.74
6/30/2021 12:30:00 AM 23.58 74.444 0.666 7.79 7.49 6.67
6/30/2021 12:45:00 AM 23.51 74.318 0.665 7.79 7.8 6.56
6/30/2021 1:00:00 AM 23.42 74.156 0.664 7.79 8.86 6.51
6/30/2021 1:15:00 AM 23.34 74.012 0.665 7.8 8.76 6.5
6/30/2021 1:30:00 AM 23.26 73.868 0.665 7.81 8.59 6.46
6/30/2021 1:45:00 AM 23.17 73.706 0.666 7.81 8.74 6.42
6/30/2021 2:00:00 AM 23.06 73.508 0.665 7.8 8.36 6.37
6/30/2021 2:15:00 AM 22.92 73.256 0.664 7.8 9.08 6.33
6/30/2021 2:30:00 AM 22.77 72.986 0.662 7.78 9.14 6.27
6/30/2021 2:45:00 AM 22.59 72.662 0.66 7.77 9.56 6.27
6/30/2021 3:00:00 AM 22.42 72.356 0.659 7.76 11.32 6.25
6/30/2021 3:15:00 AM 22.25 72.05 0.659 7.75 9.6 6.23
6/30/2021 3:30:00 AM 22.1 71.78 0.661 7.74 28.73 6.23
6/30/2021 3:45:00 AM 21.95 71.51 0.664 7.73 9.22 6.23
6/30/2021 4:00:00 AM 21.83 71.294 0.668 7.71 7.89 6.2
6/30/2021 4:15:00 AM 21.72 71.096 0.671 7.7 8.78 6.17
6/30/2021 4:30:00 AM 21.62 70.916 0.674 7.69 8.73 6.13
6/30/2021 4:45:00 AM 21.53 70.754 0.675 7.68 10.19 6.13
6/30/2021 5:00:00 AM 21.45 70.61 0.675 7.67 9 6.13
6/30/2021 5:15:00 AM 21.39 70.502 0.673 7.67 8.69 6.1
6/30/2021 5:30:00 AM 21.35 70.43 0.67 7.67 9.13 6.11
6/30/2021 5:45:00 AM 21.3 70.34 0.666 7.67 9.4 6.12
6/30/2021 6:00:00 AM 21.27 70.286 0.662 7.67 8.7 6.14
6/30/2021 6:15:00 AM 21.24 70.232 0.658 7.67 9.3 6.15
6/30/2021 6:30:00 AM 21.2 70.16 0.654 7.67 8.91 6.18
6/30/2021 6:45:00 AM 21.17 70.106 0.651 7.68 8.7 6.22
6/30/2021 7:00:00 AM 21.14 70.052 0.648 7.68 9.87 6.23
6/30/2021 7:15:00 AM 21.11 69.998 0.645 7.68 9.04 6.28
6/30/2021 7:30:00 AM 21.07 69.926 0.643 7.68 8.48 6.29
6/30/2021 7:45:00 AM 21.04 69.872 0.642 7.68 8.65 6.28
6/30/2021 8:00:00 AM 21 69.8 0.641 7.68 8.12 6.34
6/30/2021 8:15:00 AM 20.98 69.764 0.64 7.68 8.37 6.37
6/30/2021 8:30:00 AM 20.97 69.746 0.639 7.69 8.45 6.45
6/30/2021 8:45:00 AM 20.97 69.746 0.639 7.69 7.98 6.5
6/30/2021 9:00:00 AM 20.97 69.746 0.638 7.69 8.3 6.57
6/30/2021 9:15:00 AM 20.97 69.746 0.638 7.69 7.53 6.64
6/30/2021 9:30:00 AM 20.94 69.692 0.637 7.69 7.32 6.66
6/30/2021 9:45:00 AM 20.92 69.656 0.635 7.69 8.69 6.72
6/30/2021 10:00:00 AM 20.94 69.692 0.634 7.7 9.29 6.84
6/30/2021 10:15:00 AM 20.95 69.71 0.631 7.7 8.53 6.97
6/30/2021 10:30:00 AM 21 69.8 0.628 7.71 8.25 7.08
6/30/2021 10:45:00 AM 21.01 69.818 0.624 7.71 8.38 7.14
6/30/2021 11:00:00 AM 21.06 69.908 0.62 7.71 8.82 7.25
6/30/2021 11:15:00 AM 21.15 70.07 0.616 7.72 8.9 7.37
6/30/2021 11:30:00 AM 21.28 70.304 0.61 7.72 8.72 7.46
6/30/2021 11:45:00 AM 21.37 70.466 0.603 7.74 9.44 7.69
6/30/2021 12:00:00 PM 21.63 70.934 0.597 7.75 9.91 7.94
6/30/2021 12:15:00 PM 21.82 71.276 0.591 7.76 9.8 8.12
6/30/2021 12:30:00 PM 22.07 71.726 0.585 7.78 10.13 8.28
6/30/2021 12:45:00 PM 22.24 72.032 0.581 7.78 10.13 8.33
6/30/2021 1:00:00 PM 22.34 72.212 0.573 7.8 10.32 8.59
6/30/2021 1:15:00 PM 22.47 72.446 0.568 7.82 10.63 8.72
6/30/2021 1:30:00 PM 22.66 72.788 0.564 7.83 10.88 8.85
6/30/2021 1:45:00 PM 22.89 73.202 0.558 7.84 10.24 8.98
6/30/2021 2:00:00 PM 23.15 73.67 0.553 7.86 10.29 9.22
6/30/2021 2:15:00 PM 23.37 74.066 0.55 7.87 9.73 9.3
6/30/2021 2:30:00 PM 23.62 74.516 0.544 7.88 20.46 9.43
6/30/2021 2:45:00 PM 23.81 74.858 0.541 7.9 10.4 9.53
6/30/2021 3:00:00 PM 24.09 75.362 0.537 7.92 9.71 9.77
6/30/2021 3:15:00 PM 24.24 75.632 0.533 7.94 9.43 9.87
6/30/2021 3:30:00 PM 24.38 75.884 0.531 7.96 9.57 9.86
6/30/2021 3:45:00 PM 24.41 75.938 0.53 7.98 8.28 9.97
6/30/2021 4:00:00 PM 24.36 75.848 0.53 7.99 8.4 9.87
6/30/2021 4:15:00 PM 24.29 75.722 0.529 7.98 7.94 9.64
6/30/2021 4:30:00 PM 24.27 75.686 0.53 7.99 7.55 9.64
6/30/2021 4:45:00 PM 24.25 75.65 0.532 7.99 7.07 9.51
6/30/2021 5:00:00 PM 24.35 75.83 0.536 8 7.09 9.61
6/30/2021 5:15:00 PM 24.37 75.866 0.539 8.01 7.05 9.55
6/30/2021 5:30:00 PM 24.37 75.866 0.544 8.02 7.02 9.51
6/30/2021 5:45:00 PM 24.35 75.83 0.547 8.01 6.54 9.42
6/30/2021 6:00:00 PM 24.31 75.758 0.551 8 6.56 9.26
6/30/2021 6:15:00 PM 24.25 75.65 0.555 8 6.64 9.15
6/30/2021 6:30:00 PM 24.21 75.578 0.559 7.99 6.36 9.04
6/30/2021 6:45:00 PM 24.18 75.524 0.563 7.98 6.35 8.94
6/30/2021 7:00:00 PM 24.14 75.452 0.566 7.97 6.13 8.82
6/30/2021 7:15:00 PM 24.08 75.344 0.568 7.96 5.85 8.69
6/30/2021 7:30:00 PM 24.02 75.236 0.57 7.95 5.51 8.59
6/30/2021 7:45:00 PM 23.96 75.128 0.571 7.94 5.89 8.48
6/30/2021 8:00:00 PM 23.89 75.002 0.571 7.92 5.58 8.34
6/30/2021 8:15:00 PM 23.83 74.894 0.572 7.91 5.76 8.2
6/30/2021 8:30:00 PM 23.78 74.804 0.571 7.9 6.19 8.08
6/30/2021 8:45:00 PM 23.73 74.714 0.569 7.89 8.49 7.96
6/30/2021 9:00:00 PM 23.68 74.624 0.569 7.87 6.2 7.81
6/30/2021 9:15:00 PM 23.63 74.534 0.569 7.86 6.46 7.7
6/30/2021 9:30:00 PM 23.57 74.426 0.567 7.85 7.23 7.59
6/30/2021 9:45:00 PM 23.51 74.318 0.567 7.83 6.94 7.46
6/30/2021 10:00:00 PM 23.44 74.192 0.567 7.82 7.32 7.31
6/30/2021 10:15:00 PM 23.37 74.066 0.567 7.81 7.78 7.17
6/30/2021 10:30:00 PM 23.29 73.922 0.567 7.79 7.23 7.08
6/30/2021 10:45:00 PM 23.2 73.76 0.568 7.78 7.04 6.92
6/30/2021 11:00:00 PM 23.11 73.598 0.569 7.77 7.53 6.84
6/30/2021 11:15:00 PM 23.02 73.436 0.57 7.76 8.48 6.73
6/30/2021 11:30:00 PM 22.94 73.292 0.571 7.74 7.27 6.64
6/30/2021 11:45:00 PM 22.84 73.112 0.573 7.74 7.43 6.57
7/1/2021 12:00:00 AM 22.75 72.95 0.575 7.73 7.1 6.51
7/1/2021 12:15:00 AM 22.65 72.77 0.577 7.72 9.8 6.44
7/1/2021 12:30:00 AM 22.55 72.59 0.58 7.72 7.02 6.42
7/1/2021 12:45:00 AM 22.47 72.446 0.581 7.71 6.94 6.32
7/1/2021 1:00:00 AM 22.38 72.284 0.583 7.7 7.2 6.25
7/1/2021 1:15:00 AM 22.3 72.14 0.585 7.69 6.9 6.2
7/1/2021 1:30:00 AM 22.18 71.924 0.586 7.69 7.55 6.19
7/1/2021 1:45:00 AM 22.09 71.762 0.587 7.68 6.42 6.15
7/1/2021 2:00:00 AM 21.99 71.582 0.588 7.68 6.65 6.09
7/1/2021 2:15:00 AM 21.91 71.438 0.588 7.67 6.35 6.07
7/1/2021 2:30:00 AM 21.81 71.258 0.587 7.66 6.18 6.03
7/1/2021 2:45:00 AM 21.72 71.096 0.587 7.66 6.24 6.01
7/1/2021 3:00:00 AM 21.63 70.934 0.585 7.65 6.96 6.03
7/1/2021 3:15:00 AM 21.56 70.808 0.584 7.65 6.75 6.02
7/1/2021 3:30:00 AM 21.48 70.664 0.582 7.64 6.77 5.96
7/1/2021 3:45:00 AM 21.4 70.52 0.58 7.63 6.5 5.96
7/1/2021 4:00:00 AM 21.34 70.412 0.578 7.63 6.63 5.93
7/1/2021 4:15:00 AM 21.27 70.286 0.575 7.62 6.95 5.9
7/1/2021 4:30:00 AM 21.22 70.196 0.572 7.61 6.75 5.89
7/1/2021 4:45:00 AM 21.17 70.106 0.569 7.6 6.78 5.87
7/1/2021 5:00:00 AM 21.11 69.998 0.566 7.6 7.33 5.85
7/1/2021 5:15:00 AM 21.06 69.908 0.563 7.59 7.16 5.85
7/1/2021 5:30:00 AM 21.02 69.836 0.561 7.59 6.54 5.82
7/1/2021 5:45:00 AM 20.98 69.764 0.558 7.58 7.1 5.77
7/1/2021 6:00:00 AM 20.94 69.692 0.555 7.57 6.95 5.81
7/1/2021 6:15:00 AM 20.91 69.638 0.554 7.57 6.99 5.75
7/1/2021 6:30:00 AM 20.87 69.566 0.552 7.56 6.93 5.78
7/1/2021 6:45:00 AM 20.84 69.512 0.551 7.56 6.47 5.77
7/1/2021 7:00:00 AM 20.82 69.476 0.55 7.56 6.7 5.78
7/1/2021 7:15:00 AM 20.81 69.458 0.549 7.55 5.92 5.71
7/1/2021 7:30:00 AM 20.79 69.422 0.549 7.56 6.32 5.84
7/1/2021 7:45:00 AM 20.78 69.404 0.549 7.55 6.49 5.78
7/1/2021 8:00:00 AM 20.78 69.404 0.549 7.55 5.96 5.84
7/1/2021 8:15:00 AM 20.78 69.404 0.549 7.56 5.76 5.95
7/1/2021 8:30:00 AM 20.79 69.422 0.55 7.56 6.14 5.95
7/1/2021 8:45:00 AM 20.78 69.404 0.55 7.56 6.01 6
7/1/2021 9:00:00 AM 20.78 69.404 0.551 7.57 5.97 6.13
7/1/2021 9:15:00 AM 20.77 69.386 0.552 7.57 6.63 6.16
7/1/2021 9:30:00 AM 20.77 69.386 0.553 7.58 5.72 6.28
7/1/2021 9:45:00 AM 20.78 69.404 0.554 7.59 5.52 6.34
7/1/2021 10:00:00 AM 20.79 69.422 0.555 7.6 6.02 6.44
7/1/2021 10:15:00 AM 20.81 69.458 0.556 7.61 5.5 6.58
7/1/2021 10:30:00 AM 20.84 69.512 0.557 7.62 5.4 6.71
7/1/2021 10:45:00 AM 20.87 69.566 0.558 7.63 5.33 6.9
7/1/2021 11:00:00 AM 20.87 69.566 0.56 7.64 5.66 7.01
7/1/2021 11:15:00 AM 20.87 69.566 0.561 7.65 5.22 7.05
7/1/2021 11:30:00 AM 20.87 69.566 0.562 7.66 5.62 7.17
7/1/2021 11:45:00 AM 20.87 69.566 0.563 7.68 5.19 7.32
7/1/2021 12:00:00 PM 20.89 69.602 0.564 7.69 5.18 7.49
7/1/2021 12:15:00 PM 20.9 69.62 0.565 7.7 5.26 7.6
7/1/2021 12:30:00 PM 20.89 69.602 0.565 7.71 5.14 7.63
7/1/2021 12:45:00 PM 20.86 69.548 0.566 7.71 8.12 7.68
7/1/2021 1:00:00 PM 20.83 69.494 0.565 7.72 17.27 7.7
7/1/2021 1:15:00 PM 20.79 69.422 0.564 7.74 5.49 7.78
7/1/2021 1:30:00 PM 20.76 69.368 0.562 7.75 5.23 7.9
7/1/2021 1:45:00 PM 20.74 69.332 0.563 7.76 5.58 7.93
7/1/2021 2:00:00 PM 20.73 69.314 0.563 7.78 5.87 8.1
7/1/2021 2:15:00 PM 20.76 69.368 0.563 7.8 6.16 8.22
7/1/2021 2:30:00 PM 20.82 69.476 0.563 7.82 6.34 8.47
7/1/2021 2:45:00 PM 20.84 69.512 0.563 7.84 6.38 8.58
7/1/2021 3:00:00 PM 20.9 69.62 0.563 7.86 6.58 8.72
7/1/2021 3:15:00 PM 20.95 69.71 0.562 7.88 6.29 8.82
7/1/2021 3:30:00 PM 20.98 69.764 0.561 7.89 7.42 8.91
7/1/2021 3:45:00 PM 21.02 69.836 0.561 7.9 8 8.96
7/1/2021 4:00:00 PM 21.1 69.98 0.56 7.92 9.32 9.08
7/1/2021 4:15:00 PM 21.13 70.034 0.559 7.93 9.49 9.16
7/1/2021 4:30:00 PM 21.13 70.034 0.558 7.93 9.55 9.17
7/1/2021 4:45:00 PM 21.07 69.926 0.557 7.93 9.5 9.08
7/1/2021 5:00:00 PM 21 69.8 0.556 7.93 10.69 9.05
7/1/2021 5:15:00 PM 20.94 69.692 0.557 7.93 11.16 9
7/1/2021 5:30:00 PM 20.91 69.638 0.557 7.93 13.28 8.99
7/1/2021 5:45:00 PM 20.88 69.584 0.558 7.93 14.35 8.97
7/1/2021 6:00:00 PM 20.84 69.512 0.558 7.94 15.11 8.95
7/1/2021 6:15:00 PM 20.79 69.422 0.558 7.94 15.47 8.91
7/1/2021 6:30:00 PM 20.74 69.332 0.556 7.94 15.79 8.82
7/1/2021 6:45:00 PM 20.7 69.26 0.553 7.94 17.25 8.72
7/1/2021 7:00:00 PM 20.65 69.17 0.551 7.93 18.68 8.59
7/1/2021 7:15:00 PM 20.59 69.062 0.551 7.91 17.59 8.46
7/1/2021 7:30:00 PM 20.52 68.936 0.552 7.9 17.35 8.37
7/1/2021 7:45:00 PM 20.43 68.774 0.554 7.89 16.26 8.28
7/1/2021 8:00:00 PM 20.35 68.63 0.556 7.88 14.37 8.21
7/1/2021 8:15:00 PM 20.26 68.468 0.559 7.87 13.48 8.16
7/1/2021 8:30:00 PM 20.16 68.288 0.561 7.86 13.34 8.18
7/1/2021 8:45:00 PM 20.06 68.108 0.564 7.87 12.43 8.21
7/1/2021 9:00:00 PM 19.96 67.92799 0.569 7.87 12.19 8.18
7/1/2021 9:15:00 PM 19.88 67.784 0.574 7.86 11.88 8.13
7/1/2021 9:30:00 PM 19.79 67.622 0.577 7.86 10.97 8.07
7/1/2021 9:45:00 PM 19.71 67.478 0.578 7.86 10.71 8.02
7/1/2021 10:00:00 PM 19.63 67.334 0.577 7.85 11.05 7.98
7/1/2021 10:15:00 PM 19.55 67.19 0.576 7.85 11.14 7.91
7/1/2021 10:30:00 PM 19.48 67.064 0.575 7.84 10.56 7.84
7/1/2021 10:45:00 PM 19.41 66.938 0.573 7.83 10.41 7.77
7/1/2021 11:00:00 PM 19.3 66.74 0.568 7.82 11.67 7.77
7/1/2021 11:15:00 PM 19.23 66.614 0.566 7.82 11.6 7.73
7/1/2021 11:30:00 PM 19.16 66.488 0.565 7.81 11.8 7.69
7/1/2021 11:45:00 PM 19.09 66.362 0.566 7.8 11.23 7.62
7/2/2021 12:00:00 AM 19.02 66.236 0.566 7.77 11.99 7.61
7/2/2021 12:15:00 AM 18.95 66.11 0.566 7.77 10.91 7.59
7/2/2021 12:30:00 AM 18.88 65.984 0.567 7.76 11.19 7.57
7/2/2021 12:45:00 AM 18.81 65.858 0.566 7.76 11.75 7.53
7/2/2021 1:00:00 AM 18.74 65.732 0.564 7.75 11.97 7.49
7/2/2021 1:15:00 AM 18.69 65.642 0.561 7.75 12.52 7.46
7/2/2021 1:30:00 AM 18.63 65.534 0.556 7.74 12.47 7.43
7/2/2021 1:45:00 AM 18.58 65.444 0.55 7.73 14.03 7.37
7/2/2021 2:00:00 AM 18.54 65.372 0.543 7.71 15.69 7.34
7/2/2021 2:15:00 AM 18.51 65.318 0.536 7.7 16.95 7.29
7/2/2021 2:30:00 AM 18.48 65.264 0.528 7.69 18.98 7.26
7/2/2021 2:45:00 AM 18.47 65.246 0.515 7.67 33.3 7.29
7/2/2021 3:00:00 AM 18.53 65.354 0.491 7.66 69.77 7.31
7/2/2021 3:15:00 AM 18.56 65.408 0.474 7.63 124.97 7.38
7/2/2021 3:30:00 AM 18.59 65.462 0.463 7.6 117.11 7.38
7/2/2021 3:45:00 AM 18.74 65.732 0.477 7.55 93.03 7.26
7/2/2021 4:00:00 AM 18.61 65.498 0.438 7.51 193.24 7.31
7/2/2021 4:15:00 AM 18.34 65.012 0.332 7.47 341.4 7.59
7/2/2021 4:30:00 AM 18.13 64.634 0.252 7.42 414.56 7.85
7/2/2021 4:45:00 AM 17.98 64.364 0.219 7.39 477.63 7.99
7/2/2021 5:00:00 AM 17.87 64.166 0.21 7.37 402.03 8.09
7/2/2021 5:15:00 AM 17.78 64.004 0.214 7.37 358.22 8.14
7/2/2021 5:30:00 AM 17.71 63.878 0.224 7.38 440.09 8.18
7/2/2021 5:45:00 AM 17.65 63.77 0.233 7.39 241.01 8.18
7/2/2021 6:00:00 AM 17.63 63.734 0.237 7.41 203.3 8.18
7/2/2021 6:15:00 AM 17.65 63.77 0.236 7.41 158.29 8.15
7/2/2021 6:30:00 AM 17.7 63.86 0.233 7.42 167.04 8.13
7/2/2021 6:45:00 AM 17.74 63.932 0.232 7.42 133.77 8.1
7/2/2021 7:00:00 AM 17.77 63.986 0.233 7.43 107.6 8.09
7/2/2021 7:15:00 AM 17.8 64.04 0.232 7.43 94.89 8.08
7/2/2021 7:30:00 AM 17.82 64.076 0.229 7.43 83.68 8.08
7/2/2021 7:45:00 AM 17.83 64.094 0.224 7.43 64.4 8.09
7/2/2021 8:00:00 AM 17.84 64.112 0.219 7.43 68.94 8.09
7/2/2021 8:15:00 AM 17.84 64.112 0.215 7.43 57.8 8.1
7/2/2021 8:30:00 AM 17.84 64.112 0.214 7.43 63.88 8.11
7/2/2021 8:45:00 AM 17.84 64.112 0.216 7.43 49.49 8.13
7/2/2021 9:00:00 AM 17.84 64.112 0.22 7.44 44.42 8.15
7/2/2021 9:15:00 AM 17.84 64.112 0.224 7.44 54.26 8.19
7/2/2021 9:30:00 AM 17.83 64.094 0.228 7.45 48.17 8.23
7/2/2021 9:45:00 AM 17.82 64.076 0.233 7.46 40.16 8.25
7/2/2021 10:00:00 AM 17.79 64.022 0.236 7.47 64.1 8.27
7/2/2021 10:15:00 AM 17.75 63.95 0.239 7.47 52.42 8.29
7/2/2021 10:30:00 AM 17.74 63.932 0.241 7.48 66.78 8.3
7/2/2021 10:45:00 AM 17.69 63.842 0.243 7.48 70.72 8.3
7/2/2021 11:00:00 AM 17.69 63.842 0.244 7.49 106.57 8.31
7/2/2021 11:15:00 AM 17.69 63.842 0.245 7.49 98.93 8.31
7/2/2021 11:30:00 AM 17.71 63.878 0.246 7.5 91.36 8.33
7/2/2021 11:45:00 AM 17.78 64.004 0.248 7.5 87 8.34
7/2/2021 12:00:00 PM 17.81 64.058 0.249 7.51 80.05 8.36
7/2/2021 12:15:00 PM 17.9 64.22 0.251 7.52 81.85 8.39
7/2/2021 12:30:00 PM 18.1 64.58 0.253 7.54 94.82 8.44
7/2/2021 12:45:00 PM 18.26 64.868 0.255 7.55 80.2 8.49
7/2/2021 1:00:00 PM 18.28 64.904 0.258 7.56 92.58 8.5
7/2/2021 1:15:00 PM 18.48 65.264 0.26 7.58 60.13 8.58
7/2/2021 1:30:00 PM 18.51 65.318 0.263 7.59 47.3 8.6
7/2/2021 1:45:00 PM 18.62 65.516 0.265 7.61 43.73 8.66
7/2/2021 2:00:00 PM 18.64 65.552 0.267 7.62 39.74 8.68
7/2/2021 2:15:00 PM 18.88 65.984 0.269 7.64 40.06 8.77
7/2/2021 2:30:00 PM 19.01 66.218 0.271 7.66 43.15 8.82
7/2/2021 2:45:00 PM 19.24 66.632 0.273 7.68 39.7 8.88
7/2/2021 3:00:00 PM 19.44 66.992 0.275 7.69 42.46 8.94
7/2/2021 3:15:00 PM 19.58 67.244 0.277 7.71 33.53 8.97
7/2/2021 3:30:00 PM 19.83 67.694 0.279 7.74 32.01 9.06
7/2/2021 3:45:00 PM 19.94 67.892 0.281 7.75 31.2 9.07
7/2/2021 4:00:00 PM 19.95 67.91 0.283 7.75 30.74 9.02
7/2/2021 4:15:00 PM 19.97 67.946 0.285 7.76 29.72 8.97
7/2/2021 4:30:00 PM 19.96 67.92799 0.287 7.76 29.33 8.94
7/2/2021 4:45:00 PM 19.85 67.73 0.286 7.76 30.71 8.88
7/2/2021 5:00:00 PM 19.8 67.64 0.29 7.76 32.08 8.82
7/2/2021 5:15:00 PM 19.76 67.568 0.292 7.75 29 8.76
7/2/2021 5:30:00 PM 19.68 67.424 0.294 7.74 27.41 8.68
7/2/2021 5:45:00 PM 19.62 67.316 0.296 7.73 26.93 8.62
7/2/2021 6:00:00 PM 19.56 67.208 0.298 7.73 25.71 8.55
7/2/2021 6:15:00 PM 19.5 67.1 0.3 7.72 27.25 8.5
7/2/2021 6:30:00 PM 19.46 67.028 0.302 7.72 26.36 8.47
7/2/2021 6:45:00 PM 19.44 66.992 0.303 7.72 25.73 8.45
7/2/2021 7:00:00 PM 19.39 66.902 0.305 7.71 26.89 8.4
7/2/2021 7:15:00 PM 19.33 66.794 0.307 7.71 27.15 8.35
7/2/2021 7:30:00 PM 19.28 66.704 0.309 7.7 25.68 8.31
7/2/2021 7:45:00 PM 19.22 66.596 0.311 7.7 25.63 8.25
7/2/2021 8:00:00 PM 19.16 66.488 0.314 7.69 24.78 8.21
7/2/2021 8:15:00 PM 19.1 66.38 0.316 7.68 24.45 8.16
7/2/2021 8:30:00 PM 19.03 66.254 0.318 7.68 24.22 8.12
7/2/2021 8:45:00 PM 18.98 66.164 0.32 7.67 23.93 8.08
7/2/2021 9:00:00 PM 18.93 66.074 0.322 7.66 22.19 8.03
7/2/2021 9:15:00 PM 18.88 65.984 0.323 7.66 24.05 7.99
7/2/2021 9:30:00 PM 18.83 65.894 0.325 7.65 24.88 7.95
7/2/2021 9:45:00 PM 18.79 65.82201 0.327 7.64 21.64 7.93
7/2/2021 10:00:00 PM 18.76 65.768 0.33 7.64 21.88 7.9
7/2/2021 10:15:00 PM 18.73 65.714 0.332 7.63 22.01 7.88
7/2/2021 10:30:00 PM 18.7 65.66 0.334 7.64 21.22 7.89
7/2/2021 10:45:00 PM 18.68 65.624 0.336 7.64 20.9 7.88
7/2/2021 11:00:00 PM 18.65 65.57 0.338 7.64 20.24 7.88
7/2/2021 11:15:00 PM 18.63 65.534 0.34 7.64 22.39 7.9
7/2/2021 11:30:00 PM 18.61 65.498 0.342 7.65 37.88 7.93
7/2/2021 11:45:00 PM 18.57 65.426 0.347 7.66 71.88 7.97
7/3/2021 12:00:00 AM 18.51 65.318 0.324 7.64 114.3 8.05
7/3/2021 12:15:00 AM 18.08 64.544 0.238 7.55 165.95 8.25
7/3/2021 12:30:00 AM 17.56 63.608 0.218 7.46 279.21 8.37
7/3/2021 12:45:00 AM 17.51 63.518 0.252 7.47 292.26 8.35
7/3/2021 1:00:00 AM 17.65 63.77 0.243 7.44 303.5 8.31
7/3/2021 1:15:00 AM 17.68 63.824 0.201 7.37 405.48 8.33
7/3/2021 1:30:00 AM 17.42 63.356 0.16 7.28 703.07 8.4
7/3/2021 1:45:00 AM 17.18 62.924 0.136 7.22 793.87 8.48
7/3/2021 2:00:00 AM 17.05 62.69 0.127 7.19 838.93 8.53
7/3/2021 2:15:00 AM 16.97 62.546 0.125 7.17 643.59 8.57
7/3/2021 2:30:00 AM 16.93 62.474 0.126 7.15 597.86 8.6
7/3/2021 2:45:00 AM 16.92 62.456 0.129 7.15 821.84 8.61
7/3/2021 3:00:00 AM 16.91 62.438 0.131 7.17 450.91 8.61
7/3/2021 3:15:00 AM 16.91 62.438 0.134 7.17 336.66 8.6
7/3/2021 3:30:00 AM 16.91 62.438 0.139 7.18 297.82 8.58
7/3/2021 3:45:00 AM 16.92 62.456 0.146 7.18 313.48 8.56
7/3/2021 4:00:00 AM 16.93 62.474 0.154 7.2 295.99 8.53
7/3/2021 4:15:00 AM 16.93 62.474 0.16 7.21 326.09 8.51
7/3/2021 4:30:00 AM 16.93 62.474 0.163 7.22 279.57 8.5
7/3/2021 4:45:00 AM 16.92 62.456 0.164 7.22 187.35 8.51
7/3/2021 5:00:00 AM 16.9 62.42 0.164 7.23 188.21 8.51
7/3/2021 5:15:00 AM 16.89 62.402 0.165 7.23 213.28 8.51
7/3/2021 5:30:00 AM 16.87 62.366 0.165 7.24 245.8 8.52
7/3/2021 5:45:00 AM 16.85 62.33 0.167 7.24 137.46 8.52
7/3/2021 6:00:00 AM 16.84 62.312 0.169 7.25 166.18 8.53
7/3/2021 6:15:00 AM 16.82 62.276 0.17 7.26 141.35 8.54
7/3/2021 6:30:00 AM 16.8 62.24 0.17 7.27 223.06 8.54
7/3/2021 6:45:00 AM 16.78 62.204 0.171 7.27 106.69 8.55
7/3/2021 7:00:00 AM 16.77 62.186 0.173 7.28 177.97 8.56
7/3/2021 7:15:00 AM 16.76 62.168 0.174 7.29 98.32 8.55
7/3/2021 7:30:00 AM 16.75 62.15 0.176 7.29 116.72 8.56
7/3/2021 7:45:00 AM 16.74 62.132 0.176 7.3 106.09 8.58
7/3/2021 8:00:00 AM 16.73 62.114 0.177 7.3 118.35 8.58
7/3/2021 8:15:00 AM 16.72 62.096 0.179 7.31 101.83 8.59
7/3/2021 8:30:00 AM 16.7 62.06 0.18 7.32 93.96 8.59
7/3/2021 8:45:00 AM 16.69 62.042 0.181 7.32 72.37 8.61
7/3/2021 9:00:00 AM 16.67 62.006 0.181 7.33 70.29 8.61
7/3/2021 9:15:00 AM 16.66 61.988 0.182 7.33 60.61 8.62
7/3/2021 9:30:00 AM 16.65 61.97 0.183 7.34 75.3 8.63
7/3/2021 9:45:00 AM 16.64 61.952 0.184 7.34 61.5 8.64
7/3/2021 10:00:00 AM 16.66 61.988 0.186 7.35 72.46 8.65
7/3/2021 10:15:00 AM 16.66 61.988 0.187 7.35 69.45 8.66
7/3/2021 10:30:00 AM 16.66 61.988 0.188 7.36 66.21 8.67
7/3/2021 10:45:00 AM 16.64 61.952 0.189 7.37 45.1 8.68
7/3/2021 11:00:00 AM 16.64 61.952 0.191 7.37 51.35 8.69
7/3/2021 11:15:00 AM 16.64 61.952 0.193 7.38 36.09 8.7
7/3/2021 11:30:00 AM 16.65 61.97 0.196 7.38 44.16 8.71
7/3/2021 11:45:00 AM 16.69 62.042 0.199 7.39 34.5 8.72
7/3/2021 12:00:00 PM 16.75 62.15 0.201 7.4 46.84 8.73
7/3/2021 12:15:00 PM 16.76 62.168 0.202 7.41 45.8 8.74
7/3/2021 12:30:00 PM 16.76 62.168 0.204 7.42 48.44 8.76
7/3/2021 12:45:00 PM 16.75 62.15 0.206 7.43 44.12 8.78
7/3/2021 1:00:00 PM 16.78 62.204 0.207 7.43 31.27 8.79
7/3/2021 1:15:00 PM 16.83 62.294 0.205 7.44 33.91 8.8
7/3/2021 1:30:00 PM 16.86 62.348 0.205 7.45 33.63 8.83
7/3/2021 1:45:00 PM 16.93 62.474 0.205 7.46 31.69 8.85
7/3/2021 2:00:00 PM 17.01 62.618 0.205 7.46 49.69 8.87
7/3/2021 2:15:00 PM 17.04 62.672 0.205 7.47 34.64 8.87
7/3/2021 2:30:00 PM 17.12 62.816 0.203 7.47 35.85 8.87
7/3/2021 2:45:00 PM 17.18 62.924 0.202 7.47 43.88 8.88
7/3/2021 3:00:00 PM 17.26 63.068 0.2 7.47 35.68 8.89
7/3/2021 3:15:00 PM 17.31 63.158 0.194 7.47 43.74 8.9
7/3/2021 3:30:00 PM 17.34 63.212 0.188 7.46 43.93 8.9
7/3/2021 3:45:00 PM 17.37 63.266 0.184 7.45 45.1 8.9
7/3/2021 4:00:00 PM 17.44 63.392 0.182 7.45 40.21 8.9
7/3/2021 4:15:00 PM 17.51 63.518 0.18 7.45 58.98 8.88
7/3/2021 4:30:00 PM 17.61 63.698 0.178 7.44 47.02 8.87
7/3/2021 4:45:00 PM 17.68 63.824 0.176 7.44 54.17 8.85
7/3/2021 5:00:00 PM 17.71 63.878 0.174 7.43 51.36 8.85
7/3/2021 5:15:00 PM 17.72 63.896 0.173 7.42 52.12 8.82
7/3/2021 5:30:00 PM 17.77 63.986 0.172 7.41 49.84 8.81
7/3/2021 5:45:00 PM 17.81 64.058 0.172 7.41 53.79 8.8
7/3/2021 6:00:00 PM 17.85 64.13 0.171 7.4 44.52 8.77
7/3/2021 6:15:00 PM 17.89 64.202 0.169 7.4 56.17 8.75
7/3/2021 6:30:00 PM 17.92 64.256 0.168 7.39 48.11 8.73
7/3/2021 6:45:00 PM 17.94 64.292 0.167 7.39 64.45 8.72
7/3/2021 7:00:00 PM 17.97 64.346 0.167 7.39 46.24 8.69
7/3/2021 7:15:00 PM 17.99 64.382 0.168 7.38 51.93 8.67
7/3/2021 7:30:00 PM 18.01 64.418 0.17 7.38 49.92 8.65
7/3/2021 7:45:00 PM 18.01 64.418 0.173 7.39 53.1 8.62
7/3/2021 8:00:00 PM 18.02 64.436 0.176 7.39 45.92 8.61
7/3/2021 8:15:00 PM 18.02 64.436 0.178 7.39 51.89 8.59
7/3/2021 8:30:00 PM 18.02 64.436 0.18 7.39 40.92 8.57
7/3/2021 8:45:00 PM 18.02 64.436 0.182 7.39 43.15 8.56
7/3/2021 9:00:00 PM 18.02 64.436 0.183 7.4 45.63 8.54
7/3/2021 9:15:00 PM 18.02 64.436 0.185 7.4 38.34 8.53
7/3/2021 9:30:00 PM 18.01 64.418 0.187 7.39 31.71 8.5
7/3/2021 9:45:00 PM 18 64.4 0.189 7.4 36.02 8.49
7/3/2021 10:00:00 PM 17.99 64.382 0.191 7.4 37.59 8.48
7/3/2021 10:15:00 PM 17.97 64.346 0.194 7.4 32.96 8.47
7/3/2021 10:30:00 PM 17.93 64.274 0.196 7.4 34.44 8.46
7/3/2021 10:45:00 PM 17.89 64.202 0.198 7.4 35.28 8.46
7/3/2021 11:00:00 PM 17.83 64.094 0.2 7.4 30.71 8.46
7/3/2021 11:15:00 PM 17.78 64.004 0.202 7.4 35.95 8.46
7/3/2021 11:30:00 PM 17.72 63.896 0.203 7.4 26.98 8.46
7/3/2021 11:45:00 PM 17.66 63.788 0.205 7.41 30.08 8.46
7/4/2021 12:00:00 AM 17.6 63.68 0.207 7.41 31.26 8.46
7/4/2021 12:15:00 AM 17.53 63.554 0.208 7.41 36.01 8.47
7/4/2021 12:30:00 AM 17.47 63.446 0.21 7.41 29.37 8.48
7/4/2021 12:45:00 AM 17.4 63.32 0.212 7.41 30.25 8.48
7/4/2021 1:00:00 AM 17.33 63.194 0.214 7.42 29.66 8.49
7/4/2021 1:15:00 AM 17.26 63.068 0.216 7.42 27.33 8.5
7/4/2021 1:30:00 AM 17.19 62.942 0.218 7.42 30.78 8.51
7/4/2021 1:45:00 AM 17.12 62.816 0.22 7.43 25.72 8.52
7/4/2021 2:00:00 AM 17.05 62.69 0.222 7.43 25.49 8.54
7/4/2021 2:15:00 AM 16.98 62.564 0.224 7.43 27.77 8.55
7/4/2021 2:30:00 AM 16.91 62.438 0.225 7.43 26.97 8.57
7/4/2021 2:45:00 AM 16.84 62.312 0.227 7.43 25.77 8.58
7/4/2021 3:00:00 AM 16.77 62.186 0.229 7.44 24.94 8.6
7/4/2021 3:15:00 AM 16.7 62.06 0.231 7.44 24.32 8.61
7/4/2021 3:30:00 AM 16.63 61.934 0.232 7.44 22.79 8.62
7/4/2021 3:45:00 AM 16.57 61.826 0.234 7.44 24.3 8.63
7/4/2021 4:00:00 AM 16.5 61.7 0.236 7.44 23.54 8.65
7/4/2021 4:15:00 AM 16.44 61.592 0.237 7.45 22.8 8.66
7/4/2021 4:30:00 AM 16.38 61.484 0.238 7.45 22.25 8.67
7/4/2021 4:45:00 AM 16.32 61.376 0.24 7.45 22.38 8.68
7/4/2021 5:00:00 AM 16.26 61.268 0.241 7.45 22.48 8.69
7/4/2021 5:15:00 AM 16.21 61.178 0.243 7.45 22.75 8.71
7/4/2021 5:30:00 AM 16.15 61.07 0.244 7.44 22.22 8.72
7/4/2021 5:45:00 AM 16.1 60.98 0.246 7.44 21.53 8.73
7/4/2021 6:00:00 AM 16.05 60.89 0.247 7.44 22.24 8.74
7/4/2021 6:15:00 AM 16 60.8 0.248 7.45 21.57 8.75
7/4/2021 6:30:00 AM 15.95 60.71 0.25 7.45 19.74 8.76
7/4/2021 6:45:00 AM 15.91 60.638 0.251 7.46 19.7 8.78
7/4/2021 7:00:00 AM 15.88 60.584 0.252 7.46 19.99 8.8
7/4/2021 7:15:00 AM 15.85 60.53 0.253 7.46 18.02 8.81
7/4/2021 7:30:00 AM 15.82 60.476 0.254 7.47 19.48 8.83
7/4/2021 7:45:00 AM 15.8 60.44 0.255 7.48 16.9 8.85
7/4/2021 8:00:00 AM 15.77 60.386 0.256 7.48 14.5 8.87
7/4/2021 8:15:00 AM 15.74 60.332 0.256 7.49 17.18 8.89
7/4/2021 8:30:00 AM 15.71 60.278 0.257 7.49 16.68 8.91
7/4/2021 8:45:00 AM 15.69 60.242 0.258 7.5 15.85 8.93
7/4/2021 9:00:00 AM 15.67 60.206 0.259 7.5 16.34 8.95
7/4/2021 9:15:00 AM 15.69 60.242 0.26 7.51 14.96 8.99
7/4/2021 9:30:00 AM 15.73 60.314 0.261 7.52 14.69 9.04
7/4/2021 9:45:00 AM 15.76 60.368 0.262 7.53 13.74 9.08
7/4/2021 10:00:00 AM 15.84 60.512 0.262 7.54 14.34 9.14
7/4/2021 10:15:00 AM 15.92 60.656 0.263 7.57 13.4 9.2
7/4/2021 10:30:00 AM 16.02 60.836 0.264 7.58 13.41 9.25
7/4/2021 10:45:00 AM 16.14 61.052 0.265 7.6 12.98 9.31
7/4/2021 11:00:00 AM 16.27 61.286 0.265 7.61 12.4 9.38
7/4/2021 11:15:00 AM 16.45 61.61 0.266 7.63 12.86 9.45
7/4/2021 11:30:00 AM 16.52 61.736 0.267 7.64 13.55 9.47
7/4/2021 11:45:00 AM 16.6 61.88 0.268 7.66 11.78 9.51
7/4/2021 12:00:00 PM 16.75 62.15 0.268 7.68 11.95 9.55
7/4/2021 12:15:00 PM 16.78 62.204 0.269 7.69 11.26 9.55
7/4/2021 12:30:00 PM 16.94 62.492 0.27 7.71 11.12 9.6
7/4/2021 12:45:00 PM 17.14 62.852 0.271 7.73 10.98 9.65
7/4/2021 1:00:00 PM 17.21 62.978 0.272 7.73 10.66 9.65
7/4/2021 1:15:00 PM 17.3 63.14 0.273 7.74 10.71 9.66
7/4/2021 1:30:00 PM 17.46 63.428 0.273 7.76 10.9 9.69
7/4/2021 1:45:00 PM 17.62 63.716 0.274 7.77 10.77 9.71
7/4/2021 2:00:00 PM 17.75 63.95 0.275 7.78 10.38 9.72
7/4/2021 2:15:00 PM 18.06 64.508 0.276 7.8 10.29 9.78
7/4/2021 2:30:00 PM 18.33 64.994 0.277 7.82 10.23 9.81
7/4/2021 2:45:00 PM 18.49 65.282 0.277 7.84 10.39 9.81
7/4/2021 3:00:00 PM 18.57 65.426 0.278 7.85 10.12 9.79
7/4/2021 3:15:00 PM 18.8 65.84 0.279 7.86 10.37 9.81
7/4/2021 3:30:00 PM 18.99 66.182 0.28 7.87 9.92 9.81
7/4/2021 3:45:00 PM 19.14 66.452 0.281 7.89 9.96 9.8
7/4/2021 4:00:00 PM 19.23 66.614 0.281 7.89 10.09 9.76
7/4/2021 4:15:00 PM 19.3 66.74 0.282 7.9 9.35 9.72
7/4/2021 4:30:00 PM 19.32 66.776 0.283 7.89 9.38 9.66
7/4/2021 4:45:00 PM 19.37 66.866 0.283 7.89 9.44 9.6
7/4/2021 5:00:00 PM 19.41 66.938 0.284 7.89 9.21 9.55
7/4/2021 5:15:00 PM 19.44 66.992 0.285 7.89 9.56 9.49
7/4/2021 5:30:00 PM 19.46 67.028 0.286 7.88 9.04 9.43
7/4/2021 5:45:00 PM 19.46 67.028 0.286 7.87 9.23 9.36
7/4/2021 6:00:00 PM 19.47 67.046 0.287 7.86 9.14 9.29
7/4/2021 6:15:00 PM 19.47 67.046 0.288 7.85 9.35 9.22
7/4/2021 6:30:00 PM 19.45 67.01 0.288 7.84 9.05 9.14
7/4/2021 6:45:00 PM 19.41 66.938 0.289 7.83 9.33 9.07
7/4/2021 7:00:00 PM 19.4 66.92 0.29 7.81 9.06 8.98
7/4/2021 7:15:00 PM 19.41 66.938 0.291 7.8 8.55 8.93
7/4/2021 7:30:00 PM 19.43 66.974 0.291 7.79 8.52 8.87
7/4/2021 7:45:00 PM 19.43 66.974 0.292 7.78 9.05 8.79
7/4/2021 8:00:00 PM 19.42 66.956 0.293 7.77 8.71 8.73
7/4/2021 8:15:00 PM 19.41 66.938 0.294 7.75 9.4 8.65
7/4/2021 8:30:00 PM 19.39 66.902 0.294 7.74 9.05 8.58
7/4/2021 8:45:00 PM 19.38 66.884 0.295 7.73 9.76 8.53
7/4/2021 9:00:00 PM 19.37 66.866 0.296 7.72 9.94 8.47
7/4/2021 9:15:00 PM 19.35 66.83 0.297 7.71 9.64 8.41
7/4/2021 9:30:00 PM 19.33 66.794 0.298 7.7 10.46 8.36
7/4/2021 9:45:00 PM 19.3 66.74 0.298 7.68 10.51 8.32
7/4/2021 10:00:00 PM 19.27 66.686 0.299 7.68 10.48 8.27
7/4/2021 10:15:00 PM 19.23 66.614 0.3 7.67 10.38 8.23
7/4/2021 10:30:00 PM 19.19 66.542 0.301 7.66 10.84 8.19
7/4/2021 10:45:00 PM 19.14 66.452 0.302 7.65 10.82 8.16
7/4/2021 11:00:00 PM 19.1 66.38 0.303 7.64 10.65 8.13
7/4/2021 11:15:00 PM 19.05 66.29 0.304 7.63 9.73 8.1
7/4/2021 11:30:00 PM 18.99 66.182 0.305 7.63 9.94 8.08
7/4/2021 11:45:00 PM 18.94 66.092 0.306 7.62 10 8.06
7/5/2021 12:00:00 AM 18.88 65.984 0.307 7.62 9.8 8.05
7/5/2021 12:15:00 AM 18.82 65.876 0.308 7.61 9.54 8.03
7/5/2021 12:30:00 AM 18.77 65.786 0.309 7.61 9.47 8.02
7/5/2021 12:45:00 AM 18.71 65.67799 0.31 7.6 9.74 8.01
7/5/2021 1:00:00 AM 18.65 65.57 0.311 7.6 9.66 8
7/5/2021 1:15:00 AM 18.59 65.462 0.312 7.59 9.91 7.99
7/5/2021 1:30:00 AM 18.53 65.354 0.313 7.59 9.78 7.99
7/5/2021 1:45:00 AM 18.47 65.246 0.314 7.59 9.8 7.99
7/5/2021 2:00:00 AM 18.41 65.138 0.315 7.59 9.79 7.98
7/5/2021 2:15:00 AM 18.35 65.03 0.316 7.58 10.17 7.99
7/5/2021 2:30:00 AM 18.3 64.94 0.317 7.58 9.72 7.99
7/5/2021 2:45:00 AM 18.24 64.832 0.318 7.58 9.57 7.99
7/5/2021 3:00:00 AM 18.18 64.724 0.32 7.58 10.37 7.99
7/5/2021 3:15:00 AM 18.12 64.616 0.321 7.58 12.46 8
7/5/2021 3:30:00 AM 18.06 64.508 0.322 7.58 9.59 8.01
7/5/2021 3:45:00 AM 18 64.4 0.323 7.58 10.91 8.01
7/5/2021 4:00:00 AM 17.95 64.31 0.324 7.58 10.15 8.01
7/5/2021 4:15:00 AM 17.89 64.202 0.325 7.58 10.38 8.02
7/5/2021 4:30:00 AM 17.83 64.094 0.327 7.58 10.49 8.03
7/5/2021 4:45:00 AM 17.78 64.004 0.328 7.58 10.17 8.04
7/5/2021 5:00:00 AM 17.72 63.896 0.329 7.58 10.28 8.05
7/5/2021 5:15:00 AM 17.66 63.788 0.33 7.58 10.09 8.06
7/5/2021 5:30:00 AM 17.61 63.698 0.331 7.58 11.08 8.07
7/5/2021 5:45:00 AM 17.54 63.572 0.332 7.58 9.84 8.08
7/5/2021 6:00:00 AM 17.49 63.482 0.334 7.58 10.67 8.09
7/5/2021 6:15:00 AM 17.43 63.374 0.335 7.58 10.84 8.11
7/5/2021 6:30:00 AM 17.37 63.266 0.336 7.58 10.86 8.13
7/5/2021 6:45:00 AM 17.32 63.176 0.337 7.59 11.76 8.16
7/5/2021 7:00:00 AM 17.26 63.068 0.338 7.59 10.84 8.19
7/5/2021 7:15:00 AM 17.2 62.96 0.339 7.59 9.93 8.22
7/5/2021 7:30:00 AM 17.14 62.852 0.34 7.6 9.29 8.26
7/5/2021 7:45:00 AM 17.09 62.762 0.341 7.6 8.87 8.3
7/5/2021 8:00:00 AM 17.03 62.654 0.342 7.61 9 8.34
7/5/2021 8:15:00 AM 16.98 62.564 0.343 7.61 8.17 8.39
7/5/2021 8:30:00 AM 16.94 62.492 0.344 7.62 8.33 8.45
7/5/2021 8:45:00 AM 16.9 62.42 0.345 7.63 8.45 8.5
7/5/2021 9:00:00 AM 16.87 62.366 0.346 7.63 8.21 8.57
7/5/2021 9:15:00 AM 16.87 62.366 0.347 7.64 7.49 8.65
7/5/2021 9:30:00 AM 16.87 62.366 0.348 7.65 8.16 8.74
7/5/2021 9:45:00 AM 16.88 62.384 0.349 7.67 7.14 8.82
7/5/2021 10:00:00 AM 16.92 62.456 0.35 7.68 6.4 8.93
7/5/2021 10:15:00 AM 16.98 62.564 0.35 7.71 6.26 9.05
7/5/2021 10:30:00 AM 17.04 62.672 0.351 7.73 6.03 9.17
7/5/2021 10:45:00 AM 17.14 62.852 0.352 7.74 5.84 9.29
7/5/2021 11:00:00 AM 17.25 63.05 0.353 7.76 5.87 9.41
7/5/2021 11:15:00 AM 17.37 63.266 0.354 7.78 5.81 9.53
7/5/2021 11:30:00 AM 17.51 63.518 0.354 7.81 5.36 9.65
7/5/2021 11:45:00 AM 17.65 63.77 0.355 7.84 5.44 9.77
7/5/2021 12:00:00 PM 17.82 64.076 0.356 7.86 5.52 9.88
7/5/2021 12:15:00 PM 17.98 64.364 0.357 7.89 5.26 9.99
7/5/2021 12:30:00 PM 18.15 64.67 0.358 7.91 5.27 10.09
7/5/2021 12:45:00 PM 18.36 65.048 0.359 7.94 5.75 10.19
7/5/2021 1:00:00 PM 18.55 65.39 0.359 7.96 5.13 10.28
7/5/2021 1:15:00 PM 18.77 65.786 0.36 7.99 5.14 10.38
7/5/2021 1:30:00 PM 19 66.2 0.36 8.01 5.43 10.45
7/5/2021 1:45:00 PM 19.21 66.578 0.361 8.04 4.86 10.52
7/5/2021 2:00:00 PM 19.41 66.938 0.362 8.06 4.99 10.58
7/5/2021 2:15:00 PM 19.62 67.316 0.363 8.08 4.96 10.63
7/5/2021 2:30:00 PM 19.81 67.658 0.363 8.11 4.87 10.66
7/5/2021 2:45:00 PM 20.01 68.018 0.364 8.12 4.68 10.69
7/5/2021 3:00:00 PM 20.19 68.342 0.365 8.14 4.48 10.71
7/5/2021 3:15:00 PM 20.36 68.648 0.366 8.16 4.66 10.72
7/5/2021 3:30:00 PM 20.5 68.9 0.366 8.17 4.6 10.71
7/5/2021 3:45:00 PM 20.64 69.152 0.367 8.18 4.34 10.68
7/5/2021 4:00:00 PM 20.76 69.368 0.368 8.19 4.9 10.66
7/5/2021 4:15:00 PM 20.86 69.548 0.369 8.19 4.5 10.62
7/5/2021 4:30:00 PM 20.95 69.71 0.369 8.19 4.63 10.56
7/5/2021 4:45:00 PM 21.02 69.836 0.37 8.19 4.82 10.5
7/5/2021 5:00:00 PM 21.08 69.944 0.371 8.19 4.47 10.42
7/5/2021 5:15:00 PM 21.12 70.016 0.371 8.19 4.96 10.34
7/5/2021 5:30:00 PM 21.15 70.07 0.372 8.18 4.66 10.24
7/5/2021 5:45:00 PM 21.17 70.106 0.373 8.17 4.49 10.14
7/5/2021 6:00:00 PM 21.18 70.124 0.373 8.16 4.72 10.06
7/5/2021 6:15:00 PM 21.17 70.106 0.374 8.15 4.73 9.95
7/5/2021 6:30:00 PM 21.16 70.088 0.375 8.14 4.42 9.85
7/5/2021 6:45:00 PM 21.14 70.052 0.376 8.12 4.92 9.74
7/5/2021 7:00:00 PM 21.11 69.998 0.376 8.1 4.9 9.61
7/5/2021 7:15:00 PM 21.08 69.944 0.377 8.08 4.94 9.49
7/5/2021 7:30:00 PM 21.05 69.89 0.378 8.06 5.21 9.37
7/5/2021 7:45:00 PM 21.01 69.818 0.378 8.04 5.23 9.24
7/5/2021 8:00:00 PM 20.96 69.728 0.379 8.02 5.11 9.1
7/5/2021 8:15:00 PM 20.92 69.656 0.38 7.99 5.29 8.98
7/5/2021 8:30:00 PM 20.88 69.584 0.38 7.97 5.32 8.86
7/5/2021 8:45:00 PM 20.83 69.494 0.381 7.94 5.72 8.74
7/5/2021 9:00:00 PM 20.78 69.404 0.381 7.92 5.95 8.63
7/5/2021 9:15:00 PM 20.73 69.314 0.382 7.9 6.72 8.51
7/5/2021 9:30:00 PM 20.68 69.224 0.382 7.87 8.04 8.4
7/5/2021 9:45:00 PM 20.63 69.134 0.383 7.86 7.26 8.31
7/5/2021 10:00:00 PM 20.58 69.044 0.384 7.83 7.41 8.23
7/5/2021 10:15:00 PM 20.53 68.954 0.385 7.82 7.21 8.14
7/5/2021 10:30:00 PM 20.49 68.882 0.385 7.8 7.07 8.05
7/5/2021 10:45:00 PM 20.45 68.81 0.386 7.78 7.17 7.98
7/5/2021 11:00:00 PM 20.41 68.738 0.387 7.77 6.94 7.92
7/5/2021 11:15:00 PM 20.37 68.666 0.387 7.76 7.05 7.86
7/5/2021 11:30:00 PM 20.35 68.63 0.388 7.74 7.12 7.8
7/5/2021 11:45:00 PM 20.32 68.576 0.388 7.73 7.15 7.75
7/6/2021 12:00:00 AM 20.29 68.522 0.389 7.72 8.03 7.69
7/6/2021 12:15:00 AM 20.27 68.486 0.39 7.71 7.96 7.66
7/6/2021 12:30:00 AM 20.25 68.45 0.39 7.7 7.79 7.6
7/6/2021 12:45:00 AM 20.22 68.396 0.391 7.69 6.87 7.57
7/6/2021 1:00:00 AM 20.21 68.378 0.392 7.68 7.23 7.53
7/6/2021 1:15:00 AM 20.19 68.342 0.392 7.67 7.21 7.5
7/6/2021 1:30:00 AM 20.18 68.324 0.393 7.66 8.2 7.46
7/6/2021 1:45:00 AM 20.16 68.288 0.393 7.66 7.67 7.43
7/6/2021 2:00:00 AM 20.14 68.252 0.394 7.65 7.18 7.4
7/6/2021 2:15:00 AM 20.11 68.198 0.395 7.64 7.06 7.39
7/6/2021 2:30:00 AM 20.09 68.162 0.396 7.64 6.87 7.37
7/6/2021 2:45:00 AM 20.07 68.126 0.396 7.63 7.55 7.35
7/6/2021 3:00:00 AM 20.04 68.07201 0.397 7.63 8.09 7.35
7/6/2021 3:15:00 AM 20.02 68.036 0.398 7.62 7.69 7.33
7/6/2021 3:30:00 AM 19.99 67.982 0.398 7.62 7.44 7.32
7/6/2021 3:45:00 AM 19.95 67.91 0.399 7.61 8.2 7.32
7/6/2021 4:00:00 AM 19.91 67.838 0.4 7.61 8.29 7.32
7/6/2021 4:15:00 AM 19.87 67.766 0.401 7.6 8.32 7.31
7/6/2021 4:30:00 AM 19.83 67.694 0.402 7.6 9.02 7.32
7/6/2021 4:45:00 AM 19.78 67.604 0.402 7.6 8.64 7.31
7/6/2021 5:00:00 AM 19.73 67.514 0.403 7.6 8.11 7.33
7/6/2021 5:15:00 AM 19.69 67.442 0.404 7.59 8.14 7.32
7/6/2021 5:30:00 AM 19.64 67.352 0.405 7.59 8.48 7.32
7/6/2021 5:45:00 AM 19.6 67.28 0.406 7.59 8.04 7.32
7/6/2021 6:00:00 AM 19.57 67.226 0.407 7.59 7.92 7.34
7/6/2021 6:15:00 AM 19.53 67.154 0.408 7.59 8.29 7.34
7/6/2021 6:30:00 AM 19.49 67.082 0.409 7.59 8.63 7.37
7/6/2021 6:45:00 AM 19.46 67.028 0.41 7.59 7.38 7.38
7/6/2021 7:00:00 AM 19.43 66.974 0.411 7.59 7.95 7.4
7/6/2021 7:15:00 AM 19.4 66.92 0.412 7.59 7.43 7.43
7/6/2021 7:30:00 AM 19.38 66.884 0.413 7.6 7.44 7.47
7/6/2021 7:45:00 AM 19.36 66.848 0.414 7.6 7.54 7.52
7/6/2021 8:00:00 AM 19.34 66.812 0.415 7.6 7.34 7.56
7/6/2021 8:15:00 AM 19.32 66.776 0.416 7.61 7.2 7.62
7/6/2021 8:30:00 AM 19.32 66.776 0.417 7.62 7.38 7.67
7/6/2021 8:45:00 AM 19.32 66.776 0.418 7.62 7.2 7.74
7/6/2021 9:00:00 AM 19.33 66.794 0.419 7.63 7.2 7.81
7/6/2021 9:15:00 AM 19.36 66.848 0.42 7.64 7.16 7.9
7/6/2021 9:30:00 AM 19.39 66.902 0.421 7.65 6.62 8.02
7/6/2021 9:45:00 AM 19.44 66.992 0.422 7.67 6.48 8.13
7/6/2021 10:00:00 AM 19.5 67.1 0.423 7.68 6.6 8.25
7/6/2021 10:15:00 AM 19.57 67.226 0.424 7.7 6.42 8.38
7/6/2021 10:30:00 AM 19.67 67.406 0.425 7.72 6.3 8.54
7/6/2021 10:45:00 AM 19.79 67.622 0.426 7.75 5.71 8.7
7/6/2021 11:00:00 AM 19.9 67.82 0.427 7.77 5.65 8.85
7/6/2021 11:15:00 AM 20.01 68.018 0.428 7.79 5.64 9
7/6/2021 11:30:00 AM 20.17 68.306 0.428 7.81 5.68 9.15
7/6/2021 11:45:00 AM 20.28 68.504 0.429 7.84 5.59 9.28
7/6/2021 12:00:00 PM 20.45 68.81 0.43 7.86 5.1 9.44
7/6/2021 12:15:00 PM 20.64 69.152 0.43 7.89 4.94 9.6
7/6/2021 12:30:00 PM 20.87 69.566 0.431 7.92 4.8 9.76
7/6/2021 12:45:00 PM 21.11 69.998 0.432 7.95 5.04 9.93
7/6/2021 1:00:00 PM 21.35 70.43 0.432 7.98 5.11 10.08
7/6/2021 1:15:00 PM 21.48 70.664 0.433 8.01 4.72 10.15
7/6/2021 1:30:00 PM 21.7 71.06 0.434 8.03 4.65 10.28
7/6/2021 1:45:00 PM 21.84 71.312 0.434 8.06 4.61 10.35
7/6/2021 2:00:00 PM 22.06 71.708 0.435 8.08 4.76 10.49
7/6/2021 2:15:00 PM 21.94 71.492 0.434 8.07 4.7 10.2
7/6/2021 2:30:00 PM 21.95 71.51 0.435 8.08 4.84 10.2
7/6/2021 2:45:00 PM 21.96 71.528 0.435 8.1 5.08 10.24
7/6/2021 3:00:00 PM 21.98 71.564 0.436 8.11 4.9 10.25
7/6/2021 3:15:00 PM 22.02 71.636 0.436 8.12 5.08 10.24
7/6/2021 3:30:00 PM 22.05 71.69 0.437 8.13 4.75 10.22
7/6/2021 3:45:00 PM 22.09 71.762 0.437 8.14 4.82 10.2
7/6/2021 4:00:00 PM 22.22 71.996 0.437 8.16 4.77 10.26
7/6/2021 4:15:00 PM 22.36 72.248 0.438 8.17 5.4 10.26
7/6/2021 4:30:00 PM 22.44 72.392 0.438 8.17 5.32 10.23
7/6/2021 4:45:00 PM 22.5 72.5 0.438 8.17 5.29 10.15
7/6/2021 5:00:00 PM 22.51 72.518 0.439 8.17 5.2 10.09
7/6/2021 5:15:00 PM 22.47 72.446 0.439 8.15 5.31 9.9
7/6/2021 5:30:00 PM 22.46 72.42799 0.437 8.15 5.77 9.75
7/6/2021 5:45:00 PM 22.43 72.374 0.433 8.14 8.99 9.54
7/6/2021 6:00:00 PM 22.45 72.41 0.434 8.13 11.24 9.48
7/6/2021 6:15:00 PM 22.53 72.554 0.435 8.14 10.58 9.52
7/6/2021 6:30:00 PM 22.56 72.608 0.435 8.14 10.77 9.43
7/6/2021 6:45:00 PM 22.55 72.59 0.435 8.12 11.4 9.27
7/6/2021 7:00:00 PM 22.51 72.518 0.435 8.1 10.82 9.08
7/6/2021 7:15:00 PM 22.48 72.464 0.435 8.07 11.13 8.93
7/6/2021 7:30:00 PM 22.45 72.41 0.436 8.05 13.17 8.82
7/6/2021 7:45:00 PM 22.41 72.338 0.435 8.02 13.63 8.65
7/6/2021 8:00:00 PM 22.36 72.248 0.434 7.99 13.55 8.51
7/6/2021 8:15:00 PM 22.28 72.104 0.433 7.96 13.74 8.35
7/6/2021 8:30:00 PM 22.21 71.978 0.433 7.93 15.02 8.18
7/6/2021 8:45:00 PM 22.14 71.852 0.434 7.9 15.94 8.08
7/6/2021 9:00:00 PM 22.07 71.726 0.434 7.88 12.64 8
7/6/2021 9:15:00 PM 22 71.6 0.435 7.87 16.5 7.92
7/6/2021 9:30:00 PM 21.94 71.492 0.437 7.85 18.96 7.78
7/6/2021 9:45:00 PM 21.87 71.366 0.437 7.84 15.73 7.78
7/6/2021 10:00:00 PM 21.8 71.24 0.438 7.81 14.45 7.68
7/6/2021 10:15:00 PM 21.73 71.114 0.439 7.79 13.87 7.61
7/6/2021 10:30:00 PM 21.66 70.988 0.44 7.78 13.64 7.52
7/6/2021 10:45:00 PM 21.58 70.844 0.441 7.76 11.98 7.45
7/6/2021 11:00:00 PM 21.52 70.736 0.443 7.75 12.53 7.37
7/6/2021 11:15:00 PM 21.44 70.592 0.445 7.74 10.76 7.34
7/6/2021 11:30:00 PM 21.37 70.466 0.447 7.73 10.56 7.29
7/6/2021 11:45:00 PM 21.29 70.32201 0.448 7.72 10.54 7.25
7/7/2021 12:00:00 AM 21.22 70.196 0.45 7.71 10.44 7.22
7/7/2021 12:15:00 AM 21.15 70.07 0.451 7.7 9.54 7.17
7/7/2021 12:30:00 AM 21.07 69.926 0.453 7.69 8.67 7.14
7/7/2021 12:45:00 AM 21 69.8 0.454 7.68 9.07 7.12
7/7/2021 1:00:00 AM 20.93 69.674 0.455 7.68 8.37 7.1
7/7/2021 1:15:00 AM 20.86 69.548 0.455 7.67 8.21 7.09
7/7/2021 1:30:00 AM 20.79 69.422 0.455 7.66 8.11 7.06
7/7/2021 1:45:00 AM 20.73 69.314 0.456 7.66 8.41 7.03
7/7/2021 2:00:00 AM 20.66 69.188 0.457 7.65 7.48 7.01
7/7/2021 2:15:00 AM 20.6 69.08 0.457 7.64 7.58 7.02
7/7/2021 2:30:00 AM 20.53 68.954 0.457 7.64 7.87 7
7/7/2021 2:45:00 AM 20.47 68.846 0.458 7.62 7.66 6.97
7/7/2021 3:00:00 AM 20.41 68.738 0.458 7.62 7.69 6.95
7/7/2021 3:15:00 AM 20.35 68.63 0.459 7.61 7.55 6.94
7/7/2021 3:30:00 AM 20.3 68.54 0.459 7.6 8.17 6.94
7/7/2021 3:45:00 AM 20.25 68.45 0.46 7.6 7.44 6.91
7/7/2021 4:00:00 AM 20.2 68.36 0.46 7.59 7.31 6.9
7/7/2021 4:15:00 AM 20.15 68.27 0.461 7.59 7.37 6.91
7/7/2021 4:30:00 AM 20.1 68.18 0.461 7.59 8.07 6.92
7/7/2021 4:45:00 AM 20.05 68.09 0.462 7.58 7.9 6.92
7/7/2021 5:00:00 AM 20.01 68.018 0.463 7.58 8.26 6.93
7/7/2021 5:15:00 AM 19.96 67.92799 0.464 7.58 8.28 6.94
7/7/2021 5:30:00 AM 19.92 67.856 0.465 7.58 8.15 6.94
7/7/2021 5:45:00 AM 19.88 67.784 0.466 7.58 7.67 6.95
7/7/2021 6:00:00 AM 19.84 67.712 0.467 7.58 8.53 6.97
7/7/2021 6:15:00 AM 19.81 67.658 0.468 7.58 8 6.99
7/7/2021 6:30:00 AM 19.78 67.604 0.469 7.58 8.1 7
7/7/2021 6:45:00 AM 19.76 67.568 0.47 7.58 7.44 7.04
7/7/2021 7:00:00 AM 19.72 67.496 0.471 7.57 7.79 7.02
7/7/2021 7:15:00 AM 19.69 67.442 0.472 7.58 7.58 7.07
7/7/2021 7:30:00 AM 19.67 67.406 0.473 7.58 6.97 7.13
7/7/2021 7:45:00 AM 19.65 67.37 0.474 7.59 6.9 7.18
7/7/2021 8:00:00 AM 19.62 67.316 0.475 7.59 7.4 7.21
7/7/2021 8:15:00 AM 19.6 67.28 0.475 7.6 7.02 7.28
7/7/2021 8:30:00 AM 19.59 67.262 0.476 7.61 6.91 7.35
7/7/2021 8:45:00 AM 19.58 67.244 0.477 7.61 6.67 7.43
7/7/2021 9:00:00 AM 19.57 67.226 0.478 7.62 6.98 7.49
7/7/2021 9:15:00 AM 19.58 67.244 0.48 7.63 6.66 7.6
7/7/2021 9:30:00 AM 19.63 67.334 0.481 7.64 6.81 7.75
7/7/2021 9:45:00 AM 19.66 67.388 0.482 7.65 8.47 7.85
7/7/2021 10:00:00 AM 19.71 67.478 0.483 7.66 16.99 7.96
7/7/2021 10:15:00 AM 19.8 67.64 0.484 7.69 6.45 8.14
7/7/2021 10:30:00 AM 19.89 67.802 0.485 7.7 6.48 8.31
7/7/2021 10:45:00 AM 19.99 67.982 0.486 7.72 6.05 8.42
7/7/2021 11:00:00 AM 20.13 68.234 0.487 7.74 5.92 8.64
7/7/2021 11:15:00 AM 20.28 68.504 0.487 7.76 5.27 8.82
7/7/2021 11:30:00 AM 20.43 68.774 0.488 7.78 5.68 8.97
7/7/2021 11:45:00 AM 20.61 69.098 0.488 7.81 5.38 9.23
7/7/2021 12:00:00 PM 20.7 69.26 0.488 7.83 5.64 9.35
7/7/2021 12:15:00 PM 20.88 69.584 0.488 7.86 5.67 9.52
7/7/2021 12:30:00 PM 21.08 69.944 0.488 7.89 4.97 9.75
7/7/2021 12:45:00 PM 21.31 70.358 0.489 7.92 4.71 9.94
7/7/2021 1:00:00 PM 21.43 70.574 0.489 7.94 4.92 10.02
7/7/2021 1:15:00 PM 21.67 71.006 0.489 7.97 4.81 10.21
7/7/2021 1:30:00 PM 21.86 71.348 0.489 8 5.8 10.37
7/7/2021 1:45:00 PM 22.11 71.798 0.489 8.03 4.88 10.52
7/7/2021 2:00:00 PM 22.3 72.14 0.49 8.05 4.51 10.61
7/7/2021 2:15:00 PM 22.52 72.536 0.49 8.07 4.76 10.79
7/7/2021 2:30:00 PM 22.72 72.896 0.49 8.11 4.42 10.92
7/7/2021 2:45:00 PM 22.81 73.058 0.49 8.13 4.24 10.93
7/7/2021 3:00:00 PM 22.97 73.346 0.49 8.15 3.95 11.04
7/7/2021 3:15:00 PM 23.05 73.49 0.491 8.16 4.01 11.05
7/7/2021 3:30:00 PM 23.09 73.562 0.491 8.18 3.74 11.06
7/7/2021 3:45:00 PM 23.28 73.904 0.491 8.19 4.2 11.14
7/7/2021 4:00:00 PM 23.34 74.012 0.492 8.21 4.11 11.14
7/7/2021 4:15:00 PM 23.46 74.228 0.492 8.23 4.14 11.15
7/7/2021 4:30:00 PM 23.57 74.426 0.492 8.24 4.1 11.12
7/7/2021 4:45:00 PM 23.66 74.588 0.493 8.25 4.1 11.1
7/7/2021 5:00:00 PM 23.72 74.696 0.493 8.25 3.92 11.03
7/7/2021 5:15:00 PM 23.8 74.84 0.494 8.26 4.23 10.96
7/7/2021 5:30:00 PM 23.85 74.93 0.494 8.26 4.14 10.89
7/7/2021 5:45:00 PM 23.91 75.038 0.495 8.27 3.92 10.83
7/7/2021 6:00:00 PM 23.88 74.984 0.496 8.25 3.72 10.65
7/7/2021 6:15:00 PM 23.89 75.002 0.496 8.26 3.93 10.57
7/7/2021 6:30:00 PM 23.88 74.984 0.496 8.25 3.87 10.41
7/7/2021 6:45:00 PM 23.84 74.912 0.497 8.23 3.9 10.21
7/7/2021 7:00:00 PM 23.8 74.84 0.498 8.21 3.83 10.01
7/7/2021 7:15:00 PM 23.77 74.786 0.498 8.21 4.07 9.89
7/7/2021 7:30:00 PM 23.72 74.696 0.499 8.19 5.53 9.69
7/7/2021 7:45:00 PM 23.67 74.606 0.499 8.18 4.56 9.56
7/7/2021 8:00:00 PM 23.61 74.498 0.5 8.16 4.21 9.41
7/7/2021 8:15:00 PM 23.53 74.354 0.5 8.15 4.16 9.22
7/7/2021 8:30:00 PM 23.43 74.174 0.5 8.13 4.33 9.05
7/7/2021 8:45:00 PM 23.31 73.958 0.498 8.11 5.03 8.85
7/7/2021 9:00:00 PM 23.03 73.454 0.487 8.09 29.61 8.66
7/7/2021 9:15:00 PM 22.92 73.256 0.49 8.04 22.79 8.47
7/7/2021 9:30:00 PM 22.81 73.058 0.491 8.03 14.53 8.34
7/7/2021 9:45:00 PM 22.71 72.878 0.492 8.01 15.24 8.2
7/7/2021 10:00:00 PM 22.6 72.68 0.491 7.99 16.26 8.05
7/7/2021 10:15:00 PM 22.47 72.446 0.488 7.97 15.82 7.94
7/7/2021 10:30:00 PM 22.36 72.248 0.484 7.95 15.59 7.8
7/7/2021 10:45:00 PM 22.27 72.086 0.482 7.93 15.81 7.7
7/7/2021 11:00:00 PM 22.17 71.906 0.48 7.9 26.37 7.6
7/7/2021 11:15:00 PM 22.04 71.672 0.476 7.88 18.91 7.53
7/7/2021 11:30:00 PM 21.9 71.42 0.472 7.86 24.25 7.44
7/7/2021 11:45:00 PM 21.77 71.186 0.466 7.84 34.82 7.39
7/8/2021 12:00:00 AM 21.61 70.898 0.454 7.8 40.29 7.34
7/8/2021 12:15:00 AM 21.41 70.538 0.443 7.75 48.75 7.31
7/8/2021 12:30:00 AM 21.22 70.196 0.439 7.71 39.86 7.29
7/8/2021 12:45:00 AM 21.07 69.926 0.436 7.67 35.07 7.29
7/8/2021 1:00:00 AM 20.96 69.728 0.432 7.64 42.26 7.31
7/8/2021 1:15:00 AM 20.89 69.602 0.426 7.63 42.37 7.36
7/8/2021 1:30:00 AM 20.82 69.476 0.418 7.62 54.59 7.4
7/8/2021 1:45:00 AM 20.72 69.296 0.399 7.61 91.49 7.41
7/8/2021 2:00:00 AM 20.6 69.08 0.374 7.57 132.43 7.39
7/8/2021 2:15:00 AM 20.48 68.864 0.353 7.54 169.55 7.37
7/8/2021 2:30:00 AM 20.37 68.666 0.336 7.51 121.95 7.37
7/8/2021 2:45:00 AM 20.29 68.522 0.314 7.48 131.29 7.37
7/8/2021 3:00:00 AM 20.27 68.486 0.304 7.46 122.6 7.37
7/8/2021 3:15:00 AM 20.27 68.486 0.297 7.45 98.82 7.37
7/8/2021 3:30:00 AM 20.29 68.522 0.262 7.42 91.3 7.36
7/8/2021 3:45:00 AM 20.38 68.684 0.229 7.39 106.36 7.45
7/8/2021 4:00:00 AM 20.55 68.99 0.236 7.4 163.8 7.49
7/8/2021 4:15:00 AM 20.51 68.918 0.272 7.42 125.07 7.4
7/8/2021 4:30:00 AM 20.42 68.756 0.269 7.41 109.45 7.35
7/8/2021 4:45:00 AM 20.41 68.738 0.241 7.38 72.12 7.46
7/8/2021 5:00:00 AM 20.2 68.36 0.216 7.35 136.59 7.65
7/8/2021 5:15:00 AM 19.89 67.802 0.198 7.32 132.12 7.81
7/8/2021 5:30:00 AM 19.68 67.424 0.189 7.3 170.85 7.89
7/8/2021 5:45:00 AM 19.56 67.208 0.186 7.28 159.27 7.92
7/8/2021 6:00:00 AM 19.49 67.082 0.185 7.27 159.51 7.92
7/8/2021 6:15:00 AM 19.45 67.01 0.184 7.26 172.61 7.92
7/8/2021 6:30:00 AM 19.42 66.956 0.183 7.25 235.38 7.9
7/8/2021 6:45:00 AM 19.38 66.884 0.183 7.25 187.92 7.9
7/8/2021 7:00:00 AM 19.36 66.848 0.182 7.24 173.04 7.9
7/8/2021 7:15:00 AM 19.34 66.812 0.182 7.24 129.81 7.89
7/8/2021 7:30:00 AM 19.33 66.794 0.182 7.24 125.05 7.9
7/8/2021 7:45:00 AM 19.32 66.776 0.183 7.25 111.49 7.9
7/8/2021 8:00:00 AM 19.31 66.758 0.184 7.25 127.63 7.91
7/8/2021 8:15:00 AM 19.3 66.74 0.186 7.25 106.53 7.91
7/8/2021 8:30:00 AM 19.29 66.722 0.187 7.25 118.04 7.92
7/8/2021 8:45:00 AM 19.29 66.722 0.189 7.26 85.54 7.93
7/8/2021 9:00:00 AM 19.29 66.722 0.191 7.26 56.69 7.93
7/8/2021 9:15:00 AM 19.29 66.722 0.193 7.27 80.58 7.95
7/8/2021 9:30:00 AM 19.29 66.722 0.195 7.27 55.43 7.96
7/8/2021 9:45:00 AM 19.3 66.74 0.198 7.29 50.63 7.97
7/8/2021 10:00:00 AM 19.31 66.758 0.2 7.29 52.46 7.98
7/8/2021 10:15:00 AM 19.32 66.776 0.203 7.3 63.67 8
7/8/2021 10:30:00 AM 19.34 66.812 0.205 7.31 58.85 8.02
7/8/2021 10:45:00 AM 19.37 66.866 0.208 7.33 57.86 8.04
7/8/2021 11:00:00 AM 19.4 66.92 0.211 7.35 40.29 8.07
7/8/2021 11:15:00 AM 19.44 66.992 0.215 7.35 55.52 8.1
7/8/2021 11:30:00 AM 19.49 67.082 0.218 7.37 44.72 8.14
7/8/2021 11:45:00 AM 19.56 67.208 0.222 7.38 45.73 8.19
7/8/2021 12:00:00 PM 19.61 67.298 0.226 7.4 42.37 8.25
7/8/2021 12:15:00 PM 19.66 67.388 0.23 7.42 36.05 8.3
7/8/2021 12:30:00 PM 19.71 67.478 0.233 7.44 32.73 8.36
7/8/2021 12:45:00 PM 19.74 67.532 0.237 7.46 30.28 8.41
7/8/2021 1:00:00 PM 19.82 67.676 0.241 7.48 30.28 8.49
7/8/2021 1:15:00 PM 19.99 67.982 0.245 7.51 26.43 8.61
7/8/2021 1:30:00 PM 20.11 68.198 0.248 7.54 22.42 8.68
7/8/2021 1:45:00 PM 20.2 68.36 0.252 7.56 22.15 8.74
7/8/2021 2:00:00 PM 20.24 68.432 0.255 7.58 24.08 8.77
7/8/2021 2:15:00 PM 20.27 68.486 0.258 7.6 22.56 8.82
7/8/2021 2:30:00 PM 20.31 68.558 0.261 7.62 22.56 8.9
7/8/2021 2:45:00 PM 20.35 68.63 0.264 7.64 24.6 8.94
7/8/2021 3:00:00 PM 20.36 68.648 0.267 7.65 20.57 8.94
7/8/2021 3:15:00 PM 20.4 68.72 0.269 7.67 20.06 8.96
7/8/2021 3:30:00 PM 20.41 68.738 0.272 7.68 20.23 8.94
7/8/2021 3:45:00 PM 20.42 68.756 0.274 7.68 19.79 8.93
7/8/2021 4:00:00 PM 20.44 68.792 0.276 7.7 18.33 8.95
7/8/2021 4:15:00 PM 20.46 68.828 0.278 7.71 18.12 8.96
7/8/2021 4:30:00 PM 20.49 68.882 0.28 7.73 17.49 8.99
7/8/2021 4:45:00 PM 20.5 68.9 0.282 7.74 16.83 8.99
7/8/2021 5:00:00 PM 20.52 68.936 0.284 7.75 16.59 9.03
7/8/2021 5:15:00 PM 20.54 68.972 0.285 7.76 16.09 9.03
7/8/2021 5:30:00 PM 20.56 69.008 0.287 7.77 16.02 9.03
7/8/2021 5:45:00 PM 20.55 68.99 0.289 7.77 15.71 8.99
7/8/2021 6:00:00 PM 20.55 68.99 0.29 7.77 15.31 8.96
7/8/2021 6:15:00 PM 20.56 69.008 0.292 7.77 15.01 8.93
7/8/2021 6:30:00 PM 20.54 68.972 0.293 7.76 14.59 8.88
7/8/2021 6:45:00 PM 20.53 68.954 0.295 7.75 14.42 8.83
7/8/2021 7:00:00 PM 20.51 68.918 0.296 7.75 14.35 8.78
7/8/2021 7:15:00 PM 20.49 68.882 0.297 7.74 14.68 8.72
7/8/2021 7:30:00 PM 20.47 68.846 0.298 7.74 13.9 8.67
7/8/2021 7:45:00 PM 20.46 68.828 0.299 7.73 14.26 8.6
7/8/2021 8:00:00 PM 20.44 68.792 0.3 7.72 13.76 8.55
7/8/2021 8:15:00 PM 20.42 68.756 0.301 7.71 13.97 8.48
7/8/2021 8:30:00 PM 20.39 68.702 0.303 7.7 13.81 8.42
7/8/2021 8:45:00 PM 20.36 68.648 0.304 7.69 13.69 8.36
7/8/2021 9:00:00 PM 20.33 68.594 0.305 7.68 13.89 8.31
7/8/2021 9:15:00 PM 20.3 68.54 0.306 7.67 14.53 8.25
7/8/2021 9:30:00 PM 20.27 68.486 0.307 7.66 14.04 8.18
7/8/2021 9:45:00 PM 20.24 68.432 0.309 7.64 14.27 8.12
7/8/2021 10:00:00 PM 20.2 68.36 0.31 7.64 13.49 8.07
7/8/2021 10:15:00 PM 20.17 68.306 0.311 7.62 13.87 8.01
7/8/2021 10:30:00 PM 20.13 68.234 0.312 7.61 13.3 7.96
7/8/2021 10:45:00 PM 20.1 68.18 0.313 7.6 13.4 7.92
7/8/2021 11:00:00 PM 20.07 68.126 0.315 7.6 13.11 7.88
7/8/2021 11:15:00 PM 20.04 68.07201 0.316 7.59 13 7.85
7/8/2021 11:30:00 PM 20.01 68.018 0.317 7.58 12.51 7.82
7/8/2021 11:45:00 PM 19.98 67.964 0.318 7.57 12.95 7.8
7/9/2021 12:00:00 AM 19.96 67.92799 0.319 7.57 13.02 7.77
7/9/2021 12:15:00 AM 19.93 67.874 0.32 7.56 12.71 7.76
7/9/2021 12:30:00 AM 19.91 67.838 0.321 7.56 13.85 7.73
7/9/2021 12:45:00 AM 19.88 67.784 0.322 7.55 14.74 7.72
7/9/2021 1:00:00 AM 19.85 67.73 0.323 7.55 12.55 7.71
7/9/2021 1:15:00 AM 19.81 67.658 0.325 7.55 12.18 7.69
7/9/2021 1:30:00 AM 19.77 67.586 0.326 7.54 12.79 7.69
7/9/2021 1:45:00 AM 19.74 67.532 0.327 7.54 12.08 7.67
7/9/2021 2:00:00 AM 19.7 67.46 0.328 7.54 12.39 7.67
7/9/2021 2:15:00 AM 19.66 67.388 0.33 7.54 12.39 7.67
7/9/2021 2:30:00 AM 19.61 67.298 0.331 7.54 12.18 7.67
7/9/2021 2:45:00 AM 19.57 67.226 0.333 7.54 11.92 7.67
7/9/2021 3:00:00 AM 19.52 67.136 0.335 7.53 12.17 7.66
7/9/2021 3:15:00 AM 19.48 67.064 0.338 7.53 11.47 7.66
7/9/2021 3:30:00 AM 19.44 66.992 0.34 7.53 12.18 7.66
7/9/2021 3:45:00 AM 19.39 66.902 0.342 7.53 11.85 7.66
7/9/2021 4:00:00 AM 19.35 66.83 0.343 7.53 11.16 7.66
7/9/2021 4:15:00 AM 19.31 66.758 0.343 7.53 11.57 7.67
7/9/2021 4:30:00 AM 19.27 66.686 0.343 7.53 11.48 7.68
7/9/2021 4:45:00 AM 19.23 66.614 0.343 7.53 11.98 7.68
7/9/2021 5:00:00 AM 19.18 66.524 0.343 7.53 12.24 7.69
7/9/2021 5:15:00 AM 19.15 66.47 0.343 7.53 12.43 7.7
7/9/2021 5:30:00 AM 19.1 66.38 0.344 7.53 12.32 7.71
7/9/2021 5:45:00 AM 19.06 66.308 0.345 7.54 11.98 7.72
7/9/2021 6:00:00 AM 19.01 66.218 0.345 7.54 12.97 7.74
7/9/2021 6:15:00 AM 18.97 66.146 0.346 7.54 14.12 7.76
7/9/2021 6:30:00 AM 18.92 66.056 0.347 7.55 13.54 7.8
7/9/2021 6:45:00 AM 18.88 65.984 0.348 7.56 13.55 7.84
7/9/2021 7:00:00 AM 18.84 65.912 0.35 7.56 14.11 7.88
7/9/2021 7:15:00 AM 18.8 65.84 0.351 7.57 13.31 7.92
7/9/2021 7:30:00 AM 18.76 65.768 0.352 7.58 13.27 7.98
7/9/2021 7:45:00 AM 18.73 65.714 0.353 7.59 12.97 8.05
7/9/2021 8:00:00 AM 18.7 65.66 0.354 7.6 12.28 8.11
7/9/2021 8:15:00 AM 18.67 65.606 0.355 7.6 11.68 8.18
7/9/2021 8:30:00 AM 18.66 65.588 0.355 7.62 11.02 8.26
7/9/2021 8:45:00 AM 18.64 65.552 0.355 7.63 10.15 8.33
7/9/2021 9:00:00 AM 18.64 65.552 0.353 7.64 9.85 8.42
7/9/2021 9:15:00 AM 18.65 65.57 0.351 7.65 10.23 8.52
7/9/2021 9:30:00 AM 18.64 65.552 0.346 7.66 9.57 8.57
7/9/2021 9:45:00 AM 18.7 65.66 0.339 7.67 9.35 8.69
7/9/2021 10:00:00 AM 18.78 65.804 0.33 7.69 9.03 8.8
7/9/2021 10:15:00 AM 18.87 65.966 0.319 7.7 9.19 8.88
7/9/2021 10:30:00 AM 19 66.2 0.308 7.72 8.61 8.99
7/9/2021 10:45:00 AM 19.15 66.47 0.299 7.74 8.33 9.11
7/9/2021 11:00:00 AM 19.29 66.722 0.292 7.75 8.18 9.2
7/9/2021 11:15:00 AM 19.42 66.956 0.289 7.77 8.21 9.31
7/9/2021 11:30:00 AM 19.48 67.064 0.288 7.8 8.71 9.41
7/9/2021 11:45:00 AM 19.56 67.208 0.288 7.83 7.7 9.51
7/9/2021 12:00:00 PM 19.71 67.478 0.29 7.87 7.73 9.64
7/9/2021 12:15:00 PM 19.85 67.73 0.292 7.9 7.71 9.75
7/9/2021 12:30:00 PM 19.87 67.766 0.294 7.92 7.13 9.81
7/9/2021 12:45:00 PM 19.96 67.92799 0.296 7.96 6.99 9.93
7/9/2021 1:00:00 PM 20.14 68.252 0.298 8 7.06 10.04
7/9/2021 1:15:00 PM 20.12 68.216 0.3 8.01 7.03 10.03
7/9/2021 1:30:00 PM 20.24 68.432 0.302 8.04 6.97 10.12
7/9/2021 1:45:00 PM 20.23 68.414 0.304 8.05 6.63 10.11
7/9/2021 2:00:00 PM 20.28 68.504 0.306 8.07 6.77 10.12
7/9/2021 2:15:00 PM 20.46 68.828 0.307 8.1 6.88 10.21
7/9/2021 2:30:00 PM 20.39 68.702 0.308 8.07 7.17 10.03
7/9/2021 2:45:00 PM 20.35 68.63 0.31 8.07 7.16 10
7/9/2021 3:00:00 PM 20.41 68.738 0.312 8.09 6.75 10.02
7/9/2021 3:15:00 PM 20.46 68.828 0.313 8.11 6.75 10.03
7/9/2021 3:30:00 PM 20.49 68.882 0.315 8.11 6.73 9.98
7/9/2021 3:45:00 PM 20.54 68.972 0.316 8.12 6.72 10
7/9/2021 4:00:00 PM 20.6 69.08 0.318 8.12 6.92 9.96
7/9/2021 4:15:00 PM 20.65 69.17 0.319 8.11 6.76 9.92
7/9/2021 4:30:00 PM 20.66 69.188 0.32 8.11 6.78 9.88
7/9/2021 4:45:00 PM 20.67 69.206 0.322 8.12 7.44 9.88
7/9/2021 5:00:00 PM 20.67 69.206 0.323 8.11 7.08 9.85
7/9/2021 5:15:00 PM 20.7 69.26 0.324 8.12 7.02 9.82
7/9/2021 5:30:00 PM 20.74 69.332 0.325 8.12 7.07 9.8
7/9/2021 5:45:00 PM 20.75 69.35 0.327 8.1 7.07 9.71
7/9/2021 6:00:00 PM 20.77 69.386 0.328 8.09 6.95 9.63
7/9/2021 6:15:00 PM 20.77 69.386 0.329 8.07 7.46 9.52
7/9/2021 6:30:00 PM 20.74 69.332 0.33 8.04 7.41 9.4
7/9/2021 6:45:00 PM 20.69 69.242 0.33 8.02 7.39 9.28
7/9/2021 7:00:00 PM 20.64 69.152 0.331 8 7.75 9.2
7/9/2021 7:15:00 PM 20.6 69.08 0.332 7.98 7.97 9.1
7/9/2021 7:30:00 PM 20.57 69.026 0.332 7.96 8.13 9.02
7/9/2021 7:45:00 PM 20.54 68.972 0.333 7.94 8.44 8.92
7/9/2021 8:00:00 PM 20.5 68.9 0.334 7.92 8.64 8.83
7/9/2021 8:15:00 PM 20.45 68.81 0.335 7.9 9.03 8.73
7/9/2021 8:30:00 PM 20.41 68.738 0.336 7.88 9.03 8.64
7/9/2021 8:45:00 PM 20.38 68.684 0.336 7.86 8.88 8.55
7/9/2021 9:00:00 PM 20.35 68.63 0.336 7.83 9.51 8.46
7/9/2021 9:15:00 PM 20.33 68.594 0.335 7.8 9.99 8.37
7/9/2021 9:30:00 PM 20.32 68.576 0.334 7.77 10.28 8.28
7/9/2021 9:45:00 PM 20.34 68.612 0.328 7.74 10.49 8.21
7/9/2021 10:00:00 PM 20.4 68.72 0.315 7.71 11.09 8.13
7/9/2021 10:15:00 PM 20.47 68.846 0.302 7.69 11.57 8.06
7/9/2021 10:30:00 PM 20.53 68.954 0.296 7.66 11.29 8
7/9/2021 10:45:00 PM 20.56 69.008 0.296 7.65 11.53 7.95
7/9/2021 11:00:00 PM 20.56 69.008 0.298 7.63 11.51 7.89
7/9/2021 11:15:00 PM 20.56 69.008 0.298 7.61 12.68 7.83
7/9/2021 11:30:00 PM 20.56 69.008 0.296 7.59 12.34 7.77
7/9/2021 11:45:00 PM 20.56 69.008 0.293 7.57 12.4 7.71
7/10/2021 12:00:00 AM 20.55 68.99 0.289 7.56 12.46 7.66
7/10/2021 12:15:00 AM 20.53 68.954 0.285 7.54 12.9 7.65
7/10/2021 12:30:00 AM 20.51 68.918 0.28 7.53 12.96 7.65
7/10/2021 12:45:00 AM 20.49 68.882 0.274 7.52 13.39 7.64
7/10/2021 1:00:00 AM 20.48 68.864 0.268 7.5 13.07 7.63
7/10/2021 1:15:00 AM 20.47 68.846 0.263 7.49 13.76 7.61
7/10/2021 1:30:00 AM 20.47 68.846 0.259 7.48 14.38 7.61
7/10/2021 1:45:00 AM 20.45 68.81 0.257 7.47 14.7 7.61
7/10/2021 2:00:00 AM 20.41 68.738 0.257 7.46 15.24 7.61
7/10/2021 2:15:00 AM 20.35 68.63 0.259 7.46 16.14 7.61
7/10/2021 2:30:00 AM 20.27 68.486 0.261 7.46 16.13 7.62
7/10/2021 2:45:00 AM 20.18 68.324 0.265 7.46 16.05 7.64
7/10/2021 3:00:00 AM 20.08 68.144 0.268 7.46 25.23 7.65
7/10/2021 3:15:00 AM 19.98 67.964 0.271 7.47 17.22 7.68
7/10/2021 3:30:00 AM 19.88 67.784 0.274 7.47 17.63 7.68
7/10/2021 3:45:00 AM 19.78 67.604 0.276 7.47 17.84 7.71
7/10/2021 4:00:00 AM 19.68 67.424 0.279 7.47 17.12 7.72
7/10/2021 4:15:00 AM 19.58 67.244 0.281 7.47 17.26 7.73
7/10/2021 4:30:00 AM 19.49 67.082 0.284 7.48 16.74 7.74
7/10/2021 4:45:00 AM 19.39 66.902 0.286 7.48 15.64 7.75
7/10/2021 5:00:00 AM 19.31 66.758 0.288 7.48 16.58 7.76
7/10/2021 5:15:00 AM 19.23 66.614 0.29 7.48 15.79 7.78
7/10/2021 5:30:00 AM 19.15 66.47 0.292 7.48 15.08 7.78
7/10/2021 5:45:00 AM 19.08 66.344 0.293 7.49 14.96 7.8
7/10/2021 6:00:00 AM 19 66.2 0.294 7.49 14.97 7.81
7/10/2021 6:15:00 AM 18.93 66.074 0.296 7.49 14.31 7.83
7/10/2021 6:30:00 AM 18.87 65.966 0.297 7.49 14.46 7.85
7/10/2021 6:45:00 AM 18.81 65.858 0.298 7.5 14.62 7.87
7/10/2021 7:00:00 AM 18.75 65.75 0.299 7.5 14.16 7.9
7/10/2021 7:15:00 AM 18.68 65.624 0.3 7.5 13.74 7.92
7/10/2021 7:30:00 AM 18.62 65.516 0.3 7.51 14.34 7.94
7/10/2021 7:45:00 AM 18.57 65.426 0.301 7.51 13.25 7.97
7/10/2021 8:00:00 AM 18.52 65.336 0.302 7.51 13.31 8.01
7/10/2021 8:15:00 AM 18.48 65.264 0.303 7.52 12.92 8.05
7/10/2021 8:30:00 AM 18.43 65.174 0.304 7.52 12.54 8.08
7/10/2021 8:45:00 AM 18.39 65.102 0.305 7.53 12.58 8.13
7/10/2021 9:00:00 AM 18.37 65.066 0.306 7.54 12.54 8.2
7/10/2021 9:15:00 AM 18.36 65.048 0.307 7.55 12.78 8.28
7/10/2021 9:30:00 AM 18.35 65.03 0.308 7.57 11.73 8.37
7/10/2021 9:45:00 AM 18.33 64.994 0.309 7.58 11.65 8.44
7/10/2021 10:00:00 AM 18.33 64.994 0.31 7.59 10.55 8.53
7/10/2021 10:15:00 AM 18.38 65.084 0.311 7.62 10.21 8.69
7/10/2021 10:30:00 AM 18.45 65.21 0.312 7.65 10.13 8.84
7/10/2021 10:45:00 AM 18.47 65.246 0.313 7.67 9.19 8.93
7/10/2021 11:00:00 AM 18.57 65.426 0.313 7.7 8.7 9.09
7/10/2021 11:15:00 AM 18.63 65.534 0.314 7.72 9.02 9.21
7/10/2021 11:30:00 AM 18.8 65.84 0.315 7.76 8.45 9.39
7/10/2021 11:45:00 AM 18.93 66.074 0.316 7.8 8.18 9.55
7/10/2021 12:00:00 PM 18.96 66.128 0.316 7.83 7.95 9.67
7/10/2021 12:15:00 PM 19.1 66.38 0.317 7.88 7.42 9.85
7/10/2021 12:30:00 PM 19.22 66.596 0.318 7.92 7.33 10
7/10/2021 12:45:00 PM 19.39 66.902 0.319 7.96 7.26 10.14
7/10/2021 1:00:00 PM 19.53 67.154 0.32 8 7.1 10.26
7/10/2021 1:15:00 PM 19.59 67.262 0.321 8.03 7.13 10.34
7/10/2021 1:30:00 PM 19.75 67.55 0.322 8.07 6.61 10.47
7/10/2021 1:45:00 PM 19.73 67.514 0.322 8.1 6.55 10.5
7/10/2021 2:00:00 PM 19.74 67.532 0.323 8.12 6.67 10.52
7/10/2021 2:15:00 PM 19.75 67.55 0.324 8.13 6.61 10.45
7/10/2021 2:30:00 PM 19.73 67.514 0.325 8.13 6.44 10.42
7/10/2021 2:45:00 PM 19.75 67.55 0.326 8.14 6.15 10.44
7/10/2021 3:00:00 PM 19.72 67.496 0.327 8.15 6.2 10.4
7/10/2021 3:15:00 PM 19.73 67.514 0.329 8.16 5.94 10.4
7/10/2021 3:30:00 PM 19.78 67.604 0.331 8.17 6.13 10.42
7/10/2021 3:45:00 PM 19.8 67.64 0.333 8.17 5.7 10.37
7/10/2021 4:00:00 PM 19.81 67.658 0.334 8.18 5.8 10.32
7/10/2021 4:15:00 PM 19.86 67.748 0.334 8.2 5.85 10.34
7/10/2021 4:30:00 PM 19.92 67.856 0.334 8.21 5.88 10.35
7/10/2021 4:45:00 PM 20.01 68.018 0.333 8.23 5.93 10.35
7/10/2021 5:00:00 PM 20.11 68.198 0.333 8.24 5.79 10.35
7/10/2021 5:15:00 PM 20.13 68.234 0.333 8.24 6.15 10.3
7/10/2021 5:30:00 PM 20.14 68.252 0.333 8.24 6.07 10.24
7/10/2021 5:45:00 PM 20.14 68.252 0.334 8.24 5.89 10.21
7/10/2021 6:00:00 PM 20.15 68.27 0.334 8.25 5.77 10.19
7/10/2021 6:15:00 PM 20.13 68.234 0.334 8.25 5.82 10.16
7/10/2021 6:30:00 PM 20.08 68.144 0.335 8.24 6.06 10.1
7/10/2021 6:45:00 PM 20.04 68.07201 0.335 8.23 5.89 10.02
7/10/2021 7:00:00 PM 20 68 0.336 8.21 5.95 9.92
7/10/2021 7:15:00 PM 19.95 67.91 0.337 8.18 5.98 9.8
7/10/2021 7:30:00 PM 19.91 67.838 0.337 8.15 6.06 9.69
7/10/2021 7:45:00 PM 19.85 67.73 0.338 8.12 6.03 9.55
7/10/2021 8:00:00 PM 19.81 67.658 0.339 8.09 6.46 9.44
7/10/2021 8:15:00 PM 19.76 67.568 0.34 8.05 6.66 9.33
7/10/2021 8:30:00 PM 19.7 67.46 0.34 8.02 6.67 9.22
7/10/2021 8:45:00 PM 19.65 67.37 0.341 7.99 6.97 9.11
7/10/2021 9:00:00 PM 19.59 67.262 0.342 7.95 7.01 9.01
7/10/2021 9:15:00 PM 19.53 67.154 0.342 7.92 7.33 8.91
7/10/2021 9:30:00 PM 19.47 67.046 0.343 7.9 7.46 8.81
7/10/2021 9:45:00 PM 19.41 66.938 0.344 7.88 7.66 8.73
7/10/2021 10:00:00 PM 19.35 66.83 0.344 7.85 7.97 8.65
7/10/2021 10:15:00 PM 19.29 66.722 0.345 7.83 7.69 8.57
7/10/2021 10:30:00 PM 19.22 66.596 0.345 7.81 7.85 8.5
7/10/2021 10:45:00 PM 19.16 66.488 0.346 7.79 7.92 8.43
7/10/2021 11:00:00 PM 19.1 66.38 0.347 7.77 8.14 8.35
7/10/2021 11:15:00 PM 19.03 66.254 0.348 7.75 8.39 8.28
7/10/2021 11:30:00 PM 18.97 66.146 0.349 7.73 8.12 8.22
7/10/2021 11:45:00 PM 18.91 66.038 0.349 7.71 8.18 8.16
7/11/2021 12:00:00 AM 18.85 65.93 0.35 7.69 14.63 8.11
7/11/2021 12:15:00 AM 18.79 65.82201 0.351 7.68 8.19 8.07
7/11/2021 12:30:00 AM 18.74 65.732 0.351 7.66 7.74 8.03
7/11/2021 12:45:00 AM 18.69 65.642 0.352 7.65 8.08 7.99
7/11/2021 1:00:00 AM 18.63 65.534 0.353 7.63 8.58 7.96
7/11/2021 1:15:00 AM 18.59 65.462 0.354 7.62 8.27 7.93
7/11/2021 1:30:00 AM 18.55 65.39 0.355 7.61 8.15 7.91
7/11/2021 1:45:00 AM 18.51 65.318 0.355 7.61 7.99 7.89
7/11/2021 2:00:00 AM 18.47 65.246 0.356 7.6 7.82 7.88
7/11/2021 2:15:00 AM 18.43 65.174 0.357 7.59 7.93 7.86
7/11/2021 2:30:00 AM 18.4 65.12 0.358 7.59 7.96 7.85
7/11/2021 2:45:00 AM 18.36 65.048 0.358 7.58 7.57 7.84
7/11/2021 3:00:00 AM 18.33 64.994 0.359 7.58 7.9 7.84
7/11/2021 3:15:00 AM 18.29 64.922 0.36 7.58 8.19 7.83
7/11/2021 3:30:00 AM 18.25 64.85 0.361 7.57 8.14 7.83
7/11/2021 3:45:00 AM 18.21 64.778 0.362 7.57 7.91 7.83
7/11/2021 4:00:00 AM 18.16 64.688 0.363 7.57 7.76 7.84
7/11/2021 4:15:00 AM 18.12 64.616 0.364 7.57 7.72 7.83
7/11/2021 4:30:00 AM 18.07 64.526 0.365 7.57 8.23 7.85
7/11/2021 4:45:00 AM 18.03 64.454 0.366 7.57 7.63 7.84
7/11/2021 5:00:00 AM 17.99 64.382 0.367 7.57 7.59 7.85
7/11/2021 5:15:00 AM 17.94 64.292 0.368 7.56 7.98 7.85
7/11/2021 5:30:00 AM 17.9 64.22 0.369 7.56 8.4 7.85
7/11/2021 5:45:00 AM 17.85 64.13 0.37 7.56 7.52 7.86
7/11/2021 6:00:00 AM 17.8 64.04 0.371 7.56 7.22 7.87
7/11/2021 6:15:00 AM 17.76 63.968 0.372 7.56 6.97 7.88
7/11/2021 6:30:00 AM 17.72 63.896 0.373 7.56 7.25 7.89
7/11/2021 6:45:00 AM 17.68 63.824 0.374 7.56 7.45 7.93
7/11/2021 7:00:00 AM 17.65 63.77 0.375 7.57 6.68 7.94
7/11/2021 7:15:00 AM 17.61 63.698 0.376 7.57 6.64 7.97
7/11/2021 7:30:00 AM 17.59 63.662 0.377 7.57 6.5 7.98
7/11/2021 7:45:00 AM 17.56 63.608 0.378 7.58 6.32 8.06
7/11/2021 8:00:00 AM 17.55 63.59 0.379 7.59 7.24 8.11
7/11/2021 8:15:00 AM 17.53 63.554 0.38 7.6 6.37 8.17
7/11/2021 8:30:00 AM 17.53 63.554 0.38 7.61 5.78 8.26
7/11/2021 8:45:00 AM 17.54 63.572 0.381 7.62 5.74 8.35
7/11/2021 9:00:00 AM 17.54 63.572 0.382 7.63 5.48 8.41
7/11/2021 9:15:00 AM 17.53 63.554 0.383 7.64 5.38 8.49
7/11/2021 9:30:00 AM 17.54 63.572 0.384 7.65 5.61 8.59
7/11/2021 9:45:00 AM 17.56 63.608 0.385 7.67 5.25 8.72
7/11/2021 10:00:00 AM 17.57 63.626 0.386 7.69 5.41 8.85
7/11/2021 10:15:00 AM 17.59 63.662 0.387 7.71 4.94 8.95
7/11/2021 10:30:00 AM 17.6 63.68 0.387 7.72 5.07 9.05
7/11/2021 10:45:00 AM 17.63 63.734 0.388 7.75 5.09 9.21
7/11/2021 11:00:00 AM 17.67 63.806 0.389 7.78 4.87 9.37
7/11/2021 11:15:00 AM 17.71 63.878 0.39 7.8 5.08 9.5
7/11/2021 11:30:00 AM 17.78 64.004 0.39 7.84 5.63 9.71
7/11/2021 11:45:00 AM 17.8 64.04 0.391 7.86 4.8 9.81
7/11/2021 12:00:00 PM 17.8 64.04 0.391 7.86 4.89 9.82
7/11/2021 12:15:00 PM 17.79 64.022 0.392 7.87 4.78 9.83
7/11/2021 12:30:00 PM 17.8 64.04 0.393 7.89 4.85 9.91
7/11/2021 12:45:00 PM 17.82 64.076 0.393 7.92 4.97 10.02
7/11/2021 1:00:00 PM 17.83 64.094 0.394 7.94 4.57 10.09
7/11/2021 1:15:00 PM 17.84 64.112 0.394 7.95 4.66 10.11
7/11/2021 1:30:00 PM 17.84 64.112 0.395 7.96 4.72 10.12
7/11/2021 1:45:00 PM 17.84 64.112 0.395 7.98 4.76 10.17
7/11/2021 2:00:00 PM 17.83 64.094 0.396 7.98 4.46 10.12
7/11/2021 2:15:00 PM 17.83 64.094 0.396 7.99 4.64 10.12
7/11/2021 2:30:00 PM 17.81 64.058 0.396 7.98 4.78 10.04
7/11/2021 2:45:00 PM 17.79 64.022 0.396 7.98 4.78 9.98
7/11/2021 3:00:00 PM 17.78 64.004 0.397 7.97 4.56 9.93
7/11/2021 3:15:00 PM 17.76 63.968 0.397 7.97 4.55 9.89
7/11/2021 3:30:00 PM 17.75 63.95 0.397 7.97 4.56 9.85
7/11/2021 3:45:00 PM 17.74 63.932 0.398 7.96 4.51 9.8
7/11/2021 4:00:00 PM 17.73 63.914 0.398 7.96 4.6 9.75
7/11/2021 4:15:00 PM 17.72 63.896 0.399 7.95 4.53 9.69
7/11/2021 4:30:00 PM 17.7 63.86 0.399 7.94 4.56 9.62
7/11/2021 4:45:00 PM 17.68 63.824 0.399 7.93 4.7 9.55
7/11/2021 5:00:00 PM 17.66 63.788 0.4 7.92 4.51 9.49
7/11/2021 5:15:00 PM 17.64 63.752 0.4 7.91 4.62 9.4
7/11/2021 5:30:00 PM 17.62 63.716 0.4 7.9 4.9 9.32
7/11/2021 5:45:00 PM 17.6 63.68 0.4 7.89 4.84 9.28
7/11/2021 6:00:00 PM 17.58 63.644 0.401 7.87 4.93 9.21
7/11/2021 6:15:00 PM 17.55 63.59 0.4 7.86 5.09 9.14
7/11/2021 6:30:00 PM 17.53 63.554 0.4 7.85 6.56 9.09
7/11/2021 6:45:00 PM 17.51 63.518 0.4 7.83 5.41 9.03
7/11/2021 7:00:00 PM 17.48 63.464 0.4 7.82 5.84 8.98
7/11/2021 7:15:00 PM 17.46 63.428 0.4 7.81 5.71 8.93
7/11/2021 7:30:00 PM 17.43 63.374 0.4 7.79 6.14 8.87
7/11/2021 7:45:00 PM 17.41 63.338 0.4 7.78 5.77 8.82
7/11/2021 8:00:00 PM 17.39 63.302 0.398 7.77 5.84 8.8
7/11/2021 8:15:00 PM 17.41 63.338 0.405 7.76 11.43 8.78
7/11/2021 8:30:00 PM 17.39 63.302 0.399 7.75 10.04 8.74
7/11/2021 8:45:00 PM 17.36 63.248 0.396 7.74 8.78 8.7
7/11/2021 9:00:00 PM 17.43 63.374 0.399 7.74 17.14 8.69
7/11/2021 9:15:00 PM 17.37 63.266 0.389 7.72 14.81 8.67
7/11/2021 9:30:00 PM 17.33 63.194 0.386 7.72 14.5 8.64
7/11/2021 9:45:00 PM 17.32 63.176 0.384 7.71 14.9 8.61
7/11/2021 10:00:00 PM 17.29 63.122 0.381 7.7 16.26 8.59
7/11/2021 10:15:00 PM 17.26 63.068 0.379 7.69 18.11 8.57
7/11/2021 10:30:00 PM 17.24 63.032 0.375 7.68 32.03 8.55
7/11/2021 10:45:00 PM 17.25 63.05 0.369 7.65 25.66 8.51
7/11/2021 11:00:00 PM 17.28 63.104 0.357 7.62 38.76 8.46
7/11/2021 11:15:00 PM 17.32 63.176 0.342 7.59 46.78 8.44
7/11/2021 11:30:00 PM 17.37 63.266 0.333 7.56 47.67 8.42
7/11/2021 11:45:00 PM 17.4 63.32 0.329 7.54 35.94 8.39
7/12/2021 12:00:00 AM 17.46 63.428 0.322 7.51 39.46 8.34
7/12/2021 12:15:00 AM 17.64 63.752 0.297 7.48 59.73 8.29
7/12/2021 12:30:00 AM 17.84 64.112 0.261 7.45 80.18 8.29
7/12/2021 12:45:00 AM 17.97 64.346 0.232 7.41 112 8.3
7/12/2021 1:00:00 AM 17.98 64.364 0.219 7.39 101.69 8.29
7/12/2021 1:15:00 AM 17.94 64.292 0.205 7.37 114.09 8.31
7/12/2021 1:30:00 AM 17.9 64.22 0.191 7.34 108.55 8.35
7/12/2021 1:45:00 AM 17.83 64.094 0.182 7.32 129.34 8.42
7/12/2021 2:00:00 AM 17.75 63.95 0.176 7.32 156.08 8.47
7/12/2021 2:15:00 AM 17.66 63.788 0.172 7.3 130.18 8.52
7/12/2021 2:30:00 AM 17.59 63.662 0.168 7.28 139.04 8.54
7/12/2021 2:45:00 AM 17.54 63.572 0.163 7.27 134.37 8.56
7/12/2021 3:00:00 AM 17.51 63.518 0.16 7.26 118.27 8.57
7/12/2021 3:15:00 AM 17.49 63.482 0.157 7.25 105.91 8.57
7/12/2021 3:30:00 AM 17.48 63.464 0.156 7.25 119.65 8.57
7/12/2021 3:45:00 AM 17.47 63.446 0.156 7.24 109.75 8.56
7/12/2021 4:00:00 AM 17.46 63.428 0.157 7.23 114.63 8.55
7/12/2021 4:15:00 AM 17.46 63.428 0.159 7.23 113.52 8.54
7/12/2021 4:30:00 AM 17.45 63.41 0.161 7.22 85.91 8.52
7/12/2021 4:45:00 AM 17.45 63.41 0.164 7.22 85.52 8.51
7/12/2021 5:00:00 AM 17.45 63.41 0.166 7.23 84.41 8.49
7/12/2021 5:15:00 AM 17.44 63.392 0.169 7.22 66.58 8.48
7/12/2021 5:30:00 AM 17.43 63.374 0.17 7.23 55.88 8.47
7/12/2021 5:45:00 AM 17.42 63.356 0.17 7.22 61.21 8.48
7/12/2021 6:00:00 AM 17.41 63.338 0.17 7.22 65.04 8.49
7/12/2021 6:15:00 AM 17.4 63.32 0.17 7.23 60.83 8.49
7/12/2021 6:30:00 AM 17.39 63.302 0.17 7.23 63.03 8.5
7/12/2021 6:45:00 AM 17.37 63.266 0.17 7.23 48.49 8.5
7/12/2021 7:00:00 AM 17.36 63.248 0.171 7.23 37.16 8.51
7/12/2021 7:15:00 AM 17.35 63.23 0.172 7.23 37.24 8.51
7/12/2021 7:30:00 AM 17.34 63.212 0.173 7.24 70.24 8.52
7/12/2021 7:45:00 AM 17.33 63.194 0.174 7.24 39.18 8.53
7/12/2021 8:00:00 AM 17.32 63.176 0.176 7.24 30.55 8.53
7/12/2021 8:15:00 AM 17.31 63.158 0.177 7.25 48.16 8.54
7/12/2021 8:30:00 AM 17.31 63.158 0.178 7.25 33.6 8.55
7/12/2021 8:45:00 AM 17.3 63.14 0.18 7.26 33.63 8.56
7/12/2021 9:00:00 AM 17.3 63.14 0.181 7.26 34.21 8.57
7/12/2021 9:15:00 AM 17.3 63.14 0.182 7.27 26.3 8.59
7/12/2021 9:30:00 AM 17.31 63.158 0.184 7.28 28.07 8.6
7/12/2021 9:45:00 AM 17.33 63.194 0.185 7.28 30.18 8.62
7/12/2021 10:00:00 AM 17.35 63.23 0.186 7.29 23.87 8.64
7/12/2021 10:15:00 AM 17.37 63.266 0.188 7.3 27.41 8.66
7/12/2021 10:30:00 AM 17.39 63.302 0.189 7.31 23.21 8.68
7/12/2021 10:45:00 AM 17.42 63.356 0.19 7.32 22.97 8.71
7/12/2021 11:00:00 AM 17.47 63.446 0.191 7.33 22.98 8.74
7/12/2021 11:15:00 AM 17.53 63.554 0.193 7.34 48.78 8.78
7/12/2021 11:30:00 AM 17.62 63.716 0.194 7.35 22.25 8.82
7/12/2021 11:45:00 AM 17.7 63.86 0.195 7.37 20.37 8.88
7/12/2021 12:00:00 PM 17.85 64.13 0.196 7.39 19.62 8.97
7/12/2021 12:15:00 PM 18.03 64.454 0.198 7.41 19.32 9.02
7/12/2021 12:30:00 PM 18.13 64.634 0.199 7.42 19.22 9.08
7/12/2021 12:45:00 PM 18.24 64.832 0.2 7.44 17.63 9.13
7/12/2021 1:00:00 PM 18.37 65.066 0.201 7.47 18.58 9.2
7/12/2021 1:15:00 PM 18.52 65.336 0.203 7.49 21.8 9.28
7/12/2021 1:30:00 PM 18.57 65.426 0.204 7.51 17.13 9.3
7/12/2021 1:45:00 PM 18.69 65.642 0.206 7.53 16.44 9.36
7/12/2021 2:00:00 PM 18.82 65.876 0.207 7.55 19.56 9.4
7/12/2021 2:15:00 PM 18.92 66.056 0.209 7.57 17.46 9.42
7/12/2021 2:30:00 PM 18.99 66.182 0.21 7.59 16.03 9.43
7/12/2021 2:45:00 PM 19.08 66.344 0.211 7.61 16.5 9.46
7/12/2021 3:00:00 PM 19.18 66.524 0.213 7.62 15.21 9.48
7/12/2021 3:15:00 PM 19.26 66.668 0.214 7.63 15.7 9.48
7/12/2021 3:30:00 PM 19.4 66.92 0.216 7.65 12.8 9.49
7/12/2021 3:45:00 PM 19.48 67.064 0.218 7.66 14.9 9.47
7/12/2021 4:00:00 PM 19.58 67.244 0.219 7.67 14.85 9.46
7/12/2021 4:15:00 PM 19.65 67.37 0.221 7.68 14.34 9.44
7/12/2021 4:30:00 PM 19.71 67.478 0.223 7.69 13.92 9.41
7/12/2021 4:45:00 PM 19.77 67.586 0.224 7.69 13.55 9.38
7/12/2021 5:00:00 PM 19.83 67.694 0.226 7.69 13.06 9.33
7/12/2021 5:15:00 PM 19.89 67.802 0.227 7.69 13.02 9.28
7/12/2021 5:30:00 PM 19.93 67.874 0.228 7.69 13.41 9.23
7/12/2021 5:45:00 PM 19.98 67.964 0.229 7.69 13.07 9.17
7/12/2021 6:00:00 PM 20.04 68.07201 0.23 7.68 12.55 9.11
7/12/2021 6:15:00 PM 20.07 68.126 0.231 7.67 13.46 9.01
7/12/2021 6:30:00 PM 20.1 68.18 0.232 7.65 13.66 8.92
7/12/2021 6:45:00 PM 20.12 68.216 0.232 7.63 13.57 8.84
7/12/2021 7:00:00 PM 20.16 68.288 0.233 7.61 13.04 8.77
7/12/2021 7:15:00 PM 20.19 68.342 0.234 7.61 13.24 8.73
7/12/2021 7:30:00 PM 20.21 68.378 0.235 7.6 12.97 8.69
7/12/2021 7:45:00 PM 20.21 68.378 0.236 7.59 13.29 8.64
7/12/2021 8:00:00 PM 20.21 68.378 0.237 7.58 13.05 8.59
7/12/2021 8:15:00 PM 20.21 68.378 0.238 7.57 12.77 8.53
7/12/2021 8:30:00 PM 20.2 68.36 0.239 7.56 13.04 8.46
7/12/2021 8:45:00 PM 20.19 68.342 0.24 7.54 12.78 8.41
7/12/2021 9:00:00 PM 20.17 68.306 0.241 7.53 12.51 8.38
7/12/2021 9:15:00 PM 20.15 68.27 0.242 7.52 12.42 8.35
7/12/2021 9:30:00 PM 20.13 68.234 0.243 7.52 13.04 8.33
7/12/2021 9:45:00 PM 20.11 68.198 0.244 7.51 12.75 8.3
7/12/2021 10:00:00 PM 20.09 68.162 0.245 7.51 12.43 8.27
7/12/2021 10:15:00 PM 20.06 68.108 0.247 7.5 12.73 8.24
7/12/2021 10:30:00 PM 20.02 68.036 0.248 7.49 12.53 8.21
7/12/2021 10:45:00 PM 19.98 67.964 0.249 7.48 12.1 8.18
7/12/2021 11:00:00 PM 19.93 67.874 0.25 7.47 12.21 8.15
7/12/2021 11:15:00 PM 19.88 67.784 0.252 7.46 11.66 8.14
7/12/2021 11:30:00 PM 19.82 67.676 0.254 7.46 11.81 8.13
7/12/2021 11:45:00 PM 19.77 67.586 0.256 7.46 11.36 8.12
7/13/2021 12:00:00 AM 19.72 67.496 0.257 7.45 11.69 8.11
7/13/2021 12:15:00 AM 19.65 67.37 0.257 7.45 12.3 8.1
7/13/2021 12:30:00 AM 19.59 67.262 0.257 7.44 12.04 8.1
7/13/2021 12:45:00 AM 19.52 67.136 0.257 7.44 12.14 8.1
7/13/2021 1:00:00 AM 19.46 67.028 0.258 7.43 11.78 8.1
7/13/2021 1:15:00 AM 19.4 66.92 0.259 7.42 11.58 8.11
7/13/2021 1:30:00 AM 19.34 66.812 0.259 7.42 11.18 8.11
7/13/2021 1:45:00 AM 19.28 66.704 0.26 7.42 11.77 8.11
7/13/2021 2:00:00 AM 19.22 66.596 0.261 7.42 11.89 8.11
7/13/2021 2:15:00 AM 19.17 66.506 0.261 7.42 11.76 8.12
7/13/2021 2:30:00 AM 19.11 66.398 0.262 7.42 11.49 8.13
7/13/2021 2:45:00 AM 19.05 66.29 0.262 7.42 11.21 8.13
7/13/2021 3:00:00 AM 18.99 66.182 0.262 7.42 11.56 8.14
7/13/2021 3:15:00 AM 18.92 66.056 0.262 7.42 11.24 8.15
7/13/2021 3:30:00 AM 18.85 65.93 0.263 7.41 11.52 8.16
7/13/2021 3:45:00 AM 18.78 65.804 0.263 7.41 11.26 8.18
7/13/2021 4:00:00 AM 18.71 65.67799 0.263 7.41 11.04 8.19
7/13/2021 4:15:00 AM 18.63 65.534 0.263 7.41 11.13 8.2
7/13/2021 4:30:00 AM 18.57 65.426 0.264 7.41 10.87 8.21
7/13/2021 4:45:00 AM 18.5 65.3 0.264 7.4 10.91 8.22
7/13/2021 5:00:00 AM 18.44 65.192 0.264 7.4 10.53 8.23
7/13/2021 5:15:00 AM 18.38 65.084 0.264 7.4 10.87 8.25
7/13/2021 5:30:00 AM 18.32 64.976 0.265 7.4 10.98 8.25
7/13/2021 5:45:00 AM 18.27 64.886 0.265 7.4 11.23 8.26
7/13/2021 6:00:00 AM 18.22 64.796 0.265 7.39 10.42 8.28
7/13/2021 6:15:00 AM 18.17 64.706 0.266 7.39 10.49 8.29
7/13/2021 6:30:00 AM 18.13 64.634 0.266 7.39 10.17 8.3
7/13/2021 6:45:00 AM 18.09 64.562 0.267 7.39 10.06 8.33
7/13/2021 7:00:00 AM 18.05 64.49 0.267 7.39 9.48 8.34
7/13/2021 7:15:00 AM 18.03 64.454 0.268 7.4 8.98 8.37
7/13/2021 7:30:00 AM 18 64.4 0.268 7.4 9.05 8.4
7/13/2021 7:45:00 AM 17.97 64.346 0.269 7.41 8.53 8.43
7/13/2021 8:00:00 AM 17.96 64.328 0.269 7.41 8.62 8.49
7/13/2021 8:15:00 AM 17.94 64.292 0.27 7.42 7.98 8.52
7/13/2021 8:30:00 AM 17.93 64.274 0.27 7.43 7.54 8.58
7/13/2021 8:45:00 AM 17.93 64.274 0.271 7.45 7.19 8.64
7/13/2021 9:00:00 AM 17.93 64.274 0.271 7.46 6.81 8.71
7/13/2021 9:15:00 AM 17.94 64.292 0.272 7.47 6.78 8.79
7/13/2021 9:30:00 AM 17.96 64.328 0.272 7.49 6.42 8.86
7/13/2021 9:45:00 AM 17.99 64.382 0.272 7.5 6.32 8.95
7/13/2021 10:00:00 AM 18.03 64.454 0.273 7.53 5.99 9.06
7/13/2021 10:15:00 AM 18.06 64.508 0.273 7.54 5.84 9.14
7/13/2021 10:30:00 AM 18.12 64.616 0.274 7.57 5.76 9.24
7/13/2021 10:45:00 AM 18.21 64.778 0.274 7.6 5.93 9.36
7/13/2021 11:00:00 AM 18.27 64.886 0.274 7.63 5.71 9.45
7/13/2021 11:15:00 AM 18.36 65.048 0.275 7.65 5.88 9.54
7/13/2021 11:30:00 AM 18.5 65.3 0.275 7.68 5.58 9.65
7/13/2021 11:45:00 AM 18.56 65.408 0.276 7.7 5.46 9.69
7/13/2021 12:00:00 PM 18.74 65.732 0.276 7.75 5.31 9.82
7/13/2021 12:15:00 PM 18.83 65.894 0.276 7.77 5.28 9.89
7/13/2021 12:30:00 PM 18.93 66.074 0.277 7.79 5.37 9.95
7/13/2021 12:45:00 PM 19.1 66.38 0.277 7.83 5.31 10.04
7/13/2021 1:00:00 PM 19.31 66.758 0.277 7.86 5.23 10.13
7/13/2021 1:15:00 PM 19.52 67.136 0.278 7.89 5.35 10.2
7/13/2021 1:30:00 PM 19.58 67.244 0.278 7.91 5.44 10.21
7/13/2021 1:45:00 PM 19.65 67.37 0.279 7.93 5.33 10.2
7/13/2021 2:00:00 PM 19.81 67.658 0.279 7.96 5.15 10.24
7/13/2021 2:15:00 PM 19.88 67.784 0.279 7.96 5.42 10.18
7/13/2021 2:30:00 PM 19.98 67.964 0.279 7.97 5.27 10.15
7/13/2021 2:45:00 PM 20.08 68.144 0.279 7.98 5.17 10.13
7/13/2021 3:00:00 PM 20.12 68.216 0.28 7.98 5.08 10.03
7/13/2021 3:15:00 PM 20.18 68.324 0.28 7.98 5.19 9.99
7/13/2021 3:30:00 PM 20.26 68.468 0.28 7.98 5.74 9.93
7/13/2021 3:45:00 PM 20.39 68.702 0.28 7.99 5.59 9.93
7/13/2021 4:00:00 PM 20.52 68.936 0.28 8 5.57 9.88
7/13/2021 4:15:00 PM 20.61 69.098 0.281 8 5.67 9.83
7/13/2021 4:30:00 PM 20.67 69.206 0.281 8 5.85 9.8
7/13/2021 4:45:00 PM 20.73 69.314 0.282 8 5.86 9.75
7/13/2021 5:00:00 PM 20.81 69.458 0.282 8.01 5.8 9.75
7/13/2021 5:15:00 PM 20.88 69.584 0.282 8.01 5.78 9.73
7/13/2021 5:30:00 PM 20.93 69.674 0.282 8 5.81 9.67
7/13/2021 5:45:00 PM 20.99 69.782 0.283 7.99 5.82 9.61
7/13/2021 6:00:00 PM 21.04 69.872 0.283 7.98 5.98 9.55
7/13/2021 6:15:00 PM 21.08 69.944 0.283 7.96 5.83 9.48
7/13/2021 6:30:00 PM 21.1 69.98 0.283 7.95 5.84 9.39
7/13/2021 6:45:00 PM 21.13 70.034 0.283 7.92 5.91 9.3
7/13/2021 7:00:00 PM 21.17 70.106 0.283 7.9 6.47 9.2
7/13/2021 7:15:00 PM 21.21 70.17799 0.283 7.88 6.03 9.12
7/13/2021 7:30:00 PM 21.23 70.214 0.283 7.86 5.97 9.02
7/13/2021 7:45:00 PM 21.24 70.232 0.284 7.84 6.42 8.94
7/13/2021 8:00:00 PM 21.25 70.25 0.284 7.82 6.45 8.83
7/13/2021 8:15:00 PM 21.26 70.268 0.286 7.8 6.44 8.72
7/13/2021 8:30:00 PM 21.27 70.286 0.288 7.77 6.57 8.61
7/13/2021 8:45:00 PM 21.28 70.304 0.289 7.74 7.08 8.49
7/13/2021 9:00:00 PM 21.26 70.268 0.288 7.71 7.43 8.37
7/13/2021 9:15:00 PM 21.25 70.25 0.286 7.69 7.75 8.26
7/13/2021 9:30:00 PM 21.23 70.214 0.282 7.66 7.94 8.16
7/13/2021 9:45:00 PM 21.22 70.196 0.279 7.63 7.67 8.08
7/13/2021 10:00:00 PM 21.2 70.16 0.278 7.61 7.59 8
7/13/2021 10:15:00 PM 21.18 70.124 0.278 7.6 7.79 7.95
7/13/2021 10:30:00 PM 21.15 70.07 0.279 7.58 7.57 7.9
7/13/2021 10:45:00 PM 21.11 69.998 0.283 7.57 7.56 7.86
7/13/2021 11:00:00 PM 21.07 69.926 0.287 7.56 7.41 7.82
7/13/2021 11:15:00 PM 21.04 69.872 0.291 7.55 7.69 7.77
7/13/2021 11:30:00 PM 21 69.8 0.295 7.54 7.28 7.72
7/13/2021 11:45:00 PM 20.96 69.728 0.297 7.53 7.83 7.68
7/14/2021 12:00:00 AM 20.91 69.638 0.298 7.52 7.51 7.66
7/14/2021 12:15:00 AM 20.86 69.548 0.298 7.52 7.72 7.64
7/14/2021 12:30:00 AM 20.8 69.44 0.298 7.51 7.61 7.63
7/14/2021 12:45:00 AM 20.74 69.332 0.297 7.51 7.21 7.63
7/14/2021 1:00:00 AM 20.67 69.206 0.296 7.51 7.57 7.63
7/14/2021 1:15:00 AM 20.6 69.08 0.296 7.51 7.29 7.64
7/14/2021 1:30:00 AM 20.54 68.972 0.295 7.5 7.42 7.65
7/14/2021 1:45:00 AM 20.48 68.864 0.295 7.5 7.77 7.66
7/14/2021 2:00:00 AM 20.43 68.774 0.294 7.5 8.16 7.67
7/14/2021 2:15:00 AM 20.38 68.684 0.293 7.5 8.78 7.67
7/14/2021 2:30:00 AM 20.33 68.594 0.292 7.5 8.73 7.68
7/14/2021 2:45:00 AM 20.28 68.504 0.292 7.49 8.77 7.69
7/14/2021 3:00:00 AM 20.23 68.414 0.292 7.49 8.7 7.69
7/14/2021 3:15:00 AM 20.18 68.324 0.292 7.49 7.89 7.71
7/14/2021 3:30:00 AM 20.12 68.216 0.291 7.48 8.23 7.73
7/14/2021 3:45:00 AM 20.05 68.09 0.29 7.48 8.3 7.73
7/14/2021 4:00:00 AM 19.98 67.964 0.288 7.48 8.65 7.75
7/14/2021 4:15:00 AM 19.9 67.82 0.286 7.48 8.32 7.77
7/14/2021 4:30:00 AM 19.83 67.694 0.283 7.48 8.85 7.8
7/14/2021 4:45:00 AM 19.74 67.532 0.281 7.48 8.74 7.82
7/14/2021 5:00:00 AM 19.66 67.388 0.279 7.48 10.04 7.85
7/14/2021 5:15:00 AM 19.58 67.244 0.276 7.47 9.51 7.88
7/14/2021 5:30:00 AM 19.5 67.1 0.275 7.47 9.87 7.9
7/14/2021 5:45:00 AM 19.42 66.956 0.274 7.46 10.2 7.92
7/14/2021 6:00:00 AM 19.34 66.812 0.274 7.46 9.83 7.94
7/14/2021 6:15:00 AM 19.25 66.65 0.274 7.46 10.83 7.95
7/14/2021 6:30:00 AM 19.18 66.524 0.273 7.45 10.27 7.96
7/14/2021 6:45:00 AM 19.11 66.398 0.271 7.45 10.54 7.98
7/14/2021 7:00:00 AM 19.05 66.29 0.268 7.45 10.21 8
7/14/2021 7:15:00 AM 19 66.2 0.265 7.45 10.61 8.03
7/14/2021 7:30:00 AM 18.96 66.128 0.26 7.44 10.83 8.07
7/14/2021 7:45:00 AM 18.93 66.074 0.254 7.44 11.21 8.11
7/14/2021 8:00:00 AM 18.9 66.02 0.248 7.44 10.84 8.15
7/14/2021 8:15:00 AM 18.88 65.984 0.242 7.44 10.75 8.21
7/14/2021 8:30:00 AM 18.85 65.93 0.237 7.43 10.26 8.25
7/14/2021 8:45:00 AM 18.81 65.858 0.233 7.43 10.09 8.3
7/14/2021 9:00:00 AM 18.8 65.84 0.231 7.43 10.22 8.36
7/14/2021 9:15:00 AM 18.77 65.786 0.229 7.44 9.64 8.43
7/14/2021 9:30:00 AM 18.76 65.768 0.228 7.45 8.96 8.5
7/14/2021 9:45:00 AM 18.77 65.786 0.227 7.46 8.52 8.6
7/14/2021 10:00:00 AM 18.79 65.82201 0.226 7.48 8.27 8.69
7/14/2021 10:15:00 AM 18.8 65.84 0.227 7.49 8.45 8.77
7/14/2021 10:30:00 AM 18.81 65.858 0.229 7.51 8.16 8.85
7/14/2021 10:45:00 AM 18.81 65.858 0.231 7.53 8.25 8.91
7/14/2021 11:00:00 AM 18.82 65.876 0.235 7.55 7.8 9
7/14/2021 11:15:00 AM 18.89 66.002 0.238 7.58 7.46 9.11
7/14/2021 11:30:00 AM 18.98 66.164 0.242 7.61 7.39 9.21
7/14/2021 11:45:00 AM 19.07 66.326 0.245 7.64 7.24 9.32
7/14/2021 12:00:00 PM 19.2 66.56 0.248 7.68 7.13 9.45
7/14/2021 12:15:00 PM 19.33 66.794 0.25 7.71 7.25 9.55
7/14/2021 12:30:00 PM 19.46 67.028 0.252 7.75 7.22 9.64
7/14/2021 12:45:00 PM 19.62 67.316 0.254 7.78 7.09 9.73
7/14/2021 1:00:00 PM 19.79 67.622 0.255 7.81 6.93 9.82
7/14/2021 1:15:00 PM 19.94 67.892 0.257 7.83 6.59 9.9
7/14/2021 1:30:00 PM 20 68 0.258 7.85 6.7 9.91
7/14/2021 1:45:00 PM 20.01 68.018 0.258 7.85 7.16 9.83
7/14/2021 2:00:00 PM 20.05 68.09 0.258 7.85 13.65 9.7
7/14/2021 2:15:00 PM 20.07 68.126 0.258 7.86 9.28 9.7
7/14/2021 2:30:00 PM 20.21 68.378 0.257 7.86 10.67 9.69
7/14/2021 2:45:00 PM 20.26 68.468 0.256 7.85 11.39 9.58
7/14/2021 3:00:00 PM 20.26 68.468 0.255 7.82 13.09 9.46
7/14/2021 3:15:00 PM 20.25 68.45 0.255 7.8 14.04 9.37
7/14/2021 3:30:00 PM 20.25 68.45 0.255 7.79 15.82 9.34
7/14/2021 3:45:00 PM 20.26 68.468 0.253 7.75 16.69 9.21
7/14/2021 4:00:00 PM 20.28 68.504 0.251 7.69 21.12 9.03
7/14/2021 4:15:00 PM 20.31 68.558 0.252 7.67 18.53 8.97
7/14/2021 4:30:00 PM 20.34 68.612 0.253 7.67 24.33 8.98
7/14/2021 4:45:00 PM 20.38 68.684 0.252 7.64 24.33 8.92
7/14/2021 5:00:00 PM 20.47 68.846 0.25 7.63 16.17 8.87
7/14/2021 5:15:00 PM 20.54 68.972 0.25 7.62 24.1 8.81
7/14/2021 5:30:00 PM 20.64 69.152 0.251 7.58 109.93 8.52
7/14/2021 5:45:00 PM 20.77 69.386 0.246 7.52 340.65 8.21
7/14/2021 6:00:00 PM 20.93 69.674 0.233 7.49 406.73 8.08
7/14/2021 6:15:00 PM 21.03 69.854 0.223 7.47 212.4 8.05
7/14/2021 6:30:00 PM 21.06 69.908 0.208 7.45 142.49 8.01
7/14/2021 6:45:00 PM 21.05 69.89 0.189 7.42 149.54 7.98
7/14/2021 7:00:00 PM 21.04 69.872 0.182 7.4 152.25 8.01
7/14/2021 7:15:00 PM 21.14 70.052 0.179 7.39 132.6 8.03
7/14/2021 7:30:00 PM 21.24 70.232 0.173 7.36 96.93 8.05
7/14/2021 7:45:00 PM 21.16 70.088 0.168 7.35 103.06 8.06
7/14/2021 8:00:00 PM 20.95 69.71 0.16 7.32 82.49 8.06
7/14/2021 8:15:00 PM 20.77 69.386 0.154 7.3 89.78 8.05
7/14/2021 8:30:00 PM 20.66 69.188 0.149 7.28 104.77 8.04
7/14/2021 8:45:00 PM 20.58 69.044 0.148 7.27 111.57 8.03
7/14/2021 9:00:00 PM 20.53 68.954 0.148 7.26 86.57 8.03
7/14/2021 9:15:00 PM 20.49 68.882 0.15 7.25 82.69 8.02
7/14/2021 9:30:00 PM 20.46 68.828 0.152 7.24 70.45 8.01
7/14/2021 9:45:00 PM 20.42 68.756 0.154 7.25 70.82 8
7/14/2021 10:00:00 PM 20.39 68.702 0.156 7.24 76.65 8
7/14/2021 10:15:00 PM 20.35 68.63 0.159 7.24 97.22 7.99
7/14/2021 10:30:00 PM 20.32 68.576 0.161 7.25 60.6 7.99
7/14/2021 10:45:00 PM 20.27 68.486 0.163 7.25 53.41 7.98
7/14/2021 11:00:00 PM 20.22 68.396 0.165 7.25 48.05 7.99
7/14/2021 11:15:00 PM 20.16 68.288 0.167 7.25 43.27 8
7/14/2021 11:30:00 PM 20.1 68.18 0.169 7.25 43.01 8
7/14/2021 11:45:00 PM 20.03 68.054 0.171 7.25 42.68 8.01
7/15/2021 12:00:00 AM 19.96 67.92799 0.172 7.25 40.81 8.02
7/15/2021 12:15:00 AM 19.89 67.802 0.173 7.26 31.81 8.04
7/15/2021 12:30:00 AM 19.82 67.676 0.174 7.26 35.16 8.05
7/15/2021 12:45:00 AM 19.74 67.532 0.175 7.25 35.85 8.06
7/15/2021 1:00:00 AM 19.66 67.388 0.176 7.25 30.91 8.07
7/15/2021 1:15:00 AM 19.59 67.262 0.177 7.25 29.41 8.09
7/15/2021 1:30:00 AM 19.52 67.136 0.178 7.26 30.25 8.1
7/15/2021 1:45:00 AM 19.45 67.01 0.18 7.26 26.15 8.11
7/15/2021 2:00:00 AM 19.38 66.884 0.181 7.26 28.98 8.13
7/15/2021 2:15:00 AM 19.32 66.776 0.182 7.26 30.17 8.15
7/15/2021 2:30:00 AM 19.25 66.65 0.184 7.26 29.38 8.16
7/15/2021 2:45:00 AM 19.19 66.542 0.185 7.27 24.23 8.18
7/15/2021 3:00:00 AM 19.13 66.434 0.187 7.27 24.28 8.18
7/15/2021 3:15:00 AM 19.07 66.326 0.188 7.28 25.42 8.2
7/15/2021 3:30:00 AM 19.02 66.236 0.19 7.28 24.72 8.21
7/15/2021 3:45:00 AM 18.96 66.128 0.191 7.28 28.18 8.23
7/15/2021 4:00:00 AM 18.91 66.038 0.193 7.29 20.93 8.23
7/15/2021 4:15:00 AM 18.85 65.93 0.194 7.29 20.41 8.24
7/15/2021 4:30:00 AM 18.81 65.858 0.195 7.29 21.07 8.25
7/15/2021 4:45:00 AM 18.76 65.768 0.197 7.3 21.28 8.26
7/15/2021 5:00:00 AM 18.71 65.67799 0.199 7.3 21.34 8.27
7/15/2021 5:15:00 AM 18.67 65.606 0.2 7.3 20.33 8.28
7/15/2021 5:30:00 AM 18.62 65.516 0.202 7.3 17.14 8.29
7/15/2021 5:45:00 AM 18.58 65.444 0.203 7.31 21.63 8.29
7/15/2021 6:00:00 AM 18.53 65.354 0.205 7.31 19.29 8.3
7/15/2021 6:15:00 AM 18.49 65.282 0.206 7.31 19.11 8.3
7/15/2021 6:30:00 AM 18.46 65.228 0.208 7.31 18.88 8.32
7/15/2021 6:45:00 AM 18.42 65.156 0.209 7.32 29.32 8.33
7/15/2021 7:00:00 AM 18.38 65.084 0.21 7.32 17.47 8.34
7/15/2021 7:15:00 AM 18.35 65.03 0.212 7.32 17.43 8.35
7/15/2021 7:30:00 AM 18.33 64.994 0.213 7.33 16.28 8.36
7/15/2021 7:45:00 AM 18.3 64.94 0.215 7.33 14.88 8.37
7/15/2021 8:00:00 AM 18.28 64.904 0.216 7.33 15.47 8.39
7/15/2021 8:15:00 AM 18.26 64.868 0.217 7.34 14.01 8.42
7/15/2021 8:30:00 AM 18.24 64.832 0.219 7.35 14.67 8.44
7/15/2021 8:45:00 AM 18.23 64.814 0.22 7.36 13.27 8.47
7/15/2021 9:00:00 AM 18.22 64.796 0.221 7.37 13.75 8.5
7/15/2021 9:15:00 AM 18.22 64.796 0.222 7.38 12.4 8.54
7/15/2021 9:30:00 AM 18.23 64.814 0.223 7.38 13.09 8.58
7/15/2021 9:45:00 AM 18.24 64.832 0.225 7.39 12.08 8.63
7/15/2021 10:00:00 AM 18.27 64.886 0.226 7.4 12.27 8.69
7/15/2021 10:15:00 AM 18.3 64.94 0.227 7.42 11.91 8.75
7/15/2021 10:30:00 AM 18.34 65.012 0.227 7.44 11.98 8.82
7/15/2021 10:45:00 AM 18.4 65.12 0.228 7.45 11.21 8.89
7/15/2021 11:00:00 AM 18.48 65.264 0.229 7.47 10.99 8.96
7/15/2021 11:15:00 AM 18.58 65.444 0.23 7.48 10.68 9.04
7/15/2021 11:30:00 AM 18.69 65.642 0.231 7.51 10.62 9.13
7/15/2021 11:45:00 AM 18.82 65.876 0.232 7.53 9.95 9.21
7/15/2021 12:00:00 PM 18.97 66.146 0.233 7.56 10.03 9.3
7/15/2021 12:15:00 PM 19.11 66.398 0.234 7.58 9.73 9.37
7/15/2021 12:30:00 PM 19.26 66.668 0.235 7.61 9.95 9.45
7/15/2021 12:45:00 PM 19.42 66.956 0.236 7.63 9.58 9.52
7/15/2021 1:00:00 PM 19.52 67.136 0.236 7.65 9.67 9.56
7/15/2021 1:15:00 PM 19.65 67.37 0.237 7.67 9.86 9.59
7/15/2021 1:30:00 PM 19.79 67.622 0.238 7.69 9.4 9.64
7/15/2021 1:45:00 PM 19.95 67.91 0.239 7.71 9.24 9.68
7/15/2021 2:00:00 PM 20.12 68.216 0.239 7.74 9.25 9.72
7/15/2021 2:15:00 PM 20.24 68.432 0.24 7.76 8.97 9.73
7/15/2021 2:30:00 PM 20.39 68.702 0.241 7.78 9.45 9.75
7/15/2021 2:45:00 PM 20.51 68.918 0.241 7.79 9.02 9.76
7/15/2021 3:00:00 PM 20.62 69.116 0.242 7.81 8.96 9.76
7/15/2021 3:15:00 PM 20.71 69.278 0.243 7.82 8.97 9.74
7/15/2021 3:30:00 PM 20.8 69.44 0.243 7.83 8.88 9.71
7/15/2021 3:45:00 PM 20.91 69.638 0.244 7.84 8.58 9.71
7/15/2021 4:00:00 PM 21.02 69.836 0.244 7.84 8.4 9.69
7/15/2021 4:15:00 PM 21.08 69.944 0.245 7.85 8.33 9.64
7/15/2021 4:30:00 PM 21.14 70.052 0.245 7.85 8.39 9.59
7/15/2021 4:45:00 PM 21.21 70.17799 0.246 7.85 8.54 9.54
7/15/2021 5:00:00 PM 21.28 70.304 0.246 7.85 8.75 9.49
7/15/2021 5:15:00 PM 21.35 70.43 0.247 7.84 8.52 9.42
7/15/2021 5:30:00 PM 21.41 70.538 0.247 7.84 8.58 9.36
7/15/2021 5:45:00 PM 21.46 70.628 0.248 7.83 8.48 9.29
7/15/2021 6:00:00 PM 21.5 70.7 0.248 7.82 8.44 9.22
7/15/2021 6:15:00 PM 21.53 70.754 0.249 7.8 8.65 9.12
7/15/2021 6:30:00 PM 21.55 70.79 0.249 7.79 8.77 9.05
7/15/2021 6:45:00 PM 21.58 70.844 0.25 7.77 8.64 8.98
7/15/2021 7:00:00 PM 21.6 70.88 0.25 7.76 8.62 8.89
7/15/2021 7:15:00 PM 21.62 70.916 0.251 7.74 10.37 8.81
7/15/2021 7:30:00 PM 21.62 70.916 0.253 7.73 8.35 8.73
7/15/2021 7:45:00 PM 21.62 70.916 0.254 7.71 8.27 8.67
7/15/2021 8:00:00 PM 21.62 70.916 0.256 7.69 8.69 8.59
7/15/2021 8:15:00 PM 21.6 70.88 0.257 7.67 8.41 8.51
7/15/2021 8:30:00 PM 21.58 70.844 0.257 7.65 8.59 8.42
7/15/2021 8:45:00 PM 21.56 70.808 0.257 7.63 8.95 8.34
7/15/2021 9:00:00 PM 21.54 70.772 0.258 7.62 8.78 8.26
7/15/2021 9:15:00 PM 21.51 70.718 0.259 7.6 9.04 8.18
7/15/2021 9:30:00 PM 21.48 70.664 0.26 7.58 8.9 8.13
7/15/2021 9:45:00 PM 21.44 70.592 0.262 7.57 9.02 8.07
7/15/2021 10:00:00 PM 21.41 70.538 0.263 7.56 8.89 8.02
7/15/2021 10:15:00 PM 21.37 70.466 0.264 7.55 8.85 7.96
7/15/2021 10:30:00 PM 21.32 70.376 0.265 7.54 8.82 7.91
7/15/2021 10:45:00 PM 21.28 70.304 0.266 7.53 8.66 7.87
7/15/2021 11:00:00 PM 21.24 70.232 0.267 7.52 8.64 7.83
7/15/2021 11:15:00 PM 21.2 70.16 0.268 7.51 8.57 7.79
7/15/2021 11:30:00 PM 21.16 70.088 0.269 7.5 8.63 7.75
7/15/2021 11:45:00 PM 21.11 69.998 0.27 7.49 8.68 7.73
7/16/2021 12:00:00 AM 21.07 69.926 0.271 7.49 8.29 7.71
7/16/2021 12:15:00 AM 21.02 69.836 0.272 7.48 8.94 7.69
7/16/2021 12:30:00 AM 20.97 69.746 0.273 7.47 8.65 7.68
7/16/2021 12:45:00 AM 20.92 69.656 0.274 7.47 8.15 7.67
7/16/2021 1:00:00 AM 20.86 69.548 0.275 7.47 8.4 7.66
7/16/2021 1:15:00 AM 20.81 69.458 0.276 7.46 8.75 7.66
7/16/2021 1:30:00 AM 20.74 69.332 0.277 7.46 8.54 7.66
7/16/2021 1:45:00 AM 20.68 69.224 0.278 7.46 8.3 7.66
7/16/2021 2:00:00 AM 20.61 69.098 0.279 7.45 8.31 7.66
7/16/2021 2:15:00 AM 20.54 68.972 0.28 7.45 10.24 7.66
7/16/2021 2:30:00 AM 20.46 68.828 0.281 7.45 8.4 7.67
7/16/2021 2:45:00 AM 20.38 68.684 0.281 7.45 8.43 7.67
7/16/2021 3:00:00 AM 20.3 68.54 0.282 7.44 8.42 7.68
7/16/2021 3:15:00 AM 20.21 68.378 0.283 7.44 8.07 7.7
7/16/2021 3:30:00 AM 20.13 68.234 0.284 7.44 8 7.7
7/16/2021 3:45:00 AM 20.04 68.07201 0.285 7.43 8.34 7.72
7/16/2021 4:00:00 AM 19.96 67.92799 0.286 7.43 8.56 7.74
7/16/2021 4:15:00 AM 19.88 67.784 0.287 7.44 8.45 7.75
7/16/2021 4:30:00 AM 19.8 67.64 0.287 7.44 8.45 7.76
7/16/2021 4:45:00 AM 19.71 67.478 0.288 7.44 8.16 7.78
7/16/2021 5:00:00 AM 19.63 67.334 0.289 7.44 8.46 7.79
7/16/2021 5:15:00 AM 19.56 67.208 0.29 7.44 7.95 7.81
7/16/2021 5:30:00 AM 19.47 67.046 0.29 7.44 8.09 7.83
7/16/2021 5:45:00 AM 19.37 66.866 0.291 7.44 7.84 7.85
7/16/2021 6:00:00 AM 19.28 66.704 0.291 7.44 7.84 7.86
7/16/2021 6:15:00 AM 19.19 66.542 0.292 7.44 7.7 7.88
7/16/2021 6:30:00 AM 19.11 66.398 0.293 7.44 7.43 7.91
7/16/2021 6:45:00 AM 19.02 66.236 0.293 7.44 7.18 7.94
7/16/2021 7:00:00 AM 18.94 66.092 0.294 7.44 7.15 7.97
7/16/2021 7:15:00 AM 18.87 65.966 0.294 7.45 7 8.01
7/16/2021 7:30:00 AM 18.82 65.876 0.295 7.45 6.7 8.06
7/16/2021 7:45:00 AM 18.77 65.786 0.295 7.46 6.55 8.12
7/16/2021 8:00:00 AM 18.73 65.714 0.295 7.46 6.61 8.18
7/16/2021 8:15:00 AM 18.7 65.66 0.296 7.47 5.87 8.26
7/16/2021 8:30:00 AM 18.66 65.588 0.296 7.48 5.35 8.33
7/16/2021 8:45:00 AM 18.64 65.552 0.297 7.49 5.6 8.4
7/16/2021 9:00:00 AM 18.62 65.516 0.297 7.5 5.32 8.5
7/16/2021 9:15:00 AM 18.61 65.498 0.297 7.51 5.21 8.57
7/16/2021 9:30:00 AM 18.61 65.498 0.298 7.53 5.15 8.69
7/16/2021 9:45:00 AM 18.62 65.516 0.298 7.54 5.2 8.78
7/16/2021 10:00:00 AM 18.63 65.534 0.298 7.56 4.87 8.88
7/16/2021 10:15:00 AM 18.66